SV914 / HZ-AI3 7700 Squawk Report (12th of October, 2019)

Aircraft B748 Reg No. HZ-AI3 Age 6 years old
Model 747 Jet engines 4 First flight 31-01-13
Registered 21-03-18 Rollout N/A Delivered 25-03-13
Construction No. 37562 Line No. 1429 Series 87UF
ADSHEX 71001A Airline name Saudia Owner N/A
Airfield based Jeddah~ ~HZ First tracked 2018-06-20 00:57:00

Flight history for HZ-AI3

Route Flight No Date Playback
Dawadmi Domestic Airport (DWD) - King Khaled Intl (RUH) SV1244 2019-11-13 21:38:00
Frankfurt Main (FRA) - King Khaled Intl (RUH) SV928 2019-11-13 21:05:00
King Fahd Intl (DMM) - Frankfurt Main (FRA) SV927 2019-11-12 19:52:00
Hazrat Shahjalal Intl (DAC) - King Fahd Intl (DMM) SV965 2019-11-12 16:08:00
King Abdulaziz Intl (JED) - Hazrat Shahjalal Intl (DAC) SV964 2019-11-11 21:03:00
Frankfurt Main (FRA) - King Abdulaziz Intl (JED) SV914 2019-11-09 11:28:00
King Fahd Intl (DMM) - Frankfurt Main (FRA) SV913 2019-11-08 06:32:00
Hazrat Shahjalal Intl (DAC) - King Fahd Intl (DMM) SV961 2019-11-07 21:12:00
King Fahd Intl (DMM) - Hazrat Shahjalal Intl (DAC) SV960 2019-11-07 15:07:00
Frankfurt Main (FRA) - King Khaled Intl (RUH) SV928 2019-11-05 15:49:00
King Fahd Intl (DMM) - Frankfurt Main (FRA) SV927 2019-11-04 11:32:00
Hazrat Shahjalal Intl (DAC) - King Fahd Intl (DMM) SV965 2019-11-03 05:55:00
King Abdulaziz Intl (JED) - Hazrat Shahjalal Intl (DAC) SV964 2019-11-02 22:33:00
Frankfurt Main (FRA) - King Abdulaziz Intl (JED) SV914 2019-11-02 20:24:00
King Fahd Intl (DMM) - Frankfurt Main (FRA) SV913 2019-11-01 10:43:00
Hazrat Shahjalal Intl (DAC) - King Fahd Intl (DMM) SV961 2019-11-01 04:25:00
King Khaled Intl (RUH) - Hazrat Shahjalal Intl (DAC) SV960 2019-10-31 18:56:00
Frankfurt Main (FRA) - King Khaled Intl (RUH) SV928 2019-10-31 13:01:00
King Fahd Intl (DMM) - Frankfurt Main (FRA) SV927 2019-10-30 07:26:00
Hazrat Shahjalal Intl (DAC) - King Fahd Intl (DMM) SV965 2019-10-30 01:02:00
Time Lat Lon Altitude Heading Speed Vertical Rate
2019-10-13 05:03:42 GMT 26.702364 49.715405 4,400 160 208 -1088
2019-10-13 05:03:23 GMT 26.718424 49.698399 4,750 91 206 -576
2019-10-13 05:02:58 GMT 26.716375 49.677429 4,925 76 206 -512
2019-10-13 05:02:43 GMT 26.713120 49.661884 5,025 76 205 -320
2019-10-13 05:02:35 GMT 26.711535 49.654243 5,075 76 205 -320
2019-10-13 05:01:15 GMT 26.693846 49.569733 5,875 76 211 -832
2019-10-13 05:00:00 GMT 26.676666 49.488338 7,450 76 217 -1536
2019-10-13 04:58:31 GMT 26.655392 49.387772 9,300 76 242 -1280
2019-10-13 04:58:19 GMT 26.652180 49.372559 9,600 76 244 -1408
2019-10-13 04:58:11 GMT 26.650366 49.364056 9,725 76 247 -1024
2019-10-13 04:58:01 GMT 26.647476 49.350639 9,875 76 255 -896
2019-10-13 04:57:49 GMT 26.644453 49.336060 10,025 76 262 -896
2019-10-13 04:57:38 GMT 26.641342 49.321304 10,175 76 387 -704
2019-10-13 04:54:08 GMT 26.573410 49.003067 14,350 76 387 -704
2019-10-13 04:52:23 GMT 26.533035 48.815262 15,925 76 387 -704
2019-10-13 04:52:13 GMT 26.528915 48.796192 16,050 76 393 -896
2019-10-13 04:52:03 GMT 26.524384 48.775204 16,200 76 400 -960
2019-10-13 04:51:08 GMT 26.500002 48.662727 17,575 76 425 -1728
2019-10-13 04:51:03 GMT 26.497833 48.652901 17,700 76 428 -1792
2019-10-13 04:49:57 GMT 26.465878 48.506382 19,875 76 454 -2304
2019-10-13 04:49:49 GMT 26.461967 48.488583 20,175 76 456 -2944
2019-10-13 04:49:26 GMT 26.450050 48.434231 21,150 76 463 -2176
2019-10-13 04:49:09 GMT 26.441393 48.394669 21,850 76 467 -2368
2019-10-13 04:48:18 GMT 26.415136 48.275669 23,975 76 479 -3008
2019-10-13 04:48:09 GMT 26.410172 48.253143 24,350 76 479 -3008
2019-10-13 04:48:06 GMT 26.408524 48.245682 24,500 76 480 -2944
2019-10-13 04:47:56 GMT 26.403078 48.221161 24,900 76 482 -1280
2019-10-13 04:47:41 GMT 26.395203 48.185413 25,000 76 487 0
2019-10-13 04:47:09 GMT 26.378174 48.108181 25,000 76 487 0
2019-10-13 04:47:02 GMT 26.374512 48.091614 25,000 76 487 0
2019-10-13 04:46:53 GMT 26.369375 48.068195 25,000 76 487 0
2019-10-13 04:46:42 GMT 26.363892 48.043316 25,000 76 488 0
2019-10-13 04:46:32 GMT 26.358389 48.018124 25,000 76 488 0
2019-10-13 04:46:20 GMT 26.351990 47.989059 24,975 76 488 0
2019-10-13 04:46:10 GMT 26.346542 47.964184 24,975 76 487 64
2019-10-13 04:46:00 GMT 26.341141 47.939827 24,950 76 487 128
2019-10-13 04:45:50 GMT 26.335739 47.915470 24,950 76 487 192
2019-10-13 04:45:39 GMT 26.329880 47.889351 24,950 76 488 -640
2019-10-13 04:45:29 GMT 26.324295 47.864479 25,075 75 488 -1024
2019-10-13 04:45:19 GMT 26.318308 47.838646 25,300 75 489 -1664
2019-10-13 04:45:07 GMT 26.311707 47.810791 25,650 75 491 -1856
2019-10-13 04:44:58 GMT 26.306576 47.788204 25,875 76 494 -1152
2019-10-13 04:44:48 GMT 26.300354 47.762596 26,100 71 495 -1664
2019-10-13 04:44:37 GMT 26.290695 47.736633 26,375 61 497 -1280
2019-10-13 04:44:27 GMT 26.279755 47.715851 26,575 53 499 -1600
2019-10-13 04:44:16 GMT 26.263870 47.693516 26,875 47 499 -1792
2019-10-13 04:44:06 GMT 26.247175 47.675381 27,150 41 499 -1728
2019-10-13 04:43:56 GMT 26.228714 47.659367 27,400 33 500 -1536
2019-10-13 04:43:45 GMT 26.207466 47.644535 27,675 31 503 -1280
2019-10-13 04:43:33 GMT 26.184082 47.628841 27,875 31 504 -832
2019-10-13 04:43:24 GMT 26.165291 47.616119 27,975 31 505 -384
2019-10-13 04:43:14 GMT 26.145226 47.602596 28,025 31 507 -320
2019-10-13 04:43:03 GMT 26.123520 47.587955 28,100 31 507 -768
2019-10-13 04:42:53 GMT 26.102398 47.573708 28,225 31 507 -576
2019-10-13 04:42:42 GMT 26.081730 47.559708 28,275 31 508 64
2019-10-13 04:42:32 GMT 26.061081 47.545616 28,275 31 507 -256
2019-10-13 04:42:19 GMT 26.035767 47.528255 28,425 31 504 -1088
2019-10-13 04:42:11 GMT 26.019583 47.517403 28,600 31 503 -1600
2019-10-13 04:42:00 GMT 25.997681 47.501671 28,875 36 502 -1600
2019-10-13 04:41:50 GMT 25.979874 47.485916 29,125 42 504 -1728
2019-10-13 04:41:40 GMT 25.962112 47.466587 29,425 47 509 -1664
2019-10-13 04:41:30 GMT 25.946867 47.446148 29,700 54 513 -1792
2019-10-13 04:41:19 GMT 25.933041 47.422432 30,000 61 516 -1728
2019-10-13 04:41:08 GMT 25.921450 47.397713 30,275 63 515 -1664
2019-10-13 04:40:58 GMT 25.910202 47.373100 30,575 63 508 -1600
2019-10-13 04:40:47 GMT 25.899033 47.348793 30,825 63 501 -1536
2019-10-13 04:40:37 GMT 25.887817 47.324284 31,100 63 488 -1664
2019-10-13 04:40:26 GMT 25.877504 47.301792 31,375 63 478 -1728
2019-10-13 04:40:16 GMT 25.866760 47.278316 31,650 63 480 -1792
2019-10-13 04:40:06 GMT 25.856644 47.256290 31,950 63 482 -1728
2019-10-13 04:39:55 GMT 25.846315 47.233814 32,225 63 483 -1728
2019-10-13 04:39:45 GMT 25.835129 47.209496 32,525 63 484 -1856
2019-10-13 04:39:34 GMT 25.824921 47.187298 32,825 63 486 -1792
2019-10-13 04:39:24 GMT 25.814194 47.163944 33,125 63 488 -1792
2019-10-13 04:39:14 GMT 25.803497 47.140656 33,425 63 492 -1792
2019-10-13 04:39:03 GMT 25.792826 47.117458 33,725 63 495 -1792
2019-10-13 04:38:53 GMT 25.781525 47.092945 34,025 62 499 -1856
2019-10-13 04:38:40 GMT 25.768759 47.065327 34,400 62 503 -1792
2019-10-13 04:38:32 GMT 25.759369 47.045086 34,650 62 506 -1856
2019-10-13 04:38:26 GMT 25.753071 47.031384 34,800 62 508 -1792
2019-10-13 04:38:21 GMT 25.748245 47.020977 34,950 62 510 -1792
2019-10-13 04:38:11 GMT 25.736963 46.996712 35,225 62 514 -1792
2019-10-13 04:38:01 GMT 25.725906 46.972706 35,525 63 519 -1728
2019-10-13 04:37:50 GMT 25.713873 46.946602 35,825 62 524 -1728
2019-10-13 04:37:44 GMT 25.707687 46.933186 35,975 62 527 -1664
2019-10-13 04:37:39 GMT 25.702698 46.922352 36,100 62 528 -1664
2019-10-13 04:37:29 GMT 25.690924 46.897007 36,400 62 532 -1728
2019-10-13 04:37:19 GMT 25.679581 46.872559 36,700 62 531 -1792
2019-10-13 04:37:08 GMT 25.667496 46.846569 36,950 62 525 -832
2019-10-13 04:36:58 GMT 25.655869 46.821491 37,000 62 524 0
2019-10-13 04:36:47 GMT 25.644470 46.796875 37,000 62 524 0
2019-10-13 04:36:37 GMT 25.632751 46.771545 37,000 62 524 0
2019-10-13 04:36:27 GMT 25.621746 46.747967 36,975 62 524 0
2019-10-13 04:36:16 GMT 25.609783 46.722210 37,000 62 523 0
2019-10-13 04:36:06 GMT 25.598238 46.697388 37,000 62 523 0
2019-10-13 04:36:00 GMT 25.590137 46.680027 36,975 62 524 0
2019-10-13 04:35:54 GMT 25.585623 46.670235 36,975 62 524 0
2019-10-13 04:35:49 GMT 25.579285 46.656696 36,975 62 524 0
2019-10-13 04:35:44 GMT 25.574730 46.646912 36,975 62 524 0
2019-10-13 04:35:37 GMT 25.566162 46.628620 36,975 62 523 0
2019-10-13 04:35:34 GMT 25.563171 46.622162 36,975 62 523 0
2019-10-13 04:35:27 GMT 25.554338 46.603123 36,975 62 523 0
2019-10-13 04:35:23 GMT 25.551546 46.597214 36,975 62 523 0
2019-10-13 04:35:17 GMT 25.543818 46.580528 37,000 62 522 0
2019-10-13 04:35:13 GMT 25.539816 46.571980 36,975 62 522 0
2019-10-13 04:35:03 GMT 25.528519 46.547749 36,975 62 522 0
2019-10-13 04:34:57 GMT 25.520216 46.529949 36,975 62 521 0
2019-10-13 04:34:52 GMT 25.516983 46.523083 37,000 62 521 0
2019-10-13 04:34:42 GMT 25.505459 46.498444 36,975 62 521 0
2019-10-13 04:34:35 GMT 25.497499 46.481342 36,975 62 521 0
2019-10-13 04:34:32 GMT 25.494186 46.474255 36,975 62 521 0
2019-10-13 04:34:24 GMT 25.485352 46.455280 37,000 62 521 0
2019-10-13 04:34:21 GMT 25.481903 46.447968 37,000 62 521 0
2019-10-13 04:34:15 GMT 25.475386 46.434029 37,000 62 521 0
2019-10-13 04:34:10 GMT 25.470612 46.423847 37,000 62 521 0
2019-10-13 04:34:00 GMT 25.458755 46.398518 36,975 62 521 0
2019-10-13 04:33:55 GMT 25.453125 46.386463 37,000 62 521 64
2019-10-13 04:33:50 GMT 25.447586 46.374664 36,975 62 521 0
2019-10-13 04:33:44 GMT 25.440079 46.358593 36,975 62 521 0
2019-10-13 04:33:39 GMT 25.435730 46.349384 36,975 62 521 0
2019-10-13 04:33:29 GMT 25.424364 46.325043 37,000 62 520 -64
2019-10-13 04:33:18 GMT 25.413025 46.301014 37,000 62 520 0
2019-10-13 04:33:14 GMT 25.407074 46.288300 37,000 62 520 0
2019-10-13 04:33:07 GMT 25.400620 46.274616 37,000 62 520 0
2019-10-13 04:33:03 GMT 25.395876 46.264515 37,000 62 520 0
2019-10-13 04:32:58 GMT 25.389816 46.251526 37,000 62 519 0
2019-10-13 04:32:53 GMT 25.384277 46.239777 37,000 62 519 -64
2019-10-13 04:32:47 GMT 25.378185 46.226841 37,000 62 519 0
2019-10-13 04:32:36 GMT 25.366220 46.201397 36,975 62 519 0
2019-10-13 04:32:32 GMT 25.361160 46.190594 37,000 62 519 0
2019-10-13 04:32:26 GMT 25.355282 46.178127 37,000 62 519 0
2019-10-13 04:32:15 GMT 25.343319 46.152737 37,000 62 519 0
2019-10-13 04:32:09 GMT 25.336166 46.137440 37,000 62 519 0
2019-10-13 04:32:05 GMT 25.331268 46.127117 37,000 62 519 0
2019-10-13 04:31:55 GMT 25.320555 46.104332 36,975 62 519 0
2019-10-13 04:31:44 GMT 25.308496 46.078732 36,975 62 518 0
2019-10-13 04:31:40 GMT 25.304399 46.070080 37,000 62 518 0
2019-10-13 04:31:34 GMT 25.297302 46.055042 36,975 62 518 0
2019-10-13 04:31:29 GMT 25.290436 46.040497 36,975 62 518 64
2019-10-13 04:31:24 GMT 25.285812 46.030628 36,975 62 518 -64
2019-10-13 04:31:20 GMT 25.281263 46.020798 36,975 62 518 0
2019-10-13 04:31:13 GMT 25.274513 46.006699 36,975 62 518 0
2019-10-13 04:31:06 GMT 25.265669 45.987942 36,975 62 517 0
2019-10-13 04:31:03 GMT 25.262787 45.981853 36,975 62 518 0
2019-10-13 04:30:59 GMT 25.257568 45.970840 37,000 62 517 0
2019-10-13 04:30:52 GMT 25.251022 45.957031 36,975 62 517 0
2019-10-13 04:30:41 GMT 25.239180 45.932022 36,975 62 517 -64
2019-10-13 04:30:35 GMT 25.231110 45.914917 37,000 62 517 0
2019-10-13 04:30:27 GMT 25.220352 45.892231 36,975 62 517 0
2019-10-13 04:30:21 GMT 25.216276 45.883621 36,975 62 517 0
2019-10-13 04:30:17 GMT 25.211157 45.872845 36,975 62 517 0
2019-10-13 04:30:10 GMT 25.204834 45.859528 36,975 62 517 0
2019-10-13 04:30:04 GMT 25.196772 45.842476 36,975 62 517 0
2019-10-13 04:30:00 GMT 25.193024 45.834503 37,000 62 517 0
2019-10-13 04:29:56 GMT 25.188019 45.824024 37,000 62 517 0
2019-10-13 04:29:49 GMT 25.181259 45.809784 37,000 62 517 -64
2019-10-13 04:29:44 GMT 25.175636 45.797855 37,000 62 516 0
2019-10-13 04:29:39 GMT 25.169724 45.785473 37,000 62 516 0
2019-10-13 04:29:31 GMT 25.160019 45.764973 37,000 62 516 0
2019-10-13 04:29:28 GMT 25.158226 45.761219 37,000 62 515 0
2019-10-13 04:29:18 GMT 25.146914 45.737484 37,000 62 515 0
2019-10-13 04:29:07 GMT 25.135183 45.712765 37,000 62 515 0
2019-10-13 04:29:00 GMT 25.126465 45.694427 37,000 62 515 0
2019-10-13 04:28:56 GMT 25.120052 45.680946 36,975 62 515 -64
2019-10-13 04:28:45 GMT 25.109531 45.658871 37,000 62 514 0
2019-10-13 04:28:36 GMT 25.096916 45.632389 36,975 62 514 0
2019-10-13 04:28:25 GMT 25.087048 45.611710 36,975 62 514 0
2019-10-13 04:28:14 GMT 25.075562 45.587566 36,975 62 514 0
2019-10-13 04:28:04 GMT 25.064144 45.563671 36,975 62 514 -64
2019-10-13 04:27:54 GMT 25.052645 45.539520 37,000 62 514 0
2019-10-13 04:27:43 GMT 25.041458 45.516052 37,000 62 514 0
2019-10-13 04:27:32 GMT 25.028484 45.488892 36,975 62 515 0
2019-10-13 04:27:22 GMT 25.016235 45.463360 36,975 62 516 0
2019-10-13 04:27:12 GMT 25.006466 45.442871 37,000 62 516 -64
2019-10-13 04:27:02 GMT 24.996132 45.421265 37,000 62 517 0
2019-10-13 04:26:51 GMT 24.984215 45.396389 37,000 62 517 0
2019-10-13 04:26:40 GMT 24.971970 45.370789 36,975 62 517 0
2019-10-13 04:26:31 GMT 24.961170 45.348194 36,975 62 517 0
2019-10-13 04:26:20 GMT 24.949448 45.323792 37,000 62 517 0
2019-10-13 04:26:10 GMT 24.938049 45.299988 37,000 62 518 0
2019-10-13 04:25:59 GMT 24.925978 45.274815 37,000 62 518 0
2019-10-13 04:25:49 GMT 24.914337 45.250549 36,975 62 518 0
2019-10-13 04:25:38 GMT 24.902655 45.226307 36,975 62 518 0
2019-10-13 04:25:28 GMT 24.890900 45.201771 36,975 62 518 0
2019-10-13 04:25:17 GMT 24.878632 45.176342 36,975 62 519 -64
2019-10-13 04:25:06 GMT 24.866959 45.152081 37,000 62 518 0
2019-10-13 04:24:55 GMT 24.854612 45.126396 37,000 62 519 0
2019-10-13 04:24:45 GMT 24.843115 45.102608 37,000 62 520 0
2019-10-13 04:24:34 GMT 24.830750 45.076904 37,000 62 519 0
2019-10-13 04:24:24 GMT 24.819372 45.053375 37,000 62 519 0
2019-10-13 04:24:13 GMT 24.807129 45.027931 37,000 62 519 0
2019-10-13 04:24:04 GMT 24.796555 45.006001 36,975 62 519 0
2019-10-13 04:23:53 GMT 24.784365 44.980827 37,000 62 519 0
2019-10-13 04:23:43 GMT 24.772541 44.956367 36,975 62 519 0
2019-10-13 04:23:32 GMT 24.760986 44.932354 37,000 62 519 0
2019-10-13 04:23:22 GMT 24.749170 44.907860 36,975 62 519 0
2019-10-13 04:23:11 GMT 24.737534 44.883865 36,975 62 519 0
2019-10-13 04:23:00 GMT 24.725143 44.858196 37,000 62 520 0
2019-10-13 04:22:51 GMT 24.714024 44.835102 37,000 62 520 0
2019-10-13 04:22:40 GMT 24.701935 44.810181 37,000 62 519 0
2019-10-13 04:22:29 GMT 24.690189 44.785923 37,000 62 519 0
2019-10-13 04:22:19 GMT 24.678360 44.761456 37,000 62 519 0
2019-10-13 04:22:08 GMT 24.666229 44.736530 37,000 62 519 0
2019-10-13 04:21:58 GMT 24.654465 44.712322 37,000 62 519 0
2019-10-13 04:21:47 GMT 24.642241 44.687149 37,000 61 520 0
2019-10-13 04:21:37 GMT 24.630981 44.664104 37,000 61 520 0
2019-10-13 04:21:27 GMT 24.619400 44.640400 37,000 61 520 0
2019-10-13 04:21:16 GMT 24.607327 44.615738 37,000 61 520 0
2019-10-13 04:21:05 GMT 24.594727 44.590149 37,000 61 521 0
2019-10-13 04:20:55 GMT 24.583099 44.566395 36,975 61 521 0
2019-10-13 04:20:45 GMT 24.571575 44.542824 37,000 61 521 0
2019-10-13 04:20:34 GMT 24.559250 44.517620 37,000 62 522 0
2019-10-13 04:20:24 GMT 24.547256 44.492798 37,000 62 522 0
2019-10-13 04:20:13 GMT 24.535080 44.467773 37,000 61 522 64
2019-10-13 04:20:03 GMT 24.523859 44.444618 36,975 63 522 0
2019-10-13 04:19:50 GMT 24.510406 44.412842 37,000 67 524 0
2019-10-13 04:19:41 GMT 24.502584 44.391087 36,975 69 525 64
2019-10-13 04:19:32 GMT 24.495346 44.367878 36,975 72 527 0
2019-10-13 04:19:21 GMT 24.487827 44.338852 36,975 76 527 -64
2019-10-13 04:19:10 GMT 24.482208 44.310047 37,000 79 528 0
2019-10-13 04:19:00 GMT 24.477772 44.284229 37,000 79 529 0
2019-10-13 04:18:50 GMT 24.473282 44.258728 37,000 79 529 0
2019-10-13 04:18:39 GMT 24.468323 44.230282 37,000 79 529 0
2019-10-13 04:18:29 GMT 24.463669 44.203693 37,000 79 529 64
2019-10-13 04:18:18 GMT 24.458452 44.174782 37,000 78 529 0
2019-10-13 04:18:08 GMT 24.452959 44.148041 36,975 76 529 0
2019-10-13 04:17:58 GMT 24.446861 44.121510 37,000 74 529 0
2019-10-13 04:17:47 GMT 24.439819 44.094189 37,000 73 529 0
2019-10-13 04:17:36 GMT 24.431992 44.066772 37,000 71 529 0
2019-10-13 04:17:27 GMT 24.424145 44.041702 37,000 70 528 0
2019-10-13 04:17:16 GMT 24.415392 44.014393 37,000 70 528 0
2019-10-13 04:17:06 GMT 24.407089 43.988647 37,000 70 528 0
2019-10-13 04:16:55 GMT 24.398346 43.961384 37,000 70 528 0
2019-10-13 04:16:45 GMT 24.390066 43.935623 37,000 70 528 0
2019-10-13 04:16:34 GMT 24.381546 43.909100 37,000 70 528 0
2019-10-13 04:16:23 GMT 24.372936 43.882298 37,000 70 528 0
2019-10-13 04:16:13 GMT 24.364603 43.856541 37,000 70 529 0
2019-10-13 04:16:03 GMT 24.356003 43.829803 37,000 70 529 0
2019-10-13 04:15:52 GMT 24.347534 43.803509 37,000 70 529 0
2019-10-13 04:15:42 GMT 24.339140 43.777565 37,000 70 529 0
2019-10-13 04:15:32 GMT 24.330688 43.751324 37,000 70 529 0
2019-10-13 04:15:20 GMT 24.321404 43.722580 37,000 70 529 0
2019-10-13 04:15:10 GMT 24.313019 43.696594 37,000 70 528 0
2019-10-13 04:15:00 GMT 24.305191 43.672382 37,000 70 528 0
2019-10-13 04:14:49 GMT 24.295944 43.643902 37,000 70 528 0
2019-10-13 04:14:39 GMT 24.287933 43.619183 37,000 70 529 0
2019-10-13 04:14:28 GMT 24.279272 43.592506 37,000 70 529 0
We lost coverage of the aircraft here for a total of 367 minutes
2019-10-12 22:07:10 GMT 33.726070 24.631290 32,950 151 500 0
2019-10-12 22:04:56 GMT 33.999565 24.450245 32,950 153 503 0
2019-10-12 22:04:45 GMT 34.021587 24.436855 32,950 153 503 0
2019-10-12 22:04:34 GMT 34.044678 24.422836 32,950 153 503 0
2019-10-12 22:04:24 GMT 34.065067 24.410419 32,950 153 504 0
2019-10-12 22:04:13 GMT 34.089226 24.395771 32,950 153 504 0
2019-10-12 22:04:03 GMT 34.109848 24.383259 32,950 153 504 0
2019-10-12 22:03:52 GMT 34.131500 24.370087 32,950 153 504 0
2019-10-12 22:03:42 GMT 34.152954 24.357033 32,950 153 504 0
2019-10-12 22:03:31 GMT 34.175209 24.343414 32,950 153 504 0
2019-10-12 22:03:21 GMT 34.197098 24.330120 32,950 153 504 0
2019-10-12 22:03:09 GMT 34.221268 24.315378 32,950 153 504 0
2019-10-12 22:03:00 GMT 34.241032 24.303303 32,950 153 504 0
2019-10-12 22:02:49 GMT 34.262680 24.290028 32,950 153 504 0
2019-10-12 22:02:39 GMT 34.284977 24.276466 32,950 153 504 0
2019-10-12 22:02:28 GMT 34.307648 24.262562 32,950 153 504 0
2019-10-12 22:02:16 GMT 34.332649 24.247284 32,950 153 504 0
2019-10-12 22:02:06 GMT 34.353287 24.234663 32,950 153 504 64
2019-10-12 22:01:55 GMT 34.375942 24.220734 32,950 153 504 0
2019-10-12 22:01:44 GMT 34.399265 24.206429 32,950 153 504 0
2019-10-12 22:01:33 GMT 34.421982 24.192524 32,950 153 504 0
2019-10-12 22:01:22 GMT 34.445072 24.178333 32,950 153 504 0
2019-10-12 22:01:09 GMT 34.470490 24.162712 32,950 153 504 0
2019-10-12 22:00:59 GMT 34.491718 24.149666 32,950 153 504 0
2019-10-12 22:00:51 GMT 34.507736 24.139822 32,950 153 504 0
2019-10-12 22:00:48 GMT 34.514015 24.135990 32,950 153 504 0
2019-10-12 22:00:41 GMT 34.528564 24.127043 32,950 153 504 0
2019-10-12 22:00:37 GMT 34.537720 24.121380 32,950 153 504 0
2019-10-12 22:00:32 GMT 34.549164 24.114361 32,950 153 504 0
2019-10-12 22:00:25 GMT 34.563126 24.105799 32,950 153 504 0
2019-10-12 22:00:15 GMT 34.583496 24.093243 32,950 153 504 0
2019-10-12 22:00:06 GMT 34.602650 24.081459 32,950 152 504 0
2019-10-12 22:00:03 GMT 34.607864 24.078197 32,950 152 504 0
2019-10-12 21:59:57 GMT 34.621353 24.069868 32,950 152 504 0
2019-10-12 21:59:53 GMT 34.628860 24.065271 32,950 152 504 0
2019-10-12 21:59:45 GMT 34.645889 24.054733 32,950 152 504 0
2019-10-12 21:59:42 GMT 34.658798 24.046774 32,950 152 504 0
2019-10-12 21:59:31 GMT 34.674809 24.036884 32,950 152 504 0
2019-10-12 21:59:28 GMT 34.681458 24.032761 32,950 152 504 0
2019-10-12 21:59:22 GMT 34.694592 24.024639 32,950 152 504 0
2019-10-12 21:59:19 GMT 34.699997 24.021326 32,950 152 504 0
2019-10-12 21:59:10 GMT 34.719776 24.009075 32,950 152 504 0
2019-10-12 21:59:02 GMT 34.736206 23.998960 32,950 152 504 0
2019-10-12 21:58:57 GMT 34.744904 23.993525 32,950 152 504 0
2019-10-12 21:58:51 GMT 34.758041 23.985443 32,950 152 504 0
2019-10-12 21:58:48 GMT 34.764267 23.981585 32,950 152 504 0
2019-10-12 21:58:41 GMT 34.779877 23.971882 32,950 152 504 0
2019-10-12 21:58:37 GMT 34.787556 23.967133 32,950 152 504 0
2019-10-12 21:58:31 GMT 34.800449 23.959122 32,950 152 504 0
2019-10-12 21:58:25 GMT 34.811668 23.952198 32,950 152 504 0
2019-10-12 21:58:18 GMT 34.827438 23.942404 32,950 152 504 0
2019-10-12 21:58:10 GMT 34.844257 23.931942 32,950 152 504 0
2019-10-12 21:58:07 GMT 34.850098 23.928335 32,950 152 504 0
2019-10-12 21:58:00 GMT 34.864647 23.919296 32,950 152 504 0
2019-10-12 21:57:57 GMT 34.870651 23.915577 32,950 152 504 0
2019-10-12 21:57:50 GMT 34.886261 23.905857 32,950 152 504 0
2019-10-12 21:57:46 GMT 34.892715 23.901878 32,950 152 504 0
2019-10-12 21:57:40 GMT 34.908691 23.891956 32,950 152 504 0
2019-10-12 21:57:36 GMT 34.914505 23.888340 32,950 152 504 0
2019-10-12 21:57:25 GMT 34.937130 23.874264 32,950 152 503 0
2019-10-12 21:57:19 GMT 34.950851 23.865725 32,950 152 503 0
2019-10-12 21:57:14 GMT 34.959335 23.860416 32,950 152 503 0
2019-10-12 21:57:08 GMT 34.973877 23.851374 32,950 152 503 0
2019-10-12 21:57:04 GMT 34.980934 23.846970 32,950 152 503 0
2019-10-12 21:56:57 GMT 34.994614 23.838482 32,950 152 503 0
2019-10-12 21:56:53 GMT 35.003513 23.832893 32,950 152 503 0
2019-10-12 21:56:45 GMT 35.025925 23.818920 32,950 152 503 0
2019-10-12 21:56:35 GMT 35.047485 23.805523 32,950 152 503 0
2019-10-12 21:56:24 GMT 35.063423 23.795528 32,950 152 503 0
2019-10-12 21:56:21 GMT 35.068817 23.792128 32,950 152 502 0
2019-10-12 21:56:11 GMT 35.090332 23.778673 32,950 152 503 0
2019-10-12 21:56:04 GMT 35.105484 23.769257 32,950 152 503 0
2019-10-12 21:55:59 GMT 35.114822 23.763428 32,950 152 503 0
2019-10-12 21:55:53 GMT 35.127640 23.755356 32,950 152 503 0
2019-10-12 21:55:50 GMT 35.134094 23.751375 32,950 152 503 0
2019-10-12 21:55:43 GMT 35.148987 23.742027 32,950 152 502 0
2019-10-12 21:55:39 GMT 35.156857 23.737106 32,950 152 502 0
2019-10-12 21:55:32 GMT 35.170532 23.728563 32,950 152 502 0
2019-10-12 21:55:28 GMT 35.179852 23.722744 32,950 152 502 0
2019-10-12 21:55:22 GMT 35.191444 23.715477 32,950 152 502 -64
2019-10-12 21:55:17 GMT 35.202801 23.708324 32,950 152 502 0
2019-10-12 21:55:12 GMT 35.212738 23.702106 32,950 152 502 0
2019-10-12 21:55:06 GMT 35.225189 23.694315 32,950 152 503 0
2019-10-12 21:55:01 GMT 35.234482 23.688412 32,950 152 503 0
2019-10-12 21:54:53 GMT 35.252472 23.677114 32,950 152 502 0
2019-10-12 21:54:50 GMT 35.257874 23.673763 32,950 152 502 0
2019-10-12 21:54:43 GMT 35.271515 23.665194 32,950 152 502 0
2019-10-12 21:54:40 GMT 35.277939 23.661161 32,950 152 502 0
2019-10-12 21:54:30 GMT 35.299866 23.647369 32,950 152 502 -64
2019-10-12 21:54:20 GMT 35.320114 23.634630 32,950 152 502 0
2019-10-12 21:54:12 GMT 35.342880 23.620319 32,950 152 502 0
2019-10-12 21:53:58 GMT 35.364803 23.606522 32,950 152 503 0
2019-10-12 21:53:49 GMT 35.384449 23.594133 32,950 152 502 0
2019-10-12 21:53:38 GMT 35.407150 23.579865 32,950 152 501 0
2019-10-12 21:53:28 GMT 35.428581 23.566317 32,950 152 500 0
2019-10-12 21:53:20 GMT 35.451859 23.551649 32,950 152 500 0
2019-10-12 21:53:16 GMT 35.451859 23.551649 32,950 152 500 0
2019-10-12 21:53:09 GMT 35.466892 23.542183 32,950 152 500 0
2019-10-12 21:53:05 GMT 35.474075 23.537636 32,950 152 500 0
2019-10-12 21:52:58 GMT 35.489330 23.527981 32,950 152 500 -64
2019-10-12 21:52:55 GMT 35.496323 23.523560 32,950 152 500 -64
2019-10-12 21:52:44 GMT 35.518566 23.509516 32,950 152 500 0
2019-10-12 21:52:36 GMT 35.533791 23.499872 32,950 152 500 0
2019-10-12 21:52:33 GMT 35.540359 23.495693 32,950 152 500 0
2019-10-12 21:52:26 GMT 35.555157 23.486315 32,950 152 500 0
2019-10-12 21:52:22 GMT 35.562603 23.481640 32,950 152 500 0
2019-10-12 21:52:16 GMT 35.576153 23.473049 32,950 152 500 0
2019-10-12 21:52:12 GMT 35.584579 23.467770 32,950 152 500 0
2019-10-12 21:52:06 GMT 35.596527 23.460159 32,950 152 500 0
2019-10-12 21:52:02 GMT 35.605133 23.454723 32,950 152 500 0
2019-10-12 21:51:55 GMT 35.619492 23.445583 32,950 152 500 0
2019-10-12 21:51:52 GMT 35.625870 23.441563 32,950 152 500 0
2019-10-12 21:51:44 GMT 35.641708 23.431492 32,950 152 500 0
2019-10-12 21:51:41 GMT 35.647842 23.427586 32,950 152 500 0
2019-10-12 21:51:35 GMT 35.660385 23.419647 32,950 152 500 0
2019-10-12 21:51:30 GMT 35.670044 23.413525 32,950 152 500 0
2019-10-12 21:51:25 GMT 35.680710 23.406723 32,950 152 500 0
2019-10-12 21:51:20 GMT 35.691376 23.399963 32,950 152 499 0
2019-10-12 21:51:10 GMT 35.711472 23.387146 32,950 152 499 0
2019-10-12 21:51:05 GMT 35.723373 23.379593 32,950 152 499 0
2019-10-12 21:51:00 GMT 35.732613 23.373705 32,950 152 499 0
2019-10-12 21:50:53 GMT 35.746124 23.365116 32,950 152 499 0
2019-10-12 21:50:49 GMT 35.753952 23.360138 32,950 152 499 0
2019-10-12 21:50:39 GMT 35.775238 23.346577 32,950 152 499 0
2019-10-12 21:50:34 GMT 35.788383 23.338234 32,950 152 498 0
2019-10-12 21:50:28 GMT 35.796577 23.332973 32,950 152 498 0
2019-10-12 21:50:18 GMT 35.817432 23.319710 32,950 152 497 0
2019-10-12 21:50:11 GMT 35.833008 23.309784 32,950 152 498 0
2019-10-12 21:50:07 GMT 35.839729 23.305508 32,950 152 498 0
2019-10-12 21:50:03 GMT 35.851181 23.298168 32,950 152 498 0
2019-10-12 21:49:57 GMT 35.860165 23.292418 32,950 152 497 0
2019-10-12 21:49:52 GMT 35.873669 23.283770 32,950 152 497 0
2019-10-12 21:49:46 GMT 35.882835 23.277925 32,950 152 497 0
2019-10-12 21:49:41 GMT 35.894897 23.270187 32,950 152 497 0
2019-10-12 21:49:36 GMT 35.903694 23.264603 32,950 152 497 0
2019-10-12 21:49:31 GMT 35.915516 23.257006 32,950 152 497 0
2019-10-12 21:49:26 GMT 35.924927 23.251019 32,950 152 497 0
2019-10-12 21:49:20 GMT 35.937561 23.242893 32,950 152 497 0
2019-10-12 21:49:16 GMT 35.944893 23.238188 32,950 152 497 0
2019-10-12 21:49:09 GMT 35.959167 23.229046 32,950 152 497 0
2019-10-12 21:49:05 GMT 35.966351 23.224455 32,950 152 497 0
2019-10-12 21:48:59 GMT 35.980591 23.215313 32,950 152 497 0
2019-10-12 21:48:55 GMT 35.987953 23.210606 32,950 152 497 0
2019-10-12 21:48:49 GMT 36.000195 23.202774 32,950 152 497 0
2019-10-12 21:48:45 GMT 36.008530 23.197397 32,950 152 497 0
2019-10-12 21:48:38 GMT 36.021610 23.189041 32,950 152 496 0
2019-10-12 21:48:34 GMT 36.030350 23.183384 32,950 152 497 0
2019-10-12 21:48:29 GMT 36.042419 23.175659 32,950 152 497 0
2019-10-12 21:48:24 GMT 36.051407 23.169880 32,950 152 497 0
2019-10-12 21:48:18 GMT 36.063831 23.161926 32,950 152 497 0
2019-10-12 21:48:13 GMT 36.072445 23.156433 32,950 152 497 0
2019-10-12 21:48:07 GMT 36.085899 23.147726 32,950 152 498 0
2019-10-12 21:48:03 GMT 36.093475 23.142872 32,950 152 498 0
2019-10-12 21:47:57 GMT 36.107986 23.133545 32,950 152 498 0
2019-10-12 21:47:52 GMT 36.115356 23.128796 32,950 152 498 0
2019-10-12 21:47:47 GMT 36.127213 23.121185 32,950 152 498 0
2019-10-12 21:47:42 GMT 36.135986 23.115526 32,950 152 498 -64
2019-10-12 21:47:39 GMT 36.142548 23.111343 32,950 152 498 0
2019-10-12 21:47:36 GMT 36.148232 23.107637 32,950 152 498 0
2019-10-12 21:47:32 GMT 36.157471 23.101673 32,950 152 498 64
2019-10-12 21:47:27 GMT 36.169739 23.093777 32,950 152 498 64
2019-10-12 21:47:22 GMT 36.178116 23.088341 32,950 152 499 64
2019-10-12 21:47:16 GMT 36.189571 23.080990 32,950 152 499 0
2019-10-12 21:47:10 GMT 36.201069 23.073568 32,950 152 499 0
2019-10-12 21:47:05 GMT 36.214005 23.065224 32,950 152 499 0
2019-10-12 21:47:00 GMT 36.221786 23.060246 32,950 152 499 0
2019-10-12 21:46:55 GMT 36.233467 23.052706 32,950 152 499 0
2019-10-12 21:46:50 GMT 36.242706 23.046741 32,950 152 500 0
2019-10-12 21:46:45 GMT 36.254562 23.039074 32,950 152 500 0
2019-10-12 21:46:38 GMT 36.266663 23.031260 32,950 152 500 0
2019-10-12 21:46:35 GMT 36.275272 23.025707 32,950 152 499 0
2019-10-12 21:46:28 GMT 36.288818 23.016941 32,950 152 500 -64
2019-10-12 21:46:22 GMT 36.301109 23.008993 32,950 152 500 0
2019-10-12 21:46:19 GMT 36.307068 23.005136 32,950 152 500 0
2019-10-12 21:46:14 GMT 36.318741 22.997589 32,950 152 500 0
2019-10-12 21:46:09 GMT 36.327785 22.991755 32,950 152 500 0
2019-10-12 21:46:03 GMT 36.340256 22.983627 32,950 152 500 0
2019-10-12 21:45:58 GMT 36.348686 22.978197 32,950 152 500 0
2019-10-12 21:45:52 GMT 36.361813 22.969725 32,950 152 500 0
2019-10-12 21:45:48 GMT 36.370239 22.964230 32,950 152 500 0
2019-10-12 21:45:42 GMT 36.383560 22.955589 32,950 152 500 0
2019-10-12 21:45:37 GMT 36.392166 22.950039 32,950 152 500 -64
2019-10-12 21:45:31 GMT 36.405712 22.941206 32,950 152 500 0
2019-10-12 21:45:27 GMT 36.413952 22.935888 32,950 152 500 0
2019-10-12 21:45:21 GMT 36.426056 22.928059 32,950 152 500 0
2019-10-12 21:45:17 GMT 36.434647 22.922459 32,950 152 500 0
2019-10-12 21:45:10 GMT 36.448196 22.913647 32,950 152 500 0
2019-10-12 21:45:06 GMT 36.457012 22.907898 32,950 152 501 0
2019-10-12 21:44:59 GMT 36.471405 22.898540 32,950 152 501 0
2019-10-12 21:44:56 GMT 36.477776 22.894398 32,950 152 501 0
2019-10-12 21:44:50 GMT 36.490112 22.886391 32,950 152 501 0
2019-10-12 21:44:45 GMT 36.498550 22.880859 32,950 152 501 0
2019-10-12 21:44:40 GMT 36.510639 22.872952 32,950 152 501 0
2019-10-12 21:44:35 GMT 36.520512 22.866581 32,950 152 501 0
2019-10-12 21:44:29 GMT 36.532845 22.858517 32,950 152 502 0
2019-10-12 21:44:25 GMT 36.540894 22.853279 32,950 152 502 0
2019-10-12 21:44:19 GMT 36.554073 22.844725 32,950 152 502 0
2019-10-12 21:44:14 GMT 36.562733 22.839115 32,950 152 502 0
2019-10-12 21:44:08 GMT 36.575489 22.830816 32,950 152 502 0
2019-10-12 21:44:03 GMT 36.584751 22.824739 32,950 152 502 0
2019-10-12 21:43:58 GMT 36.596481 22.817083 32,950 152 502 64
2019-10-12 21:43:51 GMT 36.610310 22.808084 32,950 152 502 0
2019-10-12 21:43:47 GMT 36.618130 22.803001 32,950 152 503 0
2019-10-12 21:43:42 GMT 36.629440 22.795580 32,950 152 503 0
2019-10-12 21:43:37 GMT 36.642014 22.787361 32,950 152 503 0
2019-10-12 21:43:30 GMT 36.653370 22.779919 32,950 152 503 0
2019-10-12 21:43:25 GMT 36.663845 22.773081 32,950 152 503 0
2019-10-12 21:43:19 GMT 36.676025 22.765102 32,950 152 503 0
2019-10-12 21:43:15 GMT 36.684677 22.759438 32,950 152 503 0
2019-10-12 21:43:09 GMT 36.697872 22.750816 32,950 152 503 0
2019-10-12 21:43:05 GMT 36.705879 22.745556 32,950 152 503 0
2019-10-12 21:42:58 GMT 36.719707 22.736557 32,950 152 503 0
2019-10-12 21:42:55 GMT 36.726700 22.731972 32,950 152 503 0
2019-10-12 21:42:45 GMT 36.748569 22.717623 32,950 152 503 0
2019-10-12 21:42:36 GMT 36.770782 22.703075 32,950 152 503 0
2019-10-12 21:42:24 GMT 36.791164 22.689690 32,950 152 503 0
2019-10-12 21:42:13 GMT 36.813000 22.675371 32,950 152 503 0
2019-10-12 21:42:03 GMT 36.835831 22.660332 32,950 152 503 0
2019-10-12 21:41:52 GMT 36.856010 22.647062 32,950 152 503 0
2019-10-12 21:41:41 GMT 36.877808 22.632771 32,950 152 502 0
2019-10-12 21:41:30 GMT 36.900604 22.617752 32,950 152 502 0
2019-10-12 21:41:22 GMT 36.917862 22.606358 32,950 152 501 0
2019-10-12 21:41:19 GMT 36.922989 22.603025 32,950 152 501 0
2019-10-12 21:41:12 GMT 36.939991 22.591772 32,950 152 501 0
2019-10-12 21:41:09 GMT 36.944740 22.588667 32,950 152 501 0
2019-10-12 21:41:01 GMT 36.960896 22.577978 32,950 152 501 0
2019-10-12 21:40:58 GMT 36.966434 22.574337 32,950 152 501 0
2019-10-12 21:40:49 GMT 36.984264 22.562574 32,950 152 501 0
2019-10-12 21:40:46 GMT 36.991653 22.557737 32,950 152 501 0
2019-10-12 21:40:40 GMT 37.003723 22.549738 32,950 152 501 0
2019-10-12 21:40:37 GMT 37.008842 22.546333 32,950 152 501 0
2019-10-12 21:40:29 GMT 37.026260 22.534828 32,950 152 501 0
2019-10-12 21:40:26 GMT 37.031609 22.531347 32,950 152 500 0
2019-10-12 21:40:20 GMT 37.046310 22.521564 32,950 152 500 0
2019-10-12 21:40:17 GMT 37.050598 22.518747 32,950 152 500 0
2019-10-12 21:40:08 GMT 37.069427 22.506311 32,950 152 500 0
2019-10-12 21:39:58 GMT 37.089703 22.492895 32,950 152 500 0
2019-10-12 21:39:55 GMT 37.094826 22.489491 32,950 152 500 0
2019-10-12 21:39:48 GMT 37.110947 22.478786 32,950 152 499 0
2019-10-12 21:39:45 GMT 37.116055 22.475401 32,950 152 499 0
2019-10-12 21:39:38 GMT 37.131363 22.465288 32,950 152 499 0
2019-10-12 21:39:35 GMT 37.136864 22.461609 32,950 152 499 0
2019-10-12 21:39:27 GMT 37.152603 22.451204 32,950 152 499 0
2019-10-12 21:39:24 GMT 37.158508 22.447289 32,950 152 499 0
2019-10-12 21:39:16 GMT 37.176224 22.435486 32,950 151 498 0
2019-10-12 21:39:13 GMT 37.181122 22.432213 32,950 151 498 0
2019-10-12 21:39:06 GMT 37.197193 22.421543 32,950 151 498 0
2019-10-12 21:39:02 GMT 37.203526 22.417364 32,950 151 498 0
2019-10-12 21:38:55 GMT 37.218567 22.407375 32,950 151 498 0
2019-10-12 21:38:51 GMT 37.226707 22.401958 32,950 151 497 0
2019-10-12 21:38:44 GMT 37.239697 22.393301 32,950 151 497 0
2019-10-12 21:38:41 GMT 37.247040 22.388441 32,950 151 497 0
2019-10-12 21:38:34 GMT 37.260635 22.379383 32,950 152 497 0
2019-10-12 21:38:30 GMT 37.268978 22.373837 32,950 152 497 0
2019-10-12 21:38:23 GMT 37.282150 22.365059 32,950 152 497 0
2019-10-12 21:38:19 GMT 37.290482 22.359514 32,950 151 496 0
2019-10-12 21:38:14 GMT 37.303844 22.350611 32,950 151 496 0
2019-10-12 21:38:09 GMT 37.311993 22.345177 32,950 151 496 0
2019-10-12 21:38:04 GMT 37.327587 22.334787 32,950 151 496 0
2019-10-12 21:38:01 GMT 37.327587 22.334787 32,950 151 496 0
2019-10-12 21:37:58 GMT 37.334061 22.330414 32,950 151 496 0
2019-10-12 21:37:54 GMT 37.343784 22.323980 32,950 151 496 0
2019-10-12 21:37:50 GMT 37.349277 22.320278 32,950 151 496 0
2019-10-12 21:37:47 GMT 37.354935 22.316505 32,950 151 496 0
2019-10-12 21:37:40 GMT 37.369530 22.306784 32,950 151 496 0
2019-10-12 21:37:37 GMT 37.376606 22.302067 32,950 151 495 0
2019-10-12 21:37:30 GMT 37.391174 22.292336 32,950 151 495 0
2019-10-12 21:37:26 GMT 37.398251 22.287619 32,950 151 495 0
2019-10-12 21:37:19 GMT 37.411800 22.278542 32,950 151 495 0
2019-10-12 21:37:13 GMT 37.424515 22.270046 32,950 151 495 0
2019-10-12 21:37:09 GMT 37.432617 22.264612 32,950 151 495 0
2019-10-12 21:37:03 GMT 37.443924 22.257015 32,950 151 495 0
2019-10-12 21:36:58 GMT 37.454441 22.250002 32,950 151 495 0
2019-10-12 21:36:53 GMT 37.463940 22.243612 32,950 151 495 0
2019-10-12 21:36:48 GMT 37.475437 22.235910 32,950 151 495 0
2019-10-12 21:36:43 GMT 37.485958 22.228865 32,950 151 494 0
2019-10-12 21:36:40 GMT 37.492195 22.224686 32,950 151 494 0
2019-10-12 21:36:37 GMT 37.497253 22.221310 32,950 151 494 0
2019-10-12 21:36:33 GMT 37.505722 22.215641 32,950 151 494 0
2019-10-12 21:36:30 GMT 37.513000 22.210791 32,950 151 494 0
2019-10-12 21:36:26 GMT 37.520050 22.205999 32,950 151 494 0
2019-10-12 21:36:22 GMT 37.527946 22.200743 32,950 151 494 0
2019-10-12 21:36:19 GMT 37.533768 22.196800 32,950 151 494 0
2019-10-12 21:36:16 GMT 37.539825 22.192734 32,950 151 494 0
2019-10-12 21:36:11 GMT 37.549301 22.186363 32,950 151 494 0
2019-10-12 21:36:08 GMT 37.555367 22.182293 32,950 151 494 0
2019-10-12 21:36:05 GMT 37.561432 22.178242 32,950 151 494 0
2019-10-12 21:36:01 GMT 37.570496 22.172142 32,950 151 494 0
2019-10-12 21:35:57 GMT 37.577339 22.167543 32,950 151 494 0
2019-10-12 21:35:54 GMT 37.582993 22.163748 32,950 151 494 0
2019-10-12 21:35:51 GMT 37.590866 22.158489 32,950 151 493 0
2019-10-12 21:35:48 GMT 37.596680 22.154514 32,950 151 493 0
2019-10-12 21:35:44 GMT 37.603958 22.149666 32,950 151 493 0
2019-10-12 21:35:40 GMT 37.611603 22.144522 32,950 151 493 0
2019-10-12 21:35:37 GMT 37.618027 22.140139 32,950 151 493 0
2019-10-12 21:35:33 GMT 37.626709 22.134296 32,950 151 493 0
2019-10-12 21:35:30 GMT 37.632568 22.130381 32,950 151 493 0
2019-10-12 21:35:27 GMT 37.638603 22.126286 32,950 151 493 0
2019-10-12 21:35:23 GMT 37.645615 22.121555 32,950 151 493 0
2019-10-12 21:35:20 GMT 37.652893 22.116673 32,950 151 493 0
2019-10-12 21:35:16 GMT 37.660355 22.111679 32,950 151 493 0
2019-10-12 21:35:13 GMT 37.666580 22.107473 32,950 151 493 0
2019-10-12 21:35:09 GMT 37.674637 22.102037 32,950 151 493 0
2019-10-12 21:35:06 GMT 37.680683 22.097984 32,950 151 493 0
2019-10-12 21:35:03 GMT 37.687294 22.093506 32,950 151 493 0
2019-10-12 21:34:59 GMT 37.695145 22.088245 32,950 151 493 0
2019-10-12 21:34:55 GMT 37.703201 22.082811 32,950 151 493 0
2019-10-12 21:34:52 GMT 37.708237 22.079422 32,950 151 492 0
2019-10-12 21:34:48 GMT 37.716484 22.073862 32,950 151 492 0
2019-10-12 21:34:45 GMT 37.723698 22.068966 32,950 151 492 0
2019-10-12 21:34:41 GMT 37.731522 22.063711 32,950 151 492 0
2019-10-12 21:34:38 GMT 37.736755 22.060139 32,950 151 492 0
2019-10-12 21:34:35 GMT 37.745590 22.054176 32,950 151 492 0
2019-10-12 21:34:31 GMT 37.751038 22.050554 32,950 151 492 0
2019-10-12 21:34:27 GMT 37.759048 22.045118 32,950 151 492 0
2019-10-12 21:34:24 GMT 37.766064 22.040365 32,950 151 491 0
2019-10-12 21:34:20 GMT 37.772301 22.036186 32,950 151 491 0
2019-10-12 21:34:17 GMT 37.778912 22.031708 32,950 151 491 0
2019-10-12 21:34:14 GMT 37.786125 22.026812 32,950 151 491 0
2019-10-12 21:34:10 GMT 37.793110 22.022036 32,950 151 491 0
2019-10-12 21:34:06 GMT 37.800934 22.016777 32,950 151 491 0
2019-10-12 21:34:03 GMT 37.807571 22.012278 32,950 151 491 0
2019-10-12 21:34:00 GMT 37.812752 22.008780 32,950 151 491 0
2019-10-12 21:33:56 GMT 37.820389 22.003645 32,950 151 491 0
2019-10-12 21:33:50 GMT 37.834213 21.994270 32,950 151 491 0
2019-10-12 21:33:46 GMT 37.841198 21.989494 32,950 151 491 0
2019-10-12 21:33:42 GMT 37.848999 21.984226 32,950 151 491 0
2019-10-12 21:33:39 GMT 37.855022 21.980179 32,950 151 491 0
2019-10-12 21:33:35 GMT 37.863819 21.974209 32,950 151 491 0
2019-10-12 21:33:29 GMT 37.875412 21.966328 32,950 151 491 0
2019-10-12 21:33:25 GMT 37.883652 21.960793 32,950 151 490 0
2019-10-12 21:33:19 GMT 37.895847 21.952475 32,950 151 490 0
2019-10-12 21:33:15 GMT 37.904022 21.946943 32,950 151 490 0
2019-10-12 21:33:11 GMT 37.918030 21.937418 32,950 151 490 0
2019-10-12 21:33:08 GMT 37.918030 21.937418 32,950 151 490 0
2019-10-12 21:33:04 GMT 37.925224 21.932531 32,950 151 490 0
2019-10-12 21:32:58 GMT 37.937233 21.924412 32,950 151 490 0
2019-10-12 21:32:53 GMT 37.946636 21.918022 32,950 151 490 0
2019-10-12 21:32:50 GMT 37.955807 21.911755 32,950 151 490 0
2019-10-12 21:32:47 GMT 37.959595 21.909193 32,950 151 490 0
2019-10-12 21:32:43 GMT 37.967773 21.903633 32,950 151 490 0
2019-10-12 21:32:38 GMT 37.979782 21.895514 32,950 151 489 0
2019-10-12 21:32:33 GMT 37.986954 21.890617 32,950 151 489 0
2019-10-12 21:32:30 GMT 37.995705 21.884645 32,950 151 489 0
2019-10-12 21:32:26 GMT 38.000313 21.881540 32,950 151 489 0
2019-10-12 21:32:23 GMT 38.007477 21.876642 32,950 151 489 0
2019-10-12 21:32:18 GMT 38.016861 21.870214 32,950 151 489 0
2019-10-12 21:32:15 GMT 38.022263 21.866590 32,950 151 489 0
2019-10-12 21:32:12 GMT 38.028809 21.862091 32,950 151 489 0
2019-10-12 21:32:05 GMT 38.042542 21.852682 32,950 151 489 0
2019-10-12 21:32:02 GMT 38.048912 21.848345 32,950 151 489 0
2019-10-12 21:31:58 GMT 38.057293 21.842611 32,950 151 489 0
2019-10-12 21:31:54 GMT 38.065247 21.837139 32,950 151 488 0
2019-10-12 21:31:51 GMT 38.069824 21.834042 32,950 151 488 0
2019-10-12 21:31:48 GMT 38.077587 21.828758 32,950 151 488 0
2019-10-12 21:31:45 GMT 38.083328 21.824808 32,950 151 488 0
2019-10-12 21:31:42 GMT 38.091507 21.819265 32,950 151 488 0
2019-10-12 21:31:38 GMT 38.097885 21.814875 32,950 151 488 0
2019-10-12 21:31:35 GMT 38.104660 21.810257 32,950 151 488 0
2019-10-12 21:31:31 GMT 38.111015 21.805891 32,950 151 488 0
2019-10-12 21:31:27 GMT 38.118183 21.800995 32,950 151 489 0
2019-10-12 21:31:23 GMT 38.126747 21.795202 32,950 151 489 0
2019-10-12 21:31:20 GMT 38.131729 21.791800 32,950 151 489 0
2019-10-12 21:31:13 GMT 38.146271 21.781857 32,950 151 489 0
2019-10-12 21:31:10 GMT 38.152447 21.777649 32,950 151 489 0
2019-10-12 21:31:06 GMT 38.160645 21.772039 32,950 151 489 0
2019-10-12 21:31:02 GMT 38.169205 21.766195 32,950 151 489 0
2019-10-12 21:30:58 GMT 38.175953 21.761528 32,950 151 489 0
2019-10-12 21:30:53 GMT 38.188290 21.753050 32,950 151 489 0
2019-10-12 21:30:50 GMT 38.193691 21.749407 32,950 151 489 0
2019-10-12 21:30:46 GMT 38.202255 21.743521 32,950 151 489 0
2019-10-12 21:30:41 GMT 38.210590 21.737764 32,950 151 489 0
2019-10-12 21:30:38 GMT 38.222134 21.729881 32,950 151 489 0
2019-10-12 21:30:35 GMT 38.222134 21.729881 32,950 151 489 0
2019-10-12 21:30:31 GMT 38.230515 21.724091 32,950 151 489 0
2019-10-12 21:30:28 GMT 38.235493 21.720688 32,950 151 489 0
2019-10-12 21:30:25 GMT 38.242851 21.715672 32,950 151 489 0
2019-10-12 21:30:21 GMT 38.250824 21.710154 32,950 151 489 64
2019-10-12 21:30:18 GMT 38.256821 21.706062 32,950 151 489 0
2019-10-12 21:30:15 GMT 38.263962 21.701096 32,950 151 489 0
2019-10-12 21:30:10 GMT 38.271152 21.696148 32,950 151 490 0
2019-10-12 21:30:07 GMT 38.277695 21.691628 32,950 151 490 0
2019-10-12 21:30:04 GMT 38.285294 21.686426 32,950 151 490 -64
2019-10-12 21:30:00 GMT 38.291870 21.681936 32,950 151 490 0
2019-10-12 21:29:57 GMT 38.298065 21.677662 32,950 151 491 0
2019-10-12 21:29:54 GMT 38.305042 21.672861 32,950 151 490 0
2019-10-12 21:29:50 GMT 38.312401 21.667786 32,950 151 490 0
2019-10-12 21:29:46 GMT 38.319382 21.663010 32,950 151 490 0
2019-10-12 21:29:43 GMT 38.325993 21.658470 32,950 151 491 0
2019-10-12 21:29:40 GMT 38.333771 21.653118 32,950 151 491 0
2019-10-12 21:29:36 GMT 38.339539 21.649097 32,950 151 491 0
2019-10-12 21:29:32 GMT 38.347137 21.643885 32,950 151 491 0
2019-10-12 21:29:29 GMT 38.354527 21.638826 32,950 151 491 -64
2019-10-12 21:29:26 GMT 38.360535 21.634706 32,950 151 491 0
2019-10-12 21:29:23 GMT 38.366730 21.630444 32,950 151 491 0
2019-10-12 21:29:18 GMT 38.377106 21.623302 32,950 151 491 0
2019-10-12 21:29:13 GMT 38.388279 21.615601 32,950 151 491 0
2019-10-12 21:29:08 GMT 38.395706 21.610516 32,950 151 491 0
2019-10-12 21:29:05 GMT 38.403076 21.605433 32,950 151 491 0
2019-10-12 21:29:02 GMT 38.408295 21.601809 32,950 151 491 0
2019-10-12 21:28:54 GMT 38.423843 21.591064 32,950 151 491 0
2019-10-12 21:28:51 GMT 38.429260 21.587358 32,950 151 491 0
2019-10-12 21:28:47 GMT 38.437859 21.581421 32,950 151 491 0
2019-10-12 21:28:42 GMT 38.450191 21.572876 32,950 151 491 0
2019-10-12 21:28:37 GMT 38.459412 21.566589 32,950 151 490 0
2019-10-12 21:28:34 GMT 38.463181 21.563953 32,950 151 490 0
2019-10-12 21:28:31 GMT 38.470779 21.558699 32,950 151 490 0
2019-10-12 21:28:23 GMT 38.486115 21.548071 32,950 151 490 0
2019-10-12 21:28:20 GMT 38.492111 21.543951 32,950 151 490 0
2019-10-12 21:28:16 GMT 38.501312 21.537561 32,950 151 490 0
2019-10-12 21:28:11 GMT 38.511841 21.530277 32,950 151 490 0
2019-10-12 21:28:03 GMT 38.525608 21.520752 32,950 151 490 0
2019-10-12 21:28:00 GMT 38.532623 21.515888 32,950 151 490 0
2019-10-12 21:27:53 GMT 38.545944 21.506634 32,950 151 490 0
2019-10-12 21:27:49 GMT 38.553726 21.501259 32,950 151 490 0
2019-10-12 21:27:41 GMT 38.569702 21.490213 32,950 151 490 0
2019-10-12 21:27:38 GMT 38.575287 21.486332 32,950 151 490 0
2019-10-12 21:27:31 GMT 38.590221 21.476013 32,950 151 490 0
2019-10-12 21:27:28 GMT 38.595390 21.472412 32,950 151 490 0
2019-10-12 21:27:20 GMT 38.611313 21.461313 32,950 151 490 0
2019-10-12 21:27:17 GMT 38.616291 21.457886 32,950 151 490 0
2019-10-12 21:27:11 GMT 38.629669 21.448595 32,950 151 490 0
2019-10-12 21:27:08 GMT 38.634842 21.445015 32,950 151 490 0
2019-10-12 21:26:58 GMT 38.656139 21.430176 32,950 151 490 0
2019-10-12 21:26:48 GMT 38.675858 21.416473 32,950 151 490 0
2019-10-12 21:26:41 GMT 38.689178 21.407160 32,950 151 490 0
2019-10-12 21:26:37 GMT 38.697151 21.401611 32,950 151 490 0
2019-10-12 21:26:29 GMT 38.711910 21.391357 32,950 151 490 0
2019-10-12 21:26:26 GMT 38.719078 21.386353 32,950 151 490 0
2019-10-12 21:26:19 GMT 38.733044 21.376648 32,950 151 490 0
2019-10-12 21:26:16 GMT 38.739376 21.372192 32,950 151 490 0
2019-10-12 21:26:09 GMT 38.753128 21.362616 32,950 151 490 0
2019-10-12 21:26:06 GMT 38.759720 21.358032 32,950 151 490 0
2019-10-12 21:25:56 GMT 38.781410 21.342896 32,950 151 490 0
2019-10-12 21:25:47 GMT 38.796936 21.332047 32,950 151 490 0
2019-10-12 21:25:44 GMT 38.802128 21.328430 32,950 151 490 0
2019-10-12 21:25:37 GMT 38.817024 21.318054 32,950 151 490 0
2019-10-12 21:25:33 GMT 38.823807 21.313297 32,950 151 490 0
2019-10-12 21:25:26 GMT 38.837723 21.303564 32,950 151 490 0
2019-10-12 21:25:23 GMT 38.845051 21.298462 32,950 151 490 0
2019-10-12 21:25:18 GMT 38.859192 21.288578 32,950 151 489 0
2019-10-12 21:25:12 GMT 38.866333 21.283564 32,950 151 489 0
2019-10-12 21:25:05 GMT 38.880009 21.273987 32,950 151 489 0
2019-10-12 21:25:01 GMT 38.887180 21.268982 32,950 151 489 0
2019-10-12 21:24:54 GMT 38.901470 21.258972 32,950 151 489 0
2019-10-12 21:24:51 GMT 38.908592 21.253967 32,950 151 489 0
2019-10-12 21:24:47 GMT 38.917717 21.247559 32,950 151 489 0
2019-10-12 21:24:43 GMT 38.923508 21.243498 32,950 151 489 0
2019-10-12 21:24:40 GMT 38.929825 21.239080 32,950 151 489 0
2019-10-12 21:24:36 GMT 38.938385 21.233049 32,950 151 489 0
2019-10-12 21:24:32 GMT 38.946716 21.227198 32,950 151 489 0
2019-10-12 21:24:29 GMT 38.951477 21.223854 32,950 151 489 0
2019-10-12 21:24:24 GMT 38.962173 21.216370 32,950 151 489 0
2019-10-12 21:24:20 GMT 38.968925 21.211609 32,950 151 489 0
2019-10-12 21:24:16 GMT 38.987732 21.198420 32,950 151 489 0
2019-10-12 21:24:11 GMT 38.987732 21.198420 32,950 151 488 0
2019-10-12 21:24:08 GMT 38.994095 21.193941 32,950 151 488 0
2019-10-12 21:24:03 GMT 39.003185 21.187561 32,950 151 488 0
2019-10-12 21:24:00 GMT 39.010941 21.182117 32,950 151 488 0
2019-10-12 21:23:57 GMT 39.014694 21.179432 32,950 151 488 0
2019-10-12 21:23:53 GMT 39.021809 21.174438 32,950 151 488 0
2019-10-12 21:23:50 GMT 39.028744 21.169556 32,950 151 488 0
2019-10-12 21:23:47 GMT 39.035496 21.164795 32,950 151 488 0
2019-10-12 21:23:44 GMT 39.039871 21.161743 32,950 151 488 0
2019-10-12 21:23:40 GMT 39.049576 21.154890 32,950 151 488 0
2019-10-12 21:23:36 GMT 39.056118 21.150330 32,950 151 488 0
2019-10-12 21:23:32 GMT 39.065231 21.143906 32,950 151 488 0
2019-10-12 21:23:28 GMT 39.072315 21.138855 32,950 151 488 0
2019-10-12 21:23:24 GMT 39.081253 21.132620 32,950 151 488 0
2019-10-12 21:23:20 GMT 39.089951 21.126471 32,950 151 488 0
2019-10-12 21:23:16 GMT 39.096313 21.121992 32,950 151 488 0
2019-10-12 21:23:11 GMT 39.106022 21.115112 32,950 151 488 0
2019-10-12 21:23:07 GMT 39.115311 21.108559 32,950 151 488 0
2019-10-12 21:23:04 GMT 39.122223 21.103699 32,950 151 488 0
2019-10-12 21:23:00 GMT 39.127167 21.100199 32,950 151 488 0
2019-10-12 21:22:56 GMT 39.137283 21.093035 32,950 151 488 0
2019-10-12 21:22:52 GMT 39.143028 21.088989 32,950 151 488 0
2019-10-12 21:22:49 GMT 39.150742 21.083540 32,950 151 488 0
2019-10-12 21:22:45 GMT 39.157654 21.078524 32,950 151 488 0
2019-10-12 21:22:42 GMT 39.163002 21.074890 32,950 151 488 0
2019-10-12 21:22:38 GMT 39.171936 21.068554 32,950 151 488 0
2019-10-12 21:22:33 GMT 39.184204 21.059895 32,950 151 488 0
2019-10-12 21:22:28 GMT 39.191895 21.054462 32,950 151 488 0
2019-10-12 21:22:25 GMT 39.197845 21.050222 32,950 151 488 0
2019-10-12 21:22:22 GMT 39.202805 21.046753 32,950 151 488 0
2019-10-12 21:22:19 GMT 39.208923 21.042400 32,950 151 488 0
2019-10-12 21:22:14 GMT 39.218033 21.035952 32,950 151 487 0
2019-10-12 21:22:11 GMT 39.224125 21.031616 32,950 151 487 0
2019-10-12 21:22:06 GMT 39.239952 21.020447 32,950 151 487 0
2019-10-12 21:21:58 GMT 39.250427 21.013000 32,950 151 487 0
2019-10-12 21:21:54 GMT 39.266624 21.001526 32,950 151 487 0
2019-10-12 21:21:50 GMT 39.266624 21.001526 32,950 151 487 0
2019-10-12 21:21:47 GMT 39.271179 20.998276 32,950 151 487 0
2019-10-12 21:21:44 GMT 39.278683 20.992981 32,950 151 487 0
2019-10-12 21:21:41 GMT 39.285622 20.988037 32,950 151 487 0
2019-10-12 21:21:37 GMT 39.291718 20.983704 32,950 151 487 0
2019-10-12 21:21:33 GMT 39.299835 20.977976 32,950 151 487 0
2019-10-12 21:21:30 GMT 39.305729 20.973755 32,950 151 487 0
2019-10-12 21:21:27 GMT 39.311874 20.969378 32,950 151 487 0
2019-10-12 21:21:23 GMT 39.319977 20.963646 32,950 151 487 0
2019-10-12 21:21:20 GMT 39.326492 20.959045 32,950 151 487 0
2019-10-12 21:21:16 GMT 39.333389 20.953974 32,950 151 487 0
2019-10-12 21:21:10 GMT 39.345673 20.945374 32,950 151 487 0
2019-10-12 21:21:05 GMT 39.354332 20.939209 32,950 151 487 0
2019-10-12 21:21:02 GMT 39.360260 20.934986 32,950 151 487 0
2019-10-12 21:20:59 GMT 39.367367 20.929932 32,950 151 487 0
2019-10-12 21:20:53 GMT 39.381378 20.919983 32,950 151 487 64
2019-10-12 21:20:48 GMT 39.388874 20.914612 32,950 151 487 0
2019-10-12 21:20:44 GMT 39.395782 20.909729 32,950 151 487 0
2019-10-12 21:20:41 GMT 39.402699 20.904785 32,950 151 487 0
2019-10-12 21:20:38 GMT 39.421413 20.891418 32,950 151 487 0
2019-10-12 21:20:31 GMT 39.430115 20.885248 32,950 151 487 0
2019-10-12 21:20:27 GMT 39.430115 20.885248 32,950 151 487 0
2019-10-12 21:20:24 GMT 39.436031 20.881042 32,950 151 487 0
2019-10-12 21:20:19 GMT 39.448059 20.872471 32,950 151 487 0
2019-10-12 21:20:14 GMT 39.456745 20.866272 32,950 151 487 0
2019-10-12 21:20:11 GMT 39.462250 20.862322 32,950 151 487 0
2019-10-12 21:20:05 GMT 39.473877 20.854004 32,950 151 487 0
2019-10-12 21:20:01 GMT 39.482162 20.848083 32,950 151 487 0
2019-10-12 21:19:57 GMT 39.488308 20.843750 32,950 151 487 0
2019-10-12 21:19:53 GMT 39.497772 20.836945 32,950 151 487 0
2019-10-12 21:19:49 GMT 39.506058 20.831034 32,950 151 487 0
2019-10-12 21:19:42 GMT 39.518475 20.822144 32,950 151 487 0
2019-10-12 21:19:39 GMT 39.526760 20.816223 32,950 151 487 0
2019-10-12 21:19:35 GMT 39.532860 20.811890 32,950 151 487 0
2019-10-12 21:19:32 GMT 39.538788 20.807629 32,950 151 487 0
2019-10-12 21:19:29 GMT 39.545475 20.802856 32,950 151 487 0
2019-10-12 21:19:26 GMT 39.549820 20.799746 32,950 151 487 0
2019-10-12 21:19:22 GMT 39.558880 20.793274 32,950 151 487 0
2019-10-12 21:19:18 GMT 39.566750 20.787598 32,950 151 487 0
2019-10-12 21:19:11 GMT 39.579971 20.778137 32,950 151 487 0
2019-10-12 21:19:08 GMT 39.587837 20.772522 32,950 151 487 0
2019-10-12 21:19:00 GMT 39.600677 20.763325 32,950 151 487 0
2019-10-12 21:18:57 GMT 39.609329 20.757114 32,950 150 487 0
2019-10-12 21:18:50 GMT 39.622147 20.747925 32,950 150 487 0
2019-10-12 21:18:46 GMT 39.629242 20.742785 32,950 150 487 0
2019-10-12 21:18:40 GMT 39.641052 20.734306 32,950 150 487 0
2019-10-12 21:18:35 GMT 39.651894 20.726562 32,950 151 487 0
2019-10-12 21:18:30 GMT 39.661331 20.719736 32,950 151 487 0
2019-10-12 21:18:27 GMT 39.673141 20.711260 32,950 151 487 0
2019-10-12 21:18:18 GMT 39.684200 20.703308 32,950 151 487 0
2019-10-12 21:18:14 GMT 39.694630 20.695862 32,950 151 487 0
2019-10-12 21:18:09 GMT 39.702682 20.690063 32,950 151 487 0
2019-10-12 21:18:06 GMT 39.708389 20.685942 32,950 151 487 0
2019-10-12 21:18:02 GMT 39.715298 20.680969 32,950 150 487 0
2019-10-12 21:17:58 GMT 39.723164 20.675171 32,950 150 487 0
2019-10-12 21:17:55 GMT 39.728897 20.671194 32,950 150 487 0
2019-10-12 21:17:52 GMT 39.737362 20.665100 32,950 150 487 0
2019-10-12 21:17:46 GMT 39.749725 20.656149 32,950 150 487 0
2019-10-12 21:17:42 GMT 39.756264 20.651489 32,950 150 487 0
2019-10-12 21:17:38 GMT 39.763321 20.646357 32,950 150 487 0
2019-10-12 21:17:34 GMT 39.771194 20.640682 32,950 150 487 0
2019-10-12 21:17:31 GMT 39.777100 20.636444 32,950 150 487 0
2019-10-12 21:17:28 GMT 39.783600 20.631786 32,950 150 487 0
2019-10-12 21:17:24 GMT 39.792664 20.625219 32,950 150 487 0
2019-10-12 21:17:21 GMT 39.796391 20.622559 32,950 150 486 0
2019-10-12 21:17:17 GMT 39.804474 20.616680 32,950 150 486 0
2019-10-12 21:17:14 GMT 39.810562 20.612322 32,950 150 486 0
2019-10-12 21:17:11 GMT 39.817059 20.607605 32,950 150 486 0
2019-10-12 21:17:07 GMT 39.824741 20.602051 32,950 150 486 0
2019-10-12 21:17:04 GMT 39.830421 20.597900 32,950 150 486 0
2019-10-12 21:17:01 GMT 39.837708 20.592678 32,950 150 486 0
2019-10-12 21:16:55 GMT 39.849693 20.583984 32,950 150 486 0
2019-10-12 21:16:49 GMT 39.869202 20.569868 32,950 150 487 0
2019-10-12 21:16:44 GMT 39.869202 20.569868 32,950 150 486 0
2019-10-12 21:16:40 GMT 39.878231 20.563293 32,950 150 487 0
2019-10-12 21:16:34 GMT 39.889450 20.555176 32,950 150 487 0
2019-10-12 21:16:30 GMT 39.895935 20.550465 32,950 150 487 0
2019-10-12 21:16:24 GMT 39.909744 20.540466 32,950 150 487 0
2019-10-12 21:16:21 GMT 39.914246 20.537209 32,950 150 487 0
2019-10-12 21:16:15 GMT 39.926056 20.528625 32,950 150 487 0
2019-10-12 21:16:11 GMT 39.935715 20.521667 32,950 150 487 0
2019-10-12 21:16:05 GMT 39.946335 20.513908 32,950 150 487 64
2019-10-12 21:16:01 GMT 39.953831 20.508541 32,950 150 487 0
2019-10-12 21:15:53 GMT 39.970367 20.496521 32,950 150 487 0
2019-10-12 21:15:48 GMT 39.980209 20.489380 32,950 150 487 0
2019-10-12 21:15:42 GMT 39.990608 20.481762 32,950 150 487 0
2019-10-12 21:15:38 GMT 40.000244 20.474770 32,950 150 487 0
2019-10-12 21:15:32 GMT 40.010670 20.467155 32,950 150 487 -64
2019-10-12 21:15:28 GMT 40.021317 20.459412 32,950 150 487 0
2019-10-12 21:15:23 GMT 40.030735 20.452547 32,950 150 487 64
2019-10-12 21:15:19 GMT 40.036041 20.448677 32,950 150 487 0
2019-10-12 21:15:12 GMT 40.061600 20.430054 32,950 150 487 0
2019-10-12 21:15:03 GMT 40.068676 20.424894 32,950 150 487 0
2019-10-12 21:15:00 GMT 40.075752 20.419777 32,950 150 487 0
2019-10-12 21:14:52 GMT 40.090485 20.408997 32,950 150 487 0
2019-10-12 21:14:45 GMT 40.103264 20.399738 32,950 150 487 0
2019-10-12 21:14:41 GMT 40.110535 20.394409 32,950 150 487 0
2019-10-12 21:14:36 GMT 40.121750 20.386230 32,950 150 487 0
2019-10-12 21:14:32 GMT 40.131565 20.379078 32,950 150 487 0
2019-10-12 21:14:25 GMT 40.142395 20.371216 32,950 150 487 0
2019-10-12 21:14:21 GMT 40.150841 20.365032 32,950 150 487 0
2019-10-12 21:14:15 GMT 40.162445 20.356567 32,950 150 487 0
2019-10-12 21:14:11 GMT 40.170902 20.350426 32,950 150 487 0
2019-10-12 21:14:04 GMT 40.183659 20.341124 32,950 150 487 0
2019-10-12 21:14:01 GMT 40.190735 20.335943 32,950 150 487 0
2019-10-12 21:13:55 GMT 40.203094 20.326904 32,950 150 487 0
2019-10-12 21:13:50 GMT 40.211964 20.320461 32,950 150 487 0
2019-10-12 21:13:42 GMT 40.228043 20.308716 32,950 150 486 0
2019-10-12 21:13:39 GMT 40.232166 20.305668 32,950 150 486 0
2019-10-12 21:13:32 GMT 40.246086 20.295492 32,950 150 486 0
2019-10-12 21:13:29 GMT 40.253532 20.290001 32,950 150 486 0
2019-10-12 21:13:23 GMT 40.266312 20.280640 32,950 150 486 0
2019-10-12 21:13:19 GMT 40.272766 20.275940 32,950 150 486 0
2019-10-12 21:13:12 GMT 40.287098 20.265469 32,950 150 486 0
2019-10-12 21:13:09 GMT 40.292778 20.261286 32,950 150 486 0
2019-10-12 21:13:02 GMT 40.306824 20.250732 32,950 149 486 0
2019-10-12 21:12:58 GMT 40.312820 20.246094 32,950 149 486 0
2019-10-12 21:12:52 GMT 40.325874 20.235693 32,950 148 486 0
2019-10-12 21:12:48 GMT 40.333138 20.229824 32,950 147 486 0
2019-10-12 21:12:44 GMT 40.340927 20.223389 32,950 147 486 0
2019-10-12 21:12:40 GMT 40.347012 20.218277 32,950 146 486 0
2019-10-12 21:12:37 GMT 40.352455 20.213594 32,950 146 486 0
2019-10-12 21:12:29 GMT 40.368622 20.199158 32,950 144 487 64
2019-10-12 21:12:19 GMT 40.387325 20.181698 32,950 144 487 0
2019-10-12 21:12:16 GMT 40.391327 20.177952 32,950 144 487 0
2019-10-12 21:12:09 GMT 40.406643 20.163469 32,950 144 487 0
2019-10-12 21:12:06 GMT 40.409576 20.160725 32,950 144 487 0
2019-10-12 21:11:58 GMT 40.424744 20.146423 32,950 144 487 0
2019-10-12 21:11:53 GMT 40.434204 20.137440 32,950 144 486 0
2019-10-12 21:11:47 GMT 40.445145 20.127140 32,950 144 486 0
2019-10-12 21:11:44 GMT 40.451202 20.121460 32,950 144 486 0
2019-10-12 21:11:37 GMT 40.463562 20.109741 32,950 144 486 64
2019-10-12 21:11:33 GMT 40.469955 20.103670 32,950 144 486 0
2019-10-12 21:11:27 GMT 40.481461 20.092834 32,950 144 486 0
2019-10-12 21:11:24 GMT 40.493683 20.081238 32,950 144 486 0
2019-10-12 21:11:17 GMT 40.500401 20.074894 32,950 144 486 0
2019-10-12 21:11:14 GMT 40.504776 20.070711 32,950 144 486 0
2019-10-12 21:11:07 GMT 40.518650 20.057602 32,950 144 486 64
2019-10-12 21:11:04 GMT 40.524124 20.052429 32,950 144 486 0
2019-10-12 21:10:56 GMT 40.537598 20.039623 32,950 144 486 0
2019-10-12 21:10:53 GMT 40.543228 20.034256 32,950 144 486 0
2019-10-12 21:10:46 GMT 40.556728 20.021460 32,950 144 486 0
2019-10-12 21:10:43 GMT 40.562222 20.016277 32,950 144 486 0
2019-10-12 21:10:38 GMT 40.572968 20.006104 32,950 144 486 0
2019-10-12 21:10:35 GMT 40.576050 20.003170 32,950 144 486 0
2019-10-12 21:10:32 GMT 40.581161 19.998291 32,950 144 486 0
2019-10-12 21:10:26 GMT 40.593552 19.986504 32,950 144 486 0
2019-10-12 21:10:21 GMT 40.602489 19.978012 32,950 144 486 0
2019-10-12 21:10:15 GMT 40.612869 19.968151 32,950 144 486 0
2019-10-12 21:10:11 GMT 40.619614 19.961731 32,950 144 486 0
2019-10-12 21:10:05 GMT 40.631241 19.950684 32,950 144 486 0
2019-10-12 21:10:00 GMT 40.639637 19.942682 32,950 144 486 0
2019-10-12 21:09:55 GMT 40.650009 19.932800 32,950 144 486 0
2019-10-12 21:09:51 GMT 40.656418 19.926758 32,950 144 486 0
2019-10-12 21:09:45 GMT 40.669151 19.914593 32,950 144 486 0
2019-10-12 21:09:40 GMT 40.675919 19.908142 32,950 144 486 0
2019-10-12 21:09:34 GMT 40.687401 19.897240 32,950 144 486 0
2019-10-12 21:09:31 GMT 40.693592 19.891310 32,950 144 486 0
2019-10-12 21:09:24 GMT 40.706535 19.879011 32,950 144 486 64
2019-10-12 21:09:20 GMT 40.712357 19.873413 32,950 144 486 64
2019-10-12 21:09:14 GMT 40.724030 19.862305 32,950 144 486 0
2019-10-12 21:09:10 GMT 40.731533 19.855165 32,950 144 486 0
2019-10-12 21:09:03 GMT 40.743404 19.843868 32,950 143 487 0
2019-10-12 21:09:00 GMT 40.749939 19.837585 32,950 143 487 0
2019-10-12 21:08:54 GMT 40.761978 19.826078 32,950 144 486 0
2019-10-12 21:08:47 GMT 40.772545 19.815966 32,950 144 487 0
2019-10-12 21:08:43 GMT 40.781342 19.807617 32,950 144 487 0
2019-10-12 21:08:38 GMT 40.788986 19.800293 32,950 143 488 0
2019-10-12 21:08:33 GMT 40.798847 19.790871 32,950 143 487 0
2019-10-12 21:08:28 GMT 40.807205 19.782837 32,950 143 487 0
2019-10-12 21:08:23 GMT 40.817421 19.773020 32,950 143 488 0
2019-10-12 21:08:18 GMT 40.825615 19.765154 32,950 143 488 0
2019-10-12 21:08:11 GMT 40.838600 19.752731 32,950 143 488 0
2019-10-12 21:08:08 GMT 40.844608 19.746925 32,950 143 488 0
2019-10-12 21:08:01 GMT 40.858479 19.733629 32,950 143 488 0
2019-10-12 21:07:58 GMT 40.862640 19.729614 32,950 143 488 0
2019-10-12 21:07:50 GMT 40.876877 19.715881 32,950 143 488 0
2019-10-12 21:07:47 GMT 40.883106 19.709909 32,950 143 488 0
2019-10-12 21:07:41 GMT 40.893539 19.699951 32,950 143 488 0
2019-10-12 21:07:37 GMT 40.900658 19.693117 32,950 143 488 0
2019-10-12 21:07:32 GMT 40.910706 19.683411 32,950 143 488 0
2019-10-12 21:07:27 GMT 40.919495 19.674988 32,950 143 489 0
2019-10-12 21:07:21 GMT 40.929192 19.665651 32,950 143 489 0
2019-10-12 21:07:15 GMT 40.941811 19.653542 32,950 143 490 0
2019-10-12 21:07:12 GMT 40.948013 19.647522 32,950 143 490 0
2019-10-12 21:07:05 GMT 40.958801 19.637125 32,950 143 490 0
2019-10-12 21:07:00 GMT 40.970158 19.626202 32,950 143 490 0
2019-10-12 21:06:55 GMT 40.977676 19.618958 32,950 143 490 0
2019-10-12 21:06:51 GMT 40.985321 19.611511 32,950 143 490 0
2019-10-12 21:06:43 GMT 40.999069 19.598299 32,950 143 490 0
2019-10-12 21:06:40 GMT 41.004593 19.593018 32,950 143 490 0
2019-10-12 21:06:34 GMT 41.015408 19.582567 32,950 143 490 64
2019-10-12 21:06:30 GMT 41.023090 19.575140 32,950 143 491 0
2019-10-12 21:06:23 GMT 41.037231 19.561523 32,950 143 491 0
2019-10-12 21:06:19 GMT 41.044189 19.554810 32,950 143 491 0
2019-10-12 21:06:14 GMT 41.053162 19.546112 32,950 143 491 -64
2019-10-12 21:06:10 GMT 41.060898 19.538696 32,950 143 491 0
2019-10-12 21:06:03 GMT 41.072250 19.527649 32,950 143 492 64
2019-10-12 21:05:59 GMT 41.079575 19.520569 32,950 143 492 64
2019-10-12 21:05:50 GMT 41.099030 19.501770 32,950 143 491 -64
2019-10-12 21:05:42 GMT 41.112797 19.488436 32,950 143 492 0
2019-10-12 21:05:39 GMT 41.117218 19.484192 32,950 143 492 0
2019-10-12 21:05:32 GMT 41.130440 19.471394 32,950 143 492 0
2019-10-12 21:05:29 GMT 41.136120 19.465837 32,950 143 492 0
2019-10-12 21:05:21 GMT 41.149658 19.452698 32,950 143 492 0
2019-10-12 21:05:18 GMT 41.155014 19.447510 32,950 143 492 0
2019-10-12 21:05:12 GMT 41.166000 19.436890 32,950 143 490 0
2019-10-12 21:05:09 GMT 41.187790 19.415651 32,950 143 491 0
2019-10-12 21:05:01 GMT 41.187790 19.415651 32,950 143 491 0
2019-10-12 21:04:58 GMT 41.192368 19.411194 32,950 143 491 0
2019-10-12 21:04:48 GMT 41.210678 19.393372 32,950 143 491 0
2019-10-12 21:04:43 GMT 41.219120 19.385250 32,950 143 490 0
2019-10-12 21:04:40 GMT 41.224426 19.380070 32,950 143 490 0
2019-10-12 21:04:37 GMT 41.230850 19.373829 32,950 143 491 64
2019-10-12 21:04:30 GMT 41.243271 19.361755 32,950 143 490 64
2019-10-12 21:04:27 GMT 41.249313 19.355835 32,950 143 490 0
2019-10-12 21:04:24 GMT 41.254944 19.350342 32,950 143 490 0
2019-10-12 21:04:21 GMT 41.260647 19.344801 32,950 143 490 0
2019-10-12 21:04:18 GMT 41.267956 19.337685 32,950 143 490 -64
2019-10-12 21:04:15 GMT 41.271584 19.334127 32,950 143 490 0
2019-10-12 21:04:11 GMT 41.280167 19.325745 32,950 143 490 0
2019-10-12 21:04:07 GMT 41.285271 19.320768 32,950 143 490 0
2019-10-12 21:04:03 GMT 41.291882 19.314339 32,950 143 490 64
2019-10-12 21:04:00 GMT 41.298798 19.307556 32,950 143 490 0
2019-10-12 21:03:56 GMT 41.305344 19.301147 32,950 143 489 0
2019-10-12 21:03:53 GMT 41.310829 19.295799 32,950 143 490 0
2019-10-12 21:03:50 GMT 41.317020 19.289745 32,950 143 490 -64
2019-10-12 21:03:43 GMT 41.329239 19.277771 32,950 143 490 0
2019-10-12 21:03:40 GMT 41.335831 19.271362 32,950 143 490 0
2019-10-12 21:03:36 GMT 41.342194 19.265137 32,950 143 490 0
2019-10-12 21:03:32 GMT 41.350067 19.257446 32,950 143 490 0
2019-10-12 21:03:20 GMT 41.372509 19.235500 32,950 143 490 0
2019-10-12 21:03:12 GMT 41.388199 19.220135 32,950 143 490 0
2019-10-12 21:03:09 GMT 41.391678 19.216772 32,950 143 489 0
2019-10-12 21:02:58 GMT 41.411545 19.197298 32,950 143 489 0
2019-10-12 21:02:51 GMT 41.425003 19.184065 32,950 143 489 0
2019-10-12 21:02:48 GMT 41.431213 19.177977 32,950 143 489 0
2019-10-12 21:02:40 GMT 41.444153 19.165331 32,950 143 489 0
2019-10-12 21:02:37 GMT 41.449043 19.160477 32,950 143 489 0
2019-10-12 21:02:30 GMT 41.467438 19.142427 32,950 143 489 0
2019-10-12 21:02:17 GMT 41.485073 19.125090 32,950 143 489 0
2019-10-12 21:02:08 GMT 41.504150 19.106348 32,950 143 489 0
2019-10-12 21:01:57 GMT 41.522644 19.088058 32,950 143 489 64
2019-10-12 21:01:47 GMT 41.541168 19.069838 32,950 143 488 0
2019-10-12 21:01:37 GMT 41.559494 19.051729 32,950 143 488 0
2019-10-12 21:01:26 GMT 41.578720 19.032816 32,950 143 487 0
2019-10-12 21:01:16 GMT 41.597218 19.014587 32,950 143 487 0
2019-10-12 21:01:05 GMT 41.615891 18.996174 32,950 143 488 0
2019-10-12 21:00:55 GMT 41.634876 18.977348 32,950 143 487 0
2019-10-12 21:00:44 GMT 41.654243 18.958187 32,950 143 487 0
2019-10-12 21:00:34 GMT 41.672726 18.939919 32,950 143 487 0
2019-10-12 21:00:23 GMT 41.691719 18.921076 32,950 143 487 0
2019-10-12 21:00:15 GMT 41.707825 18.905107 32,950 143 488 0
2019-10-12 21:00:12 GMT 41.728455 18.884624 32,950 143 488 0
2019-10-12 21:00:03 GMT 41.728455 18.884624 32,950 143 488 0
2019-10-12 20:59:53 GMT 41.747269 18.865959 32,950 143 488 0
2019-10-12 20:59:44 GMT 41.763748 18.849543 32,950 143 488 0
2019-10-12 20:59:41 GMT 41.768856 18.844490 32,950 143 488 0
2019-10-12 20:59:32 GMT 41.785336 18.828138 32,950 143 488 0
2019-10-12 20:59:28 GMT 41.792953 18.820580 32,950 143 488 0
2019-10-12 20:59:22 GMT 41.803444 18.810127 32,950 143 488 0
2019-10-12 20:59:10 GMT 41.824631 18.788994 32,950 143 488 0
2019-10-12 20:59:01 GMT 41.841709 18.771994 32,950 143 488 0
2019-10-12 20:58:56 GMT 41.850227 18.763498 32,950 143 488 0
2019-10-12 20:58:51 GMT 41.860004 18.753725 32,950 143 488 0
2019-10-12 20:58:40 GMT 41.878860 18.734947 32,950 143 488 0
2019-10-12 20:58:32 GMT 41.895386 18.718468 32,950 143 489 0
2019-10-12 20:58:27 GMT 41.902275 18.711569 32,950 143 489 0
2019-10-12 20:58:22 GMT 41.912235 18.701605 32,950 143 489 0
2019-10-12 20:58:19 GMT 41.916229 18.697668 32,950 143 489 64
2019-10-12 20:58:12 GMT 41.930191 18.683687 32,950 143 489 0
2019-10-12 20:58:09 GMT 41.935089 18.678818 32,950 143 489 0
2019-10-12 20:58:01 GMT 41.950516 18.663399 32,950 143 490 0
2019-10-12 20:57:58 GMT 41.955067 18.658873 32,950 143 490 0
2019-10-12 20:57:51 GMT 41.969421 18.644485 32,950 143 490 0
2019-10-12 20:57:48 GMT 41.973919 18.639965 32,950 143 490 0
2019-10-12 20:57:41 GMT 41.987183 18.626696 32,950 143 490 0
2019-10-12 20:57:37 GMT 41.993004 18.620932 32,950 143 490 0
2019-10-12 20:57:31 GMT 42.005154 18.608732 32,950 143 490 0
2019-10-12 20:57:27 GMT 42.011719 18.602163 32,950 143 490 0
2019-10-12 20:57:20 GMT 42.024582 18.589304 32,950 143 490 64
2019-10-12 20:57:16 GMT 42.032227 18.581627 32,950 143 490 0
2019-10-12 20:57:11 GMT 42.043095 18.570726 32,950 143 490 0
2019-10-12 20:57:05 GMT 42.051270 18.562525 32,950 143 490 0
2019-10-12 20:57:00 GMT 42.062531 18.551228 32,950 143 490 0
2019-10-12 20:56:55 GMT 42.069584 18.544092 32,950 143 490 0
2019-10-12 20:56:48 GMT 42.082260 18.531315 32,950 143 490 0
2019-10-12 20:56:44 GMT 42.089539 18.524073 32,950 143 490 0
2019-10-12 20:56:40 GMT 42.098419 18.515083 32,950 143 490 0
2019-10-12 20:56:34 GMT 42.107666 18.505783 32,950 143 490 0
2019-10-12 20:56:28 GMT 42.117828 18.495607 32,950 143 490 0
2019-10-12 20:56:22 GMT 42.128845 18.484432 32,950 143 490 0
2019-10-12 20:56:19 GMT 42.135910 18.477320 32,950 143 490 0
2019-10-12 20:56:13 GMT 42.145157 18.467955 32,950 142 489 0
2019-10-12 20:56:08 GMT 42.154587 18.458435 32,950 142 489 0
2019-10-12 20:56:03 GMT 42.163971 18.448915 32,950 142 489 0
2019-10-12 20:55:57 GMT 42.175022 18.437677 32,950 142 489 0
2019-10-12 20:55:52 GMT 42.183334 18.429253 32,950 142 489 0
2019-10-12 20:55:48 GMT 42.192387 18.420048 32,950 142 489 0
2019-10-12 20:55:38 GMT 42.210617 18.401476 32,950 142 490 0
2019-10-12 20:55:25 GMT 42.232315 18.379377 32,950 142 491 0
2019-10-12 20:55:22 GMT 42.238426 18.373100 32,950 142 490 0
2019-10-12 20:55:14 GMT 42.252686 18.358465 32,950 142 490 0
2019-10-12 20:55:11 GMT 42.258121 18.352917 32,950 142 490 0
2019-10-12 20:55:05 GMT 42.275620 18.334932 32,950 142 490 0
2019-10-12 20:55:01 GMT 42.275620 18.334932 32,950 142 490 0
2019-10-12 20:54:56 GMT 42.285355 18.324940 32,950 142 490 0
2019-10-12 20:54:51 GMT 42.294388 18.315706 32,950 142 490 0
2019-10-12 20:54:44 GMT 42.308258 18.301434 32,950 142 491 0
2019-10-12 20:54:40 GMT 42.313705 18.295856 32,950 142 491 0
2019-10-12 20:54:36 GMT 42.321663 18.287766 32,950 142 491 0
2019-10-12 20:54:32 GMT 42.329086 18.280190 32,950 142 491 64
2019-10-12 20:54:29 GMT 42.334328 18.274799 32,950 142 491 64
2019-10-12 20:54:25 GMT 42.341400 18.267641 32,950 143 491 0
2019-10-12 20:54:22 GMT 42.346523 18.262535 32,950 143 490 0
2019-10-12 20:54:19 GMT 42.351974 18.257154 32,950 144 490 0
2019-10-12 20:54:16 GMT 42.359344 18.249975 32,950 144 490 0
2019-10-12 20:54:13 GMT 42.364700 18.244795 32,950 144 490 0
2019-10-12 20:54:08 GMT 42.371704 18.238054 32,950 144 490 0
2019-10-12 20:54:05 GMT 42.378296 18.231688 32,950 144 490 0
2019-10-12 20:54:02 GMT 42.383469 18.226692 32,950 144 490 0
2019-10-12 20:53:58 GMT 42.390839 18.219578 32,950 144 490 0
2019-10-12 20:53:52 GMT 42.402618 18.208178 32,950 144 489 0
2019-10-12 20:53:47 GMT 42.410522 18.200476 32,950 144 489 0
2019-10-12 20:53:42 GMT 42.421600 18.189800 32,950 144 489 0
2019-10-12 20:53:38 GMT 42.428036 18.183586 32,950 144 490 0
2019-10-12 20:53:34 GMT 42.435390 18.176434 32,950 144 490 0
2019-10-12 20:53:31 GMT 42.441116 18.170940 32,950 144 490 0
2019-10-12 20:53:24 GMT 42.454010 18.158464 32,950 144 490 0
2019-10-12 20:53:20 GMT 42.460621 18.152033 32,950 144 490 0
2019-10-12 20:53:14 GMT 42.472412 18.140614 32,950 144 490 0
2019-10-12 20:53:11 GMT 42.479187 18.133995 32,950 144 490 64
2019-10-12 20:53:06 GMT 42.485458 18.127941 32,950 144 490 64
2019-10-12 20:53:03 GMT 42.491913 18.121698 32,950 144 490 0
2019-10-12 20:52:59 GMT 42.499283 18.114519 32,950 144 490 64
2019-10-12 20:52:54 GMT 42.509949 18.104158 32,950 144 490 0
2019-10-12 20:52:50 GMT 42.516907 18.097355 32,950 144 490 64
2019-10-12 20:52:44 GMT 42.529266 18.085430 32,950 144 490 0
2019-10-12 20:52:35 GMT 42.550781 18.064457 32,950 144 490 0
2019-10-12 20:52:25 GMT 42.566948 18.048750 32,950 144 490 0
2019-10-12 20:52:15 GMT 42.580914 18.035080 32,950 144 490 0
2019-10-12 20:52:02 GMT 42.604095 18.012531 32,950 144 490 0
2019-10-12 20:51:52 GMT 42.622112 17.994967 32,950 144 490 0
2019-10-12 20:51:42 GMT 42.641647 17.975880 32,950 144 490 0
2019-10-12 20:51:32 GMT 42.660004 17.957903 32,950 144 490 0
2019-10-12 20:51:21 GMT 42.679184 17.939177 32,950 144 490 -64
2019-10-12 20:51:12 GMT 42.697758 17.921001 32,950 144 490 0
2019-10-12 20:51:04 GMT 42.713058 17.906029 32,950 144 491 0
2019-10-12 20:51:01 GMT 42.716518 17.902605 32,950 144 491 64
2019-10-12 20:50:51 GMT 42.736404 17.883120 32,950 144 491 0
2019-10-12 20:50:43 GMT 42.749863 17.869949 32,950 144 491 0
2019-10-12 20:50:40 GMT 42.754852 17.865080 32,950 144 491 0
2019-10-12 20:50:32 GMT 42.769180 17.851034 32,950 144 491 0
2019-10-12 20:50:22 GMT 42.787262 17.833307 32,950 144 491 0
2019-10-12 20:50:14 GMT 42.803478 17.817333 32,950 144 492 0
2019-10-12 20:50:01 GMT 42.827408 17.793827 32,950 144 492 0
2019-10-12 20:49:52 GMT 42.844212 17.777317 32,950 143 493 0
2019-10-12 20:49:49 GMT 42.863766 17.757961 32,950 144 494 0
2019-10-12 20:49:41 GMT 42.863766 17.757961 32,950 144 494 0
2019-10-12 20:49:30 GMT 42.883942 17.738129 32,950 144 494 -64
2019-10-12 20:49:19 GMT 42.907104 17.715389 32,950 144 494 0
2019-10-12 20:49:09 GMT 42.922699 17.700022 32,950 143 496 0
2019-10-12 20:48:59 GMT 42.944000 17.678854 32,950 144 496 0
2019-10-12 20:48:47 GMT 42.964085 17.659018 32,950 144 496 64
2019-10-12 20:48:36 GMT 42.984520 17.638746 32,950 143 498 0
2019-10-12 20:48:25 GMT 43.004631 17.618866 32,950 143 498 0
2019-10-12 20:48:15 GMT 43.024567 17.599075 32,950 143 498 0
2019-10-12 20:48:04 GMT 43.045029 17.578764 32,950 143 498 0
2019-10-12 20:47:53 GMT 43.064621 17.559282 32,950 143 500 0
2019-10-12 20:47:41 GMT 43.086319 17.537693 32,950 143 501 0
2019-10-12 20:47:32 GMT 43.106720 17.517439 32,950 143 501 0
2019-10-12 20:47:22 GMT 43.122269 17.501940 32,950 143 502 0
2019-10-12 20:47:11 GMT 43.143860 17.480398 32,950 143 503 -64
2019-10-12 20:47:07 GMT 43.151184 17.473116 32,950 143 503 -64
2019-10-12 20:47:03 GMT 43.158325 17.466026 32,950 143 503 0
2019-10-12 20:46:58 GMT 43.169052 17.455315 32,950 143 503 0
2019-10-12 20:46:51 GMT 43.180573 17.443863 32,950 143 505 0
2019-10-12 20:46:47 GMT 43.189224 17.435240 32,950 143 505 0
2019-10-12 20:46:39 GMT 43.204514 17.419973 32,950 143 505 0
2019-10-12 20:46:36 GMT 43.208439 17.416012 32,950 143 505 0
2019-10-12 20:46:31 GMT 43.219208 17.405218 32,950 143 505 64
2019-10-12 20:46:25 GMT 43.230927 17.393530 32,950 143 506 0
2019-10-12 20:46:17 GMT 43.246563 17.377821 32,950 143 506 0
2019-10-12 20:46:09 GMT 43.259041 17.365330 32,950 143 506 0
2019-10-12 20:46:03 GMT 43.271702 17.352709 32,950 143 506 64
2019-10-12 20:46:00 GMT 43.277573 17.346836 32,950 143 506 0
2019-10-12 20:45:53 GMT 43.290436 17.333935 32,950 143 507 0
2019-10-12 20:45:49 GMT 43.297256 17.327101 32,950 143 507 0
2019-10-12 20:45:45 GMT 43.305038 17.319307 32,950 143 507 0
2019-10-12 20:45:42 GMT 43.311642 17.312687 32,950 143 508 0
2019-10-12 20:45:38 GMT 43.318268 17.306023 32,950 143 508 0
2019-10-12 20:45:35 GMT 43.324539 17.299740 32,950 143 508 0
2019-10-12 20:45:27 GMT 43.338730 17.285454 32,950 143 508 0
2019-10-12 20:45:24 GMT 43.344601 17.279531 32,950 143 508 0
2019-10-12 20:45:20 GMT 43.353725 17.270376 32,950 143 510 0
2019-10-12 20:45:15 GMT 43.363968 17.260111 32,950 143 510 64
2019-10-12 20:45:11 GMT 43.370625 17.253374 32,950 143 510 0
2019-10-12 20:45:04 GMT 43.383755 17.240166 32,950 143 510 0
2019-10-12 20:44:54 GMT 43.404095 17.219696 32,950 143 511 -64
2019-10-12 20:44:43 GMT 43.423508 17.200077 32,950 143 512 0
2019-10-12 20:44:36 GMT 43.437428 17.186083 32,950 143 512 0
2019-10-12 20:44:32 GMT 43.444130 17.179346 32,950 143 512 0
2019-10-12 20:44:22 GMT 43.463974 17.159304 32,950 143 513 0
2019-10-12 20:44:19 GMT 43.471458 17.151751 32,950 143 513 0
2019-10-12 20:44:11 GMT 43.483887 17.139183 32,950 143 514 64
2019-10-12 20:44:08 GMT 43.490589 17.132395 32,950 143 515 0
2019-10-12 20:44:01 GMT 43.503616 17.119253 32,975 143 514 64
2019-10-12 20:43:49 GMT 43.529091 17.093418 32,950 143 515 64
2019-10-12 20:43:46 GMT 43.532906 17.089560 32,950 143 515 0
2019-10-12 20:43:41 GMT 43.544220 17.078054 32,950 143 515 0
2019-10-12 20:43:30 GMT 43.563812 17.058191 32,950 143 516 64
2019-10-12 20:43:18 GMT 43.586674 17.035021 32,950 143 517 -64
2019-10-12 20:43:09 GMT 43.603958 17.017439 32,950 143 516 64
2019-10-12 20:43:06 GMT 43.609531 17.011806 32,950 143 516 0
2019-10-12 20:42:58 GMT 43.625267 16.995785 32,950 143 516 0
2019-10-12 20:42:55 GMT 43.630234 16.990740 32,950 143 516 0
2019-10-12 20:42:47 GMT 43.646164 16.974516 32,950 143 516 0
2019-10-12 20:42:44 GMT 43.652115 16.968449 32,950 143 516 0
2019-10-12 20:42:36 GMT 43.666138 16.954193 32,950 143 516 -64
2019-10-12 20:42:32 GMT 43.674377 16.945757 32,950 143 516 0
2019-10-12 20:42:27 GMT 43.683781 16.936211 32,950 143 516 0
2019-10-12 20:42:21 GMT 43.695099 16.924629 32,950 143 516 0
2019-10-12 20:42:16 GMT 43.704849 16.914602 32,950 143 516 0
2019-10-12 20:42:10 GMT 43.715996 16.903252 32,950 143 516 0
2019-10-12 20:42:05 GMT 43.725586 16.893440 32,950 143 516 0
2019-10-12 20:42:00 GMT 43.734989 16.883894 32,950 143 516 0
2019-10-12 20:41:53 GMT 43.749001 16.869572 32,950 143 516 0
2019-10-12 20:41:50 GMT 43.756073 16.862289 32,950 143 516 0
2019-10-12 20:41:46 GMT 43.764496 16.853666 32,950 143 516 0
2019-10-12 20:41:38 GMT 43.777538 16.840275 32,950 143 516 0
2019-10-12 20:41:35 GMT 43.784286 16.833473 32,950 143 516 0
2019-10-12 20:41:25 GMT 43.804585 16.812679 32,950 143 516 0
2019-10-12 20:41:18 GMT 43.817062 16.799927 32,950 143 516 0
2019-10-12 20:41:14 GMT 43.824142 16.792665 32,950 143 516 0
2019-10-12 20:41:11 GMT 43.832005 16.784624 32,950 143 516 0
2019-10-12 20:41:03 GMT 43.845612 16.770695 32,950 143 516 64
2019-10-12 20:40:59 GMT 43.851929 16.764179 32,950 143 516 0
2019-10-12 20:40:52 GMT 43.865849 16.749834 32,950 143 515 0
2019-10-12 20:40:48 GMT 43.873489 16.741949 32,950 143 515 0
2019-10-12 20:40:37 GMT 43.896618 16.718184 32,950 143 514 0
2019-10-12 20:40:31 GMT 43.905788 16.708767 32,950 143 513 0
2019-10-12 20:40:27 GMT 43.915146 16.699154 32,950 143 513 0
2019-10-12 20:40:19 GMT 43.929611 16.684208 32,950 143 513 -64
2019-10-12 20:40:14 GMT 43.938377 16.675154 32,950 143 513 0
2019-10-12 20:40:10 GMT 43.945637 16.667698 32,950 143 513 0
2019-10-12 20:40:04 GMT 43.957809 16.655146 32,950 143 513 0
2019-10-12 20:39:59 GMT 43.966553 16.646139 32,950 143 513 0
2019-10-12 20:39:49 GMT 43.986145 16.625956 32,950 143 513 0
2019-10-12 20:39:38 GMT 44.026592 16.584124 32,950 143 511 0
2019-10-12 20:39:28 GMT 44.026592 16.584124 32,950 143 512 0
2019-10-12 20:39:21 GMT 44.040421 16.569607 32,950 143 510 64
2019-10-12 20:39:17 GMT 44.045929 16.564125 32,950 143 512 0
2019-10-12 20:39:11 GMT 44.066395 16.542860 32,950 143 512 0
2019-10-12 20:39:07 GMT 44.066395 16.542860 32,950 143 512 0
2019-10-12 20:38:59 GMT 44.083248 16.525398 32,950 143 511 0
2019-10-12 20:38:48 GMT 44.103870 16.503950 32,950 143 512 0
2019-10-12 20:38:43 GMT 44.110901 16.496691 32,950 143 511 0
2019-10-12 20:38:40 GMT 44.118439 16.488817 32,950 143 510 64
2019-10-12 20:38:32 GMT 44.131897 16.474894 32,950 143 510 64
2019-10-12 20:38:24 GMT 44.146465 16.459743 32,950 143 511 0
2019-10-12 20:38:13 GMT 44.168610 16.436697 32,950 143 511 0
2019-10-12 20:38:03 GMT 44.187332 16.417150 32,950 143 512 0
2019-10-12 20:37:52 GMT 44.207214 16.396492 32,950 143 512 -64
2019-10-12 20:37:41 GMT 44.228577 16.374142 32,950 143 512 -64
2019-10-12 20:37:34 GMT 44.241852 16.360317 32,950 143 512 0
2019-10-12 20:37:24 GMT 44.260006 16.341358 32,950 143 512 0
2019-10-12 20:37:20 GMT 44.270992 16.329636 32,950 143 512 0
2019-10-12 20:37:09 GMT 44.288029 16.312017 32,950 143 512 64
2019-10-12 20:37:04 GMT 44.310375 16.288637 32,925 143 514 -64
2019-10-12 20:36:59 GMT 44.310375 16.288637 32,925 143 514 -64
2019-10-12 20:36:53 GMT 44.322151 16.276312 32,950 143 514 -64
2019-10-12 20:36:48 GMT 44.328018 16.270149 32,950 143 514 -64
2019-10-12 20:36:43 GMT 44.338669 16.259047 32,950 143 514 0
2019-10-12 20:36:35 GMT 44.354004 16.242893 32,950 142 514 0
2019-10-12 20:36:32 GMT 44.361073 16.235516 32,950 142 514 0
2019-10-12 20:36:28 GMT 44.377178 16.218567 32,950 142 514 0
2019-10-12 20:36:22 GMT 44.377178 16.218567 32,950 143 514 0
2019-10-12 20:36:14 GMT 44.393330 16.201618 32,950 142 514 0
2019-10-12 20:36:10 GMT 44.400742 16.193783 32,950 142 514 0
2019-10-12 20:36:06 GMT 44.408112 16.186001 32,950 142 514 -64
2019-10-12 20:35:55 GMT 44.429169 16.163767 32,950 142 514 0
2019-10-12 20:35:45 GMT 44.449493 16.142447 32,950 143 514 64
2019-10-12 20:35:39 GMT 44.461250 16.130074 32,950 142 514 0
2019-10-12 20:35:36 GMT 44.466373 16.124647 32,950 142 514 0
2019-10-12 20:35:33 GMT 44.473587 16.117077 32,950 142 514 0
2019-10-12 20:35:29 GMT 44.478149 16.112253 32,950 142 514 -64
2019-10-12 20:35:24 GMT 44.496735 16.092615 32,950 142 514 0
2019-10-12 20:35:12 GMT 44.510365 16.078222 32,950 142 514 -64
2019-10-12 20:35:09 GMT 44.522690 16.065151 32,950 142 514 -64
2019-10-12 20:35:06 GMT 44.522690 16.065151 32,950 142 514 0
2019-10-12 20:35:02 GMT 44.529682 16.057724 32,975 142 514 0
2019-10-12 20:34:59 GMT 44.534801 16.052364 32,950 142 514 64
2019-10-12 20:34:54 GMT 44.546162 16.040306 32,950 142 514 64
2019-10-12 20:34:51 GMT 44.550724 16.035484 32,950 142 514 64
2019-10-12 20:34:48 GMT 44.556591 16.029255 32,950 142 514 0
2019-10-12 20:34:43 GMT 44.568695 16.016432 32,950 142 514 64
2019-10-12 20:34:40 GMT 44.577026 16.007603 32,950 142 513 0
2019-10-12 20:34:30 GMT 44.590439 15.993347 32,950 142 513 0
2019-10-12 20:34:27 GMT 44.595566 15.987985 32,950 142 513 0
2019-10-12 20:34:23 GMT 44.604866 15.978140 32,950 142 513 0
2019-10-12 20:34:20 GMT 44.609756 15.972879 32,950 142 514 0
2019-10-12 20:34:17 GMT 44.628094 15.953421 32,950 142 514 0
2019-10-12 20:34:10 GMT 44.628094 15.953421 32,950 142 514 0
2019-10-12 20:34:06 GMT 44.647785 15.932520 32,950 142 514 0
2019-10-12 20:34:00 GMT 44.647785 15.932520 32,950 142 514 0
2019-10-12 20:33:56 GMT 44.655762 15.924094 32,950 142 514 0
2019-10-12 20:33:53 GMT 44.670551 15.908337 32,950 142 514 0
2019-10-12 20:33:48 GMT 44.670551 15.908337 32,950 142 514 64
2019-10-12 20:33:45 GMT 44.676224 15.902318 32,950 142 514 0
2019-10-12 20:33:37 GMT 44.690231 15.887342 32,950 142 514 0
2019-10-12 20:33:34 GMT 44.698387 15.878728 32,950 142 514 0
2019-10-12 20:33:29 GMT 44.706116 15.870405 32,950 142 513 0
2019-10-12 20:33:25 GMT 44.714867 15.861176 32,950 142 513 0
2019-10-12 20:33:22 GMT 44.728275 15.846840 32,950 142 514 0
2019-10-12 20:33:17 GMT 44.728275 15.846840 32,950 142 514 0
2019-10-12 20:33:13 GMT 44.736607 15.837931 32,950 142 514 0
2019-10-12 20:33:08 GMT 44.745667 15.828225 32,950 142 513 64
2019-10-12 20:33:05 GMT 44.751526 15.821947 32,950 142 513 64
2019-10-12 20:33:02 GMT 44.758160 15.814953 32,950 142 513 0
2019-10-12 20:32:59 GMT 44.762878 15.809849 32,950 142 513 0
2019-10-12 20:32:54 GMT 44.771568 15.800617 32,950 142 514 0
2019-10-12 20:32:50 GMT 44.779724 15.791931 32,950 142 514 0
2019-10-12 20:32:46 GMT 44.787628 15.783401 32,950 142 513 0
2019-10-12 20:32:41 GMT 44.796524 15.773882 32,950 142 514 0
2019-10-12 20:32:38 GMT 44.814285 15.754852 32,950 142 514 -64
2019-10-12 20:32:32 GMT 44.814285 15.754852 32,950 142 514 0
2019-10-12 20:32:28 GMT 44.822029 15.746557 32,950 142 513 0
2019-10-12 20:32:20 GMT 44.835663 15.731964 32,950 142 514 64
2019-10-12 20:32:17 GMT 44.844143 15.722842 32,950 142 514 0
2019-10-12 20:32:12 GMT 44.859100 15.706853 32,950 142 514 0
2019-10-12 20:32:08 GMT 44.859100 15.706853 32,950 142 515 -64
2019-10-12 20:32:05 GMT 44.865696 15.699731 32,950 142 515 0
2019-10-12 20:32:01 GMT 44.873238 15.691625 32,975 142 514 0
2019-10-12 20:31:57 GMT 44.879848 15.684524 32,975 142 514 0
2019-10-12 20:31:54 GMT 44.885715 15.678227 32,975 142 513 64
2019-10-12 20:31:48 GMT 44.897026 15.666035 32,950 142 514 -64
2019-10-12 20:31:40 GMT 44.912292 15.649632 32,950 142 514 -128
2019-10-12 20:31:34 GMT 44.922676 15.638502 32,950 142 513 64
2019-10-12 20:31:30 GMT 44.931892 15.628588 32,925 142 514 -128
2019-10-12 20:31:27 GMT 44.936646 15.623474 32,950 142 513 64
2019-10-12 20:31:24 GMT 44.943207 15.616396 32,950 142 513 64
2019-10-12 20:31:20 GMT 44.951118 15.607888 32,950 142 514 -128
2019-10-12 20:31:16 GMT 44.956787 15.601763 32,950 142 514 -64
2019-10-12 20:31:13 GMT 44.964901 15.593016 32,950 142 514 -64
2019-10-12 20:31:08 GMT 44.971527 15.585872 32,950 142 515 -128
2019-10-12 20:31:05 GMT 44.979610 15.577140 32,950 142 514 -128
2019-10-12 20:30:59 GMT 44.990753 15.565077 32,950 142 515 -64
2019-10-12 20:30:55 GMT 45.004002 15.550746 32,975 142 515 0
2019-10-12 20:30:52 GMT 45.008881 15.545458 32,975 142 515 64
2019-10-12 20:30:49 GMT 45.008881 15.545458 32,975 142 515 64
2019-10-12 20:30:46 GMT 45.015518 15.538265 32,950 142 515 64
2019-10-12 20:30:43 GMT 45.031952 15.520477 32,950 142 515 128
2019-10-12 20:30:38 GMT 45.031952 15.520477 32,950 142 515 0
2019-10-12 20:30:35 GMT 45.034790 15.517469 32,950 142 515 0
2019-10-12 20:30:30 GMT 45.043304 15.508248 32,950 142 515 0
2019-10-12 20:30:27 GMT 45.049717 15.501307 32,950 142 515 0
2019-10-12 20:30:24 GMT 45.055389 15.495170 32,950 142 514 0
2019-10-12 20:30:20 GMT 45.063858 15.485949 32,950 142 514 0
2019-10-12 20:30:15 GMT 45.072342 15.476789 32,950 142 514 0
2019-10-12 20:30:11 GMT 45.080658 15.467769 32,950 142 514 0
2019-10-12 20:30:04 GMT 45.094025 15.453317 32,950 142 514 0
2019-10-12 20:30:01 GMT 45.100250 15.446516 32,950 142 514 0
2019-10-12 20:29:55 GMT 45.110420 15.435523 32,950 142 514 0
2019-10-12 20:29:52 GMT 45.122864 15.421993 32,950 142 514 0
2019-10-12 20:29:45 GMT 45.129456 15.414799 32,950 142 514 64
2019-10-12 20:29:42 GMT 45.134949 15.408848 32,950 142 514 64
2019-10-12 20:29:39 GMT 45.140587 15.402765 32,950 142 514 64
2019-10-12 20:29:36 GMT 45.145111 15.397797 32,950 142 514 64
2019-10-12 20:29:33 GMT 45.151714 15.390640 32,950 142 514 0
2019-10-12 20:29:28 GMT 45.169266 15.371548 32,950 142 514 0
2019-10-12 20:29:24 GMT 45.169266 15.371548 32,950 142 515 0
2019-10-12 20:29:20 GMT 45.176422 15.363791 32,950 142 514 0
2019-10-12 20:29:17 GMT 45.181320 15.358418 32,950 142 514 0
2019-10-12 20:29:14 GMT 45.187931 15.351250 32,950 142 515 0
2019-10-12 20:29:07 GMT 45.203201 15.334569 32,950 142 515 0
2019-10-12 20:29:03 GMT 45.207916 15.329459 32,950 142 515 0
2019-10-12 20:29:00 GMT 45.212837 15.324119 32,950 142 515 0
2019-10-12 20:28:56 GMT 45.222054 15.314004 32,950 142 515 0
2019-10-12 20:28:52 GMT 45.233181 15.301878 32,950 142 515 0
2019-10-12 20:28:49 GMT 45.236023 15.298789 32,950 142 515 0
2019-10-12 20:28:46 GMT 45.240910 15.293438 32,950 142 515 0
2019-10-12 20:28:40 GMT 45.250500 15.282920 32,950 142 515 0
2019-10-12 20:28:36 GMT 45.261436 15.270929 32,950 142 515 0
2019-10-12 20:28:31 GMT 45.268791 15.262890 32,950 142 515 0
2019-10-12 20:28:25 GMT 45.279968 15.250724 32,950 142 515 0
2019-10-12 20:28:20 GMT 45.288624 15.241253 32,950 142 515 0
2019-10-12 20:28:15 GMT 45.299564 15.229261 32,950 142 515 0
2019-10-12 20:28:08 GMT 45.311096 15.216653 32,950 142 516 0
2019-10-12 20:28:03 GMT 45.320511 15.206351 32,950 142 516 0
2019-10-12 20:28:00 GMT 45.327484 15.198669 32,950 142 516 0
2019-10-12 20:27:57 GMT 45.340111 15.184847 32,950 142 515 64
2019-10-12 20:27:54 GMT 45.340111 15.184847 32,950 142 516 64
2019-10-12 20:27:49 GMT 45.348404 15.175716 32,950 142 515 64
2019-10-12 20:27:44 GMT 45.357800 15.165420 32,950 142 515 0
2019-10-12 20:27:41 GMT 45.363464 15.159171 32,950 142 515 64
2019-10-12 20:27:38 GMT 45.369114 15.152960 32,950 142 516 0
2019-10-12 20:27:34 GMT 45.376282 15.145111 32,950 142 516 0
2019-10-12 20:27:31 GMT 45.381729 15.139095 32,950 142 516 0
2019-10-12 20:27:28 GMT 45.388340 15.131858 32,950 142 516 -64
2019-10-12 20:27:24 GMT 45.395096 15.124446 32,950 142 515 -64
2019-10-12 20:27:21 GMT 45.400768 15.118192 32,950 142 515 0
2019-10-12 20:27:17 GMT 45.408264 15.109886 32,950 142 515 0
2019-10-12 20:27:14 GMT 45.415058 15.102450 32,950 142 515 0
2019-10-12 20:27:11 GMT 45.421097 15.095803 32,950 142 515 0
2019-10-12 20:27:07 GMT 45.426743 15.089588 32,950 142 515 0
2019-10-12 20:27:03 GMT 45.434238 15.081348 32,950 142 515 0
2019-10-12 20:26:59 GMT 45.441780 15.073041 32,975 142 515 0
2019-10-12 20:26:55 GMT 45.449478 15.064545 32,975 142 515 0
2019-10-12 20:26:52 GMT 45.454559 15.058921 32,975 142 514 64
2019-10-12 20:26:49 GMT 45.460541 15.052341 32,950 142 514 64
2019-10-12 20:26:45 GMT 45.469013 15.042963 32,950 142 514 64
2019-10-12 20:26:42 GMT 45.474461 15.037001 32,950 142 513 64
2019-10-12 20:26:38 GMT 45.481026 15.029699 32,950 142 513 64
2019-10-12 20:26:35 GMT 45.487541 15.022464 32,950 142 513 64
2019-10-12 20:26:31 GMT 45.494156 15.015237 32,950 142 513 64
2019-10-12 20:26:28 GMT 45.507431 15.000523 32,950 142 513 64
2019-10-12 20:26:24 GMT 45.507431 15.000523 32,950 142 513 64
2019-10-12 20:26:21 GMT 45.512878 14.994507 32,950 142 514 0
2019-10-12 20:26:18 GMT 45.520966 14.985620 32,950 142 514 0
2019-10-12 20:26:12 GMT 45.531281 14.974234 32,950 142 513 0
2019-10-12 20:26:09 GMT 45.536888 14.968001 32,950 142 514 -64
2019-10-12 20:26:06 GMT 45.541763 14.962594 32,950 142 514 -64
2019-10-12 20:26:03 GMT 45.547394 14.956345 32,950 142 514 0
2019-10-12 20:25:59 GMT 45.554901 14.948067 32,950 142 514 0
2019-10-12 20:25:55 GMT 45.562210 14.939964 32,950 142 514 0
2019-10-12 20:25:49 GMT 45.576279 14.924391 32,950 142 514 0
2019-10-12 20:25:45 GMT 45.586418 14.913116 32,950 142 514 0
2019-10-12 20:25:42 GMT 45.593170 14.905632 32,950 142 513 0
2019-10-12 20:25:39 GMT 45.593170 14.905632 32,950 142 513 0
2019-10-12 20:25:34 GMT 45.600449 14.897528 32,950 142 513 0
2019-10-12 20:25:31 GMT 45.606262 14.891097 32,950 141 512 0
2019-10-12 20:25:28 GMT 45.612076 14.884599 32,950 142 513 0
2019-10-12 20:25:21 GMT 45.625763 14.869392 32,950 142 513 0
2019-10-12 20:25:17 GMT 45.632492 14.861889 32,950 142 513 0
2019-10-12 20:25:14 GMT 45.639587 14.853985 32,950 142 514 0
2019-10-12 20:25:11 GMT 45.646179 14.846683 32,950 142 514 0
2019-10-12 20:25:04 GMT 45.660049 14.831275 32,950 142 515 0
2019-10-12 20:25:01 GMT 45.663601 14.827286 32,950 142 515 0
2019-10-12 20:24:58 GMT 45.668655 14.821695 32,950 142 515 64
2019-10-12 20:24:53 GMT 45.684223 14.804352 32,950 142 514 0
2019-10-12 20:24:47 GMT 45.688705 14.799388 32,950 141 513 0
2019-10-12 20:24:44 GMT 45.694519 14.792890 32,950 142 515 0
2019-10-12 20:24:39 GMT 45.705219 14.781006 32,950 141 513 0
2019-10-12 20:24:36 GMT 45.710060 14.775581 32,950 142 515 0
2019-10-12 20:24:29 GMT 45.724869 14.758993 32,950 141 514 0
2019-10-12 20:24:23 GMT 45.737247 14.745163 32,950 141 514 0
2019-10-12 20:24:19 GMT 45.743591 14.738025 32,950 141 514 0
2019-10-12 20:24:16 GMT 45.747711 14.733470 32,950 141 514 0
2019-10-12 20:24:09 GMT 45.761948 14.717526 32,950 141 514 0
2019-10-12 20:24:06 GMT 45.766808 14.712067 32,950 141 514 0
2019-10-12 20:23:58 GMT 45.783096 14.693812 32,950 141 513 0
2019-10-12 20:23:55 GMT 45.786804 14.689659 32,950 141 513 0
2019-10-12 20:23:46 GMT 45.809784 14.663867 32,950 141 513 0
2019-10-12 20:23:37 GMT 45.820251 14.652122 32,950 141 513 0
2019-10-12 20:23:34 GMT 45.828072 14.643333 32,950 141 513 0
2019-10-12 20:23:31 GMT 45.833519 14.637291 32,950 141 513 0
2019-10-12 20:23:24 GMT 45.844688 14.624725 32,950 141 513 0
2019-10-12 20:23:21 GMT 45.850464 14.618202 32,950 141 512 0
2019-10-12 20:23:17 GMT 45.857758 14.610075 32,950 141 513 0
2019-10-12 20:23:14 GMT 45.863525 14.603577 32,950 141 512 0
2019-10-12 20:23:11 GMT 45.869316 14.597054 32,950 141 512 0
2019-10-12 20:23:03 GMT 45.883656 14.580917 32,950 141 512 0
2019-10-12 20:22:59 GMT 45.891102 14.572540 32,950 141 512 0
2019-10-12 20:22:55 GMT 45.899689 14.562914 32,950 141 512 0
2019-10-12 20:22:52 GMT 45.903206 14.558945 32,950 141 512 0
2019-10-12 20:22:48 GMT 45.912331 14.548714 32,950 141 512 0
2019-10-12 20:22:42 GMT 45.922348 14.537391 32,950 141 511 0
2019-10-12 20:22:38 GMT 45.929604 14.529213 32,950 141 511 0
2019-10-12 20:22:34 GMT 45.937794 14.519943 32,950 141 511 0
2019-10-12 20:22:31 GMT 45.942822 14.514313 32,950 141 511 64
2019-10-12 20:22:27 GMT 45.950596 14.505524 32,950 141 511 0
2019-10-12 20:22:23 GMT 45.964005 14.490431 32,950 141 511 0
2019-10-12 20:22:20 GMT 45.971420 14.481990 32,950 141 511 0
2019-10-12 20:22:16 GMT 45.971420 14.481990 32,950 141 511 0
2019-10-12 20:22:12 GMT 45.978470 14.474085 32,950 141 511 0
2019-10-12 20:22:09 GMT 45.984787 14.466917 32,950 141 511 0
2019-10-12 20:22:06 GMT 45.991287 14.459616 32,950 141 511 0
2019-10-12 20:22:02 GMT 45.998703 14.451175 32,950 141 510 0
2019-10-12 20:21:59 GMT 46.003529 14.445786 32,950 141 510 0
2019-10-12 20:21:53 GMT 46.016327 14.431297 32,950 141 510 0
2019-10-12 20:21:50 GMT 46.021683 14.425186 32,950 141 510 0
2019-10-12 20:21:47 GMT 46.024849 14.421616 32,950 141 510 0
2019-10-12 20:21:44 GMT 46.031708 14.413862 32,950 141 510 64
2019-10-12 20:21:38 GMT 46.040955 14.403351 32,950 141 509 0
2019-10-12 20:21:35 GMT 46.047272 14.396243 32,950 141 510 0
2019-10-12 20:21:30 GMT 46.066315 14.374606 32,950 141 510 0
2019-10-12 20:21:26 GMT 46.066315 14.374606 32,950 141 510 0
2019-10-12 20:21:21 GMT 46.072609 14.367508 32,950 141 510 0
2019-10-12 20:21:18 GMT 46.080383 14.358650 32,950 141 510 0
2019-10-12 20:21:14 GMT 46.085953 14.352365 32,950 141 510 0
2019-10-12 20:21:10 GMT 46.092815 14.344574 32,950 141 509 0
2019-10-12 20:21:07 GMT 46.100590 14.335785 32,950 141 509 0
2019-10-12 20:21:03 GMT 46.106686 14.328850 32,950 141 509 0
2019-10-12 20:21:00 GMT 46.112411 14.322327 32,950 141 509 0
2019-10-12 20:20:55 GMT 46.122746 14.310516 32,950 141 509 0
2019-10-12 20:20:52 GMT 46.126423 14.306328 32,950 141 508 0
2019-10-12 20:20:47 GMT 46.136200 14.295204 32,950 141 508 0
2019-10-12 20:20:44 GMT 46.141022 14.289729 32,950 141 508 0
2019-10-12 20:20:41 GMT 46.146744 14.283231 32,950 141 508 0
2019-10-12 20:20:37 GMT 46.155937 14.272682 32,950 141 508 0
2019-10-12 20:20:34 GMT 46.166473 14.260723 32,950 141 508 0
2019-10-12 20:20:26 GMT 46.175125 14.250808 32,950 141 508 0
2019-10-12 20:20:23 GMT 46.185654 14.238817 32,950 141 508 64
2019-10-12 20:20:20 GMT 46.185654 14.238817 32,950 141 508 0
2019-10-12 20:20:15 GMT 46.194855 14.228325 32,950 141 508 0
2019-10-12 20:20:11 GMT 46.205193 14.216515 32,950 141 508 64
2019-10-12 20:20:08 GMT 46.208870 14.212326 32,950 141 508 0
2019-10-12 20:20:04 GMT 46.215851 14.204292 32,950 141 508 64
2019-10-12 20:20:01 GMT 46.219902 14.199692 32,950 141 508 0
2019-10-12 20:19:58 GMT 46.226372 14.192276 32,950 141 508 0
2019-10-12 20:19:54 GMT 46.234287 14.183281 32,950 141 508 64
2019-10-12 20:19:50 GMT 46.246857 14.168930 32,950 141 508 0
2019-10-12 20:19:47 GMT 46.254959 14.159702 32,950 141 508 0
2019-10-12 20:19:43 GMT 46.254959 14.159702 32,950 141 508 0
2019-10-12 20:19:39 GMT 46.262123 14.151421 32,950 141 508 0
2019-10-12 20:19:36 GMT 46.266724 14.146170 32,950 141 508 0
2019-10-12 20:19:33 GMT 46.277580 14.133774 32,950 141 508 0
2019-10-12 20:19:26 GMT 46.285309 14.124916 32,950 141 508 0
2019-10-12 20:19:23 GMT 46.291397 14.117968 32,950 141 508 0
2019-10-12 20:19:20 GMT 46.297073 14.111403 32,950 141 508 0
2019-10-12 20:19:15 GMT 46.307373 14.099648 32,950 141 508 64
2019-10-12 20:19:11 GMT 46.316208 14.089497 32,950 141 508 64
2019-10-12 20:19:07 GMT 46.319870 14.085277 32,950 141 508 0
2019-10-12 20:19:04 GMT 46.327606 14.076434 32,950 141 508 0
2019-10-12 20:19:01 GMT 46.330902 14.072682 32,950 141 508 0
2019-10-12 20:18:58 GMT 46.338982 14.063393 32,950 141 507 0
2019-10-12 20:18:54 GMT 46.344498 14.057074 32,950 141 507 0
2019-10-12 20:18:50 GMT 46.353836 14.046288 32,950 141 508 0
2019-10-12 20:18:46 GMT 46.360611 14.038451 32,950 141 508 0
2019-10-12 20:18:42 GMT 46.366882 14.031283 32,950 141 508 0
2019-10-12 20:18:38 GMT 46.374573 14.022440 32,950 141 508 0
2019-10-12 20:18:35 GMT 46.382835 14.012856 32,950 141 508 0
2019-10-12 20:18:31 GMT 46.387070 14.008049 32,950 141 508 0
2019-10-12 20:18:28 GMT 46.392750 14.001457 32,950 141 508 0
2019-10-12 20:18:25 GMT 46.397125 13.996376 32,950 141 508 0
2019-10-12 20:18:22 GMT 46.404282 13.988141 32,950 141 508 0
2019-10-12 20:18:19 GMT 46.408859 13.982849 32,950 141 508 0
2019-10-12 20:18:15 GMT 46.416397 13.974197 32,950 141 508 0
2019-10-12 20:18:11 GMT 46.423004 13.966571 32,975 141 507 64
2019-10-12 20:18:08 GMT 46.429062 13.959572 32,950 141 507 64
2019-10-12 20:18:04 GMT 46.437115 13.950302 32,950 141 507 64
2019-10-12 20:18:00 GMT 46.442596 13.943928 32,950 141 507 64
2019-10-12 20:17:57 GMT 46.447952 13.937832 32,950 141 507 64
2019-10-12 20:17:54 GMT 46.453629 13.931267 32,950 141 507 64
2019-10-12 20:17:51 GMT 46.461880 13.921738 32,950 141 507 64
2019-10-12 20:17:47 GMT 46.467373 13.915421 32,950 141 507 0
2019-10-12 20:17:42 GMT 46.475426 13.906082 32,950 141 507 0
2019-10-12 20:17:37 GMT 46.485855 13.894021 32,950 141 507 0
2019-10-12 20:17:30 GMT 46.499771 13.877930 32,950 141 507 0
2019-10-12 20:17:26 GMT 46.505966 13.870720 32,950 141 507 0
2019-10-12 20:17:21 GMT 46.514763 13.860558 32,950 141 507 0
2019-10-12 20:17:18 GMT 46.525589 13.847999 32,950 141 508 0
2019-10-12 20:17:12 GMT 46.530899 13.841836 32,950 141 508 0
2019-10-12 20:17:09 GMT 46.536411 13.835495 32,950 141 508 0
2019-10-12 20:17:05 GMT 46.545719 13.824646 32,950 141 508 0
2019-10-12 20:17:02 GMT 46.550327 13.819290 32,950 141 508 0
2019-10-12 20:16:59 GMT 46.555637 13.813179 32,950 141 508 0
2019-10-12 20:16:56 GMT 46.561317 13.806587 32,950 141 508 0
2019-10-12 20:16:53 GMT 46.565739 13.801437 32,950 141 508 0
2019-10-12 20:16:49 GMT 46.573792 13.792062 32,950 141 508 0
2019-10-12 20:16:46 GMT 46.579285 13.785713 32,950 141 508 0
2019-10-12 20:16:42 GMT 46.585709 13.778229 32,950 141 508 0
2019-10-12 20:16:38 GMT 46.593063 13.769714 32,950 141 508 0
2019-10-12 20:16:33 GMT 46.603680 13.757355 32,950 141 508 0
2019-10-12 20:16:30 GMT 46.608810 13.751332 32,950 141 508 0
2019-10-12 20:16:24 GMT 46.618927 13.739609 32,950 141 508 0
2019-10-12 20:16:21 GMT 46.632477 13.723800 32,950 141 509 0
2019-10-12 20:16:14 GMT 46.639618 13.715493 32,950 141 509 0
2019-10-12 20:16:10 GMT 46.644974 13.709263 32,950 141 509 0
2019-10-12 20:16:07 GMT 46.651718 13.701324 32,950 141 509 0
2019-10-12 20:16:04 GMT 46.662006 13.689308 32,950 141 509 0
2019-10-12 20:16:01 GMT 46.662006 13.689308 32,950 141 509 0
2019-10-12 20:15:57 GMT 46.669189 13.680993 32,950 141 509 64
2019-10-12 20:15:53 GMT 46.678349 13.670288 32,950 141 509 0
2019-10-12 20:15:50 GMT 46.681641 13.666389 32,950 141 509 0
2019-10-12 20:15:45 GMT 46.691574 13.654800 32,950 141 510 0
2019-10-12 20:15:41 GMT 46.698578 13.646627 32,950 141 509 0
2019-10-12 20:15:38 GMT 46.703857 13.640419 32,950 141 509 0
2019-10-12 20:15:33 GMT 46.712147 13.630737 32,950 141 509 64
2019-10-12 20:15:30 GMT 46.719501 13.622154 32,950 141 509 0
2019-10-12 20:15:27 GMT 46.725723 13.614874 32,950 141 509 0
2019-10-12 20:15:22 GMT 46.732681 13.606701 32,950 141 509 0
2019-10-12 20:15:18 GMT 46.740051 13.598060 32,950 141 510 0
2019-10-12 20:15:15 GMT 46.744995 13.592299 32,950 141 510 0
2019-10-12 20:15:12 GMT 46.750877 13.585419 32,950 141 510 0
2019-10-12 20:15:09 GMT 46.758408 13.576623 32,950 141 510 0
2019-10-12 20:15:02 GMT 46.770721 13.562153 32,950 141 510 0
2019-10-12 20:14:59 GMT 46.776443 13.555521 32,950 141 510 0
2019-10-12 20:14:56 GMT 46.779926 13.551430 32,950 141 510 0
2019-10-12 20:14:51 GMT 46.789654 13.539963 32,950 141 510 0
2019-10-12 20:14:47 GMT 46.797729 13.530534 32,950 141 510 0
2019-10-12 20:14:44 GMT 46.805054 13.521892 32,950 141 510 0
2019-10-12 20:14:41 GMT 46.819355 13.505081 32,950 141 509 0
2019-10-12 20:14:36 GMT 46.819355 13.505081 32,950 141 509 0
2019-10-12 20:14:33 GMT 46.830528 13.491898 32,950 141 509 64
2019-10-12 20:14:29 GMT 46.830528 13.491898 32,950 141 509 0
2019-10-12 20:14:25 GMT 46.839157 13.481765 32,950 141 509 0
2019-10-12 20:14:21 GMT 46.845562 13.474251 32,950 141 509 0
2019-10-12 20:14:18 GMT 46.850868 13.468002 32,950 141 509 0
2019-10-12 20:14:15 GMT 46.856689 13.461133 32,950 141 509 0
2019-10-12 20:14:11 GMT 46.862732 13.453965 32,950 141 509 0
2019-10-12 20:14:08 GMT 46.869690 13.445824 32,950 141 509 0
2019-10-12 20:14:05 GMT 46.873352 13.441498 32,950 140 508 0
2019-10-12 20:14:02 GMT 46.881176 13.432195 32,950 140 508 0
2019-10-12 20:13:59 GMT 46.885784 13.426842 32,950 141 509 0
2019-10-12 20:13:55 GMT 46.892349 13.419044 32,950 141 509 0
2019-10-12 20:13:52 GMT 46.897659 13.412796 32,950 140 508 0
2019-10-12 20:13:49 GMT 46.904572 13.404625 32,950 140 508 0
2019-10-12 20:13:45 GMT 46.911343 13.396630 32,950 140 508 0
2019-10-12 20:13:42 GMT 46.918442 13.388214 32,950 140 508 0
2019-10-12 20:13:39 GMT 46.921955 13.384094 32,950 140 508 0
2019-10-12 20:13:36 GMT 46.927589 13.377404 32,950 140 508 0
2019-10-12 20:13:33 GMT 46.932541 13.371597 32,950 140 508 0
2019-10-12 20:13:30 GMT 46.943481 13.358688 32,950 140 508 0
2019-10-12 20:13:24 GMT 46.950584 13.350220 32,950 140 508 0
2019-10-12 20:13:18 GMT 46.960648 13.338364 32,950 140 508 0
2019-10-12 20:13:14 GMT 46.967010 13.330811 32,950 140 508 0
2019-10-12 20:13:11 GMT 46.972466 13.324303 32,950 140 508 0
2019-10-12 20:13:07 GMT 46.979233 13.316322 32,950 140 508 0
2019-10-12 20:13:04 GMT 46.985405 13.308951 32,950 140 507 0
2019-10-12 20:13:00 GMT 46.992920 13.300117 32,950 140 507 0
2019-10-12 20:12:56 GMT 46.999832 13.291878 32,950 140 507 0
2019-10-12 20:12:53 GMT 47.005463 13.285217 32,950 140 507 0
2019-10-12 20:12:50 GMT 47.012920 13.276344 32,950 140 507 0
2019-10-12 20:12:47 GMT 47.022415 13.265076 32,950 140 508 64
2019-10-12 20:12:44 GMT 47.022415 13.265076 32,950 140 508 0
2019-10-12 20:12:41 GMT 47.027676 13.258808 32,950 140 507 0
2019-10-12 20:12:37 GMT 47.036942 13.247751 32,950 140 507 0
2019-10-12 20:12:31 GMT 47.046066 13.236946 32,950 140 507 0
2019-10-12 20:12:26 GMT 47.053886 13.227609 32,950 140 507 0
2019-10-12 20:12:23 GMT 47.060822 13.219440 32,950 140 507 64
2019-10-12 20:12:20 GMT 47.066986 13.212021 32,950 140 507 64
2019-10-12 20:12:14 GMT 47.075912 13.201447 32,950 140 508 64
2019-10-12 20:12:10 GMT 47.084473 13.191216 32,950 140 508 64
2019-10-12 20:12:07 GMT 47.090836 13.183662 32,950 140 508 -64
2019-10-12 20:12:04 GMT 47.094452 13.179337 32,950 140 508 0
2019-10-12 20:12:00 GMT 47.104115 13.167819 32,950 140 507 -64
2019-10-12 20:11:55 GMT 47.112446 13.157889 32,950 140 507 0
2019-10-12 20:11:49 GMT 47.121185 13.147476 32,950 140 507 0
2019-10-12 20:11:46 GMT 47.127548 13.139854 32,950 140 507 64
2019-10-12 20:11:43 GMT 47.132977 13.133381 32,950 140 507 64
2019-10-12 20:11:39 GMT 47.141171 13.123591 32,950 140 506 0
2019-10-12 20:11:35 GMT 47.148060 13.115352 32,950 140 506 0
2019-10-12 20:11:32 GMT 47.154949 13.107112 32,950 140 506 0
2019-10-12 20:11:27 GMT 47.162384 13.098175 32,950 140 507 64
2019-10-12 20:11:23 GMT 47.168591 13.090844 32,950 140 507 0
2019-10-12 20:11:20 GMT 47.174549 13.083660 32,950 140 506 0
2019-10-12 20:11:16 GMT 47.182526 13.074074 32,950 140 507 0
2019-10-12 20:11:13 GMT 47.187443 13.068237 32,950 140 507 0
2019-10-12 20:11:09 GMT 47.195961 13.057955 32,950 140 507 64
2019-10-12 20:11:05 GMT 47.202301 13.050385 32,950 140 507 0
2019-10-12 20:11:02 GMT 47.208664 13.042763 32,950 140 507 64
2019-10-12 20:10:59 GMT 47.211548 13.039261 32,950 140 507 0
2019-10-12 20:10:56 GMT 47.217701 13.031898 32,950 140 507 0
2019-10-12 20:10:53 GMT 47.228268 13.019292 32,950 140 507 0
2019-10-12 20:10:46 GMT 47.236588 13.009254 32,950 140 507 0
2019-10-12 20:10:43 GMT 47.247124 12.996615 32,950 140 507 0
2019-10-12 20:10:36 GMT 47.253639 12.988798 32,950 140 507 0
2019-10-12 20:10:33 GMT 47.267235 12.972459 32,950 140 507 0
2019-10-12 20:10:30 GMT 47.267235 12.972459 32,950 140 507 0
2019-10-12 20:10:25 GMT 47.274681 12.963515 32,950 140 507 64
2019-10-12 20:10:21 GMT 47.282642 12.953867 32,950 140 507 64
2019-10-12 20:10:18 GMT 47.286274 12.949500 32,950 140 507 0
2019-10-12 20:10:15 GMT 47.294235 12.939923 32,950 140 507 0
2019-10-12 20:10:12 GMT 47.298935 12.934204 32,950 140 507 64
2019-10-12 20:10:07 GMT 47.307129 12.924359 32,950 140 507 64
2019-10-12 20:10:04 GMT 47.313812 12.916283 32,950 140 507 0
2019-10-12 20:10:01 GMT 47.320164 12.908654 32,950 140 507 0
2019-10-12 20:09:58 GMT 47.323608 12.904472 32,950 140 507 -64
2019-10-12 20:09:55 GMT 47.328869 12.898160 32,950 140 507 -64
2019-10-12 20:09:52 GMT 47.334824 12.890945 32,950 140 507 -64
2019-10-12 20:09:49 GMT 47.340599 12.883935 32,950 140 507 64
2019-10-12 20:09:45 GMT 47.346039 12.877350 32,950 140 507 0
2019-10-12 20:09:41 GMT 47.354378 12.867314 32,950 140 507 64
2019-10-12 20:09:38 GMT 47.360710 12.859638 32,950 140 506 0
2019-10-12 20:09:35 GMT 47.365402 12.853935 32,950 140 507 0
2019-10-12 20:09:32 GMT 47.372086 12.845833 32,950 140 507 0
2019-10-12 20:09:29 GMT 47.377350 12.839516 32,950 140 506 0
2019-10-12 20:09:25 GMT 47.385288 12.829848 32,950 140 507 0
2019-10-12 20:09:22 GMT 47.388199 12.826332 32,950 140 507 0
2019-10-12 20:09:19 GMT 47.400841 12.811045 32,950 140 506 0
2019-10-12 20:09:16 GMT 47.400841 12.811045 32,950 140 506 0
2019-10-12 20:09:12 GMT 47.406647 12.804016 32,950 140 506 0
2019-10-12 20:09:09 GMT 47.416397 12.792206 32,950 140 506 0
2019-10-12 20:09:06 GMT 47.422905 12.784283 32,950 140 506 0
2019-10-12 20:09:03 GMT 47.422905 12.784283 32,950 140 506 0
2019-10-12 20:09:00 GMT 47.428677 12.777311 32,950 140 506 0
2019-10-12 20:08:57 GMT 47.434959 12.769635 32,950 140 506 0
2019-10-12 20:08:54 GMT 47.438965 12.764775 32,950 140 506 0
2019-10-12 20:08:50 GMT 47.446884 12.755127 32,950 140 506 0
2019-10-12 20:08:47 GMT 47.451233 12.749840 32,950 140 506 0
2019-10-12 20:08:44 GMT 47.458237 12.741324 32,950 140 506 0
2019-10-12 20:08:39 GMT 47.473927 12.722238 32,950 140 505 0
2019-10-12 20:08:36 GMT 47.473927 12.722238 32,950 140 505 0
2019-10-12 20:08:32 GMT 47.479187 12.715830 32,950 140 506 0
2019-10-12 20:08:29 GMT 47.484772 12.708998 32,950 140 506 0
2019-10-12 20:08:26 GMT 47.490875 12.701569 32,950 140 506 0
2019-10-12 20:08:22 GMT 47.497204 12.693857 32,950 140 506 0
2019-10-12 20:08:19 GMT 47.502789 12.687026 32,950 140 506 0
2019-10-12 20:08:16 GMT 47.507263 12.681519 32,950 140 506 0
2019-10-12 20:08:13 GMT 47.515171 12.671884 32,950 140 505 0
2019-10-12 20:08:10 GMT 47.518066 12.668335 32,950 140 504 0
2019-10-12 20:08:07 GMT 47.525253 12.659546 32,950 140 504 0
2019-10-12 20:08:04 GMT 47.528870 12.655151 32,950 140 504 0
2019-10-12 20:08:01 GMT 47.534775 12.647873 32,950 140 504 0
2019-10-12 20:07:58 GMT 47.540169 12.641320 32,950 140 504 0
2019-10-12 20:07:55 GMT 47.544479 12.635994 32,950 140 504 0
2019-10-12 20:07:52 GMT 47.549850 12.629418 32,950 140 504 0
2019-10-12 20:07:49 GMT 47.556519 12.621300 32,950 140 504 0
2019-10-12 20:07:46 GMT 47.561024 12.615826 32,950 140 504 0
2019-10-12 20:07:43 GMT 47.566772 12.608803 32,950 140 504 64
2019-10-12 20:07:40 GMT 47.572861 12.601318 32,950 140 504 0
2019-10-12 20:07:37 GMT 47.577164 12.596031 32,950 140 504 0
2019-10-12 20:07:34 GMT 47.583984 12.587723 32,950 140 504 0
2019-10-12 20:07:31 GMT 47.588631 12.582022 32,950 140 504 0
2019-10-12 20:07:28 GMT 47.595242 12.573853 32,950 140 504 0
2019-10-12 20:07:25 GMT 47.605667 12.561176 32,950 140 503 0
2019-10-12 20:07:21 GMT 47.605667 12.561176 32,950 140 501 0
2019-10-12 20:07:18 GMT 47.617447 12.546661 32,950 140 502 0
2019-10-12 20:07:15 GMT 47.617447 12.546661 32,950 140 502 0
2019-10-12 20:07:10 GMT 47.626244 12.535893 32,950 140 502 64
2019-10-12 20:07:07 GMT 47.632507 12.528259 32,950 140 502 0
2019-10-12 20:07:04 GMT 47.637138 12.522583 32,950 140 502 0
2019-10-12 20:07:01 GMT 47.643219 12.515144 32,950 140 502 0
2019-10-12 20:06:58 GMT 47.648438 12.508759 32,950 140 502 0
2019-10-12 20:06:54 GMT 47.655212 12.500450 32,950 140 502 0
2019-10-12 20:06:50 GMT 47.661850 12.492348 32,950 140 502 0
2019-10-12 20:06:46 GMT 47.670227 12.482048 32,950 140 502 64
2019-10-12 20:06:43 GMT 47.679337 12.470856 32,950 140 502 64
2019-10-12 20:06:40 GMT 47.679337 12.470856 32,950 140 502 64
2019-10-12 20:06:37 GMT 47.685425 12.463440 32,950 140 502 64
2019-10-12 20:06:33 GMT 47.694721 12.452087 32,950 140 502 0
2019-10-12 20:06:29 GMT 47.700119 12.445518 32,950 140 501 0
2019-10-12 20:06:25 GMT 47.706177 12.438073 32,950 140 501 0
2019-10-12 20:06:22 GMT 47.712067 12.430893 32,950 140 501 0
2019-10-12 20:06:18 GMT 47.719070 12.422379 32,950 140 501 0
2019-10-12 20:06:14 GMT 47.727127 12.412560 32,950 140 501 0
2019-10-12 20:06:10 GMT 47.733734 12.404480 32,950 140 501 0
2019-10-12 20:06:07 GMT 47.739441 12.397522 32,950 140 501 0
2019-10-12 20:06:04 GMT 47.744255 12.391592 32,950 140 500 64
2019-10-12 20:06:01 GMT 47.749607 12.385043 32,950 140 500 64
2019-10-12 20:05:58 GMT 47.753723 12.380081 32,950 140 500 64
2019-10-12 20:05:55 GMT 47.760128 12.372225 32,950 140 499 0
2019-10-12 20:05:52 GMT 47.771675 12.357999 32,950 140 500 -64
2019-10-12 20:05:46 GMT 47.777538 12.350746 32,950 140 499 0
2019-10-12 20:05:42 GMT 47.789085 12.336449 32,950 140 499 0
2019-10-12 20:05:39 GMT 47.793694 12.330745 32,950 140 499 0
2019-10-12 20:05:36 GMT 47.793694 12.330745 32,950 140 499 0
2019-10-12 20:05:33 GMT 47.799187 12.323984 32,950 140 499 0
2019-10-12 20:05:30 GMT 47.806496 12.315040 32,950 140 499 0
2019-10-12 20:05:27 GMT 47.810211 12.310387 32,950 140 499 0
2019-10-12 20:05:22 GMT 47.821068 12.297082 32,950 140 499 0
2019-10-12 20:05:19 GMT 47.824768 12.292465 32,950 140 499 64
2019-10-12 20:05:16 GMT 47.831543 12.284157 32,950 140 499 64
2019-10-12 20:05:13 GMT 47.835068 12.279762 32,950 140 499 64
2019-10-12 20:05:10 GMT 47.845367 12.267080 32,950 140 499 64
2019-10-12 20:05:07 GMT 47.845367 12.267080 32,950 140 499 -64
2019-10-12 20:05:04 GMT 47.858322 12.251129 32,950 140 499 64
2019-10-12 20:05:00 GMT 47.858322 12.251129 32,950 140 499 64
2019-10-12 20:04:57 GMT 47.868439 12.238632 32,950 140 499 0
2019-10-12 20:04:54 GMT 47.868439 12.238632 32,950 139 500 0
2019-10-12 20:04:50 GMT 47.881210 12.222839 32,950 140 499 0
2019-10-12 20:04:47 GMT 47.886703 12.216042 32,950 140 499 0
2019-10-12 20:04:41 GMT 47.892010 12.209473 32,950 140 499 0
2019-10-12 20:04:38 GMT 47.896622 12.203698 32,950 139 500 0
2019-10-12 20:04:35 GMT 47.901215 12.197983 32,950 138 500 0
2019-10-12 20:04:32 GMT 47.908585 12.188644 32,950 138 500 0
2019-10-12 20:04:29 GMT 47.914536 12.180954 32,950 138 500 0
2019-10-12 20:04:26 GMT 47.924881 12.167221 32,950 137 501 0
2019-10-12 20:04:22 GMT 47.924881 12.167221 32,950 137 501 64
2019-10-12 20:04:19 GMT 47.931747 12.157951 32,950 137 501 0
2019-10-12 20:04:16 GMT 47.935307 12.153062 32,950 137 501 0
2019-10-12 20:04:13 GMT 47.940445 12.146072 32,950 137 501 0
2019-10-12 20:04:10 GMT 47.945919 12.138625 32,950 137 501 0
2019-10-12 20:04:07 GMT 47.949509 12.133713 32,950 137 501 0
2019-10-12 20:04:04 GMT 47.955322 12.125808 32,950 137 501 0
2019-10-12 20:04:01 GMT 47.960629 12.118624 32,950 137 501 0
2019-10-12 20:03:58 GMT 47.966774 12.110173 32,950 137 501 0
2019-10-12 20:03:55 GMT 47.971756 12.103412 32,950 137 501 0
2019-10-12 20:03:49 GMT 47.980831 12.091088 32,950 137 501 0
2019-10-12 20:03:46 GMT 47.986465 12.083412 32,950 137 502 0
2019-10-12 20:03:43 GMT 47.991074 12.077073 32,950 137 503 64
2019-10-12 20:03:39 GMT 47.999634 12.065392 32,950 137 503 0
2019-10-12 20:03:35 GMT 48.004944 12.058182 32,950 137 503 0
2019-10-12 20:03:32 GMT 48.011810 12.048775 32,950 137 503 0
2019-10-12 20:03:29 GMT 48.015373 12.043903 32,950 137 503 64
2019-10-12 20:03:26 GMT 48.020187 12.037308 32,950 137 503 64
2019-10-12 20:03:23 GMT 48.025497 12.030098 32,950 137 503 64
2019-10-12 20:03:19 GMT 48.032867 12.020004 32,950 137 503 0
2019-10-12 20:03:16 GMT 48.042423 12.006859 32,950 137 503 0
2019-10-12 20:03:10 GMT 48.052551 11.992950 32,950 137 503 -64
2019-10-12 20:03:07 GMT 48.057365 11.986366 32,950 137 504 0
2019-10-12 20:03:04 GMT 48.057365 11.986366 32,950 137 504 0
2019-10-12 20:03:01 GMT 48.068665 11.970840 32,950 137 505 0
2019-10-12 20:02:58 GMT 48.068665 11.970840 32,950 137 505 0
2019-10-12 20:02:55 GMT 48.074982 11.962051 32,950 137 505 0
2019-10-12 20:02:52 GMT 48.086105 11.946602 32,950 137 506 0
2019-10-12 20:02:48 GMT 48.086105 11.946602 32,950 137 506 0
2019-10-12 20:02:45 GMT 48.096188 11.932631 32,950 137 506 0
2019-10-12 20:02:38 GMT 48.102894 11.923335 32,975 137 506 -64
2019-10-12 20:02:35 GMT 48.114212 11.907669 32,975 137 506 0
2019-10-12 20:02:32 GMT 48.114212 11.907669 32,975 137 506 0
2019-10-12 20:02:28 GMT 48.121841 11.897348 32,975 137 506 64
2019-10-12 20:02:24 GMT 48.132500 11.882629 32,950 136 507 64
2019-10-12 20:02:18 GMT 48.141769 11.868668 32,975 133 509 0
2019-10-12 20:02:15 GMT 48.145798 11.862213 32,950 127 514 64
2019-10-12 20:02:12 GMT 48.152206 11.850952 32,950 131 511 64
2019-10-12 20:02:09 GMT 48.152206 11.850952 32,950 128 513 64
2019-10-12 20:02:05 GMT 48.160477 11.834877 32,950 125 514 64
2019-10-12 20:01:59 GMT 48.166031 11.822909 32,950 122 517 64
2019-10-12 20:01:56 GMT 48.169231 11.815362 32,950 113 522 64
2019-10-12 20:01:53 GMT 48.173698 11.804304 32,950 120 518 64
2019-10-12 20:01:48 GMT 48.178726 11.790426 32,950 116 521 64
2019-10-12 20:01:45 GMT 48.183197 11.776851 32,950 110 525 -192
2019-10-12 20:01:42 GMT 48.185074 11.770583 32,950 113 522 64
2019-10-12 20:01:39 GMT 48.188084 11.759563 32,950 111 525 -128
2019-10-12 20:01:36 GMT 48.190411 11.750022 32,950 105 528 0
2019-10-12 20:01:33 GMT 48.192692 11.739614 32,975 104 528 64
2019-10-12 20:01:30 GMT 48.194962 11.727694 32,950 104 528 64
2019-10-12 20:01:27 GMT 48.196510 11.718870 32,950 104 528 64
2019-10-12 20:01:24 GMT 48.198746 11.705354 32,950 103 529 0
2019-10-12 20:01:21 GMT 48.200821 11.692904 32,950 103 530 0
2019-10-12 20:01:18 GMT 48.201965 11.685791 32,950 103 530 0
2019-10-12 20:01:15 GMT 48.204163 11.672622 32,950 103 530 0
2019-10-12 20:01:11 GMT 48.206497 11.658396 32,950 103 530 0
2019-10-12 20:01:07 GMT 48.208336 11.647387 32,950 103 530 0
2019-10-12 20:01:04 GMT 48.210022 11.637057 32,950 103 531 0
2019-10-12 20:01:01 GMT 48.213959 11.613183 32,950 103 531 0
2019-10-12 20:00:58 GMT 48.213959 11.613183 32,950 103 531 0
2019-10-12 20:00:54 GMT 48.216015 11.600695 32,950 103 531 0
2019-10-12 20:00:51 GMT 48.217484 11.591773 32,975 103 531 0
2019-10-12 20:00:48 GMT 48.219681 11.578252 32,950 103 531 64
2019-10-12 20:00:45 GMT 48.221512 11.567195 32,950 103 531 64
2019-10-12 20:00:42 GMT 48.223045 11.557906 32,950 103 531 0
2019-10-12 20:00:39 GMT 48.224533 11.548955 32,950 103 531 0
2019-10-12 20:00:36 GMT 48.226582 11.536440 32,950 103 531 0
2019-10-12 20:00:33 GMT 48.228378 11.525785 32,950 103 532 0
2019-10-12 20:00:30 GMT 48.229980 11.516137 32,950 104 532 0
2019-10-12 20:00:27 GMT 48.231720 11.505784 32,975 104 532 0
2019-10-12 20:00:24 GMT 48.233704 11.494012 32,975 104 532 0
2019-10-12 20:00:21 GMT 48.235291 11.484375 32,975 104 532 0
2019-10-12 20:00:18 GMT 48.237808 11.469374 32,950 104 532 128
2019-10-12 20:00:15 GMT 48.239571 11.458668 32,975 103 532 64
2019-10-12 20:00:11 GMT 48.241241 11.448599 32,975 103 533 0
2019-10-12 20:00:08 GMT 48.244812 11.426415 32,975 115 526 0
2019-10-12 20:00:05 GMT 48.244812 11.426415 32,950 103 533 128
2019-10-12 20:00:02 GMT 48.246872 11.413527 32,950 104 532 64
2019-10-12 19:59:59 GMT 48.248508 11.404242 32,950 106 530 64
2019-10-12 19:59:56 GMT 48.250462 11.394051 32,950 107 531 64
2019-10-12 19:59:53 GMT 48.252514 11.384221 32,950 108 530 0
2019-10-12 19:59:50 GMT 48.255257 11.372440 32,950 110 529 0
2019-10-12 19:59:47 GMT 48.257858 11.362187 32,950 132 515 0
2019-10-12 19:59:44 GMT 48.260605 11.352398 32,950 113 527 0
2019-10-12 19:59:41 GMT 48.264633 11.339158 32,950 116 526 0
2019-10-12 19:59:37 GMT 48.268757 11.326760 32,950 116 525 0
2019-10-12 19:59:33 GMT 48.272621 11.315918 32,950 120 523 64
2019-10-12 19:59:30 GMT 48.276020 11.307100 32,950 123 521 64
2019-10-12 19:59:27 GMT 48.279785 11.297819 32,950 122 522 64
2019-10-12 19:59:24 GMT 48.284027 11.288163 32,925 124 521 0
2019-10-12 19:59:21 GMT 48.288124 11.279273 32,925 125 520 -64
2019-10-12 19:59:18 GMT 48.293015 11.269508 32,950 128 519 -192
2019-10-12 19:59:15 GMT 48.296127 11.263592 32,950 131 516 -128
2019-10-12 19:59:12 GMT 48.301205 11.254554 32,950 131 516 -128
2019-10-12 19:59:09 GMT 48.306015 11.246549 32,950 133 515 0
2019-10-12 19:59:06 GMT 48.310886 11.238797 32,950 134 514 0
2019-10-12 19:59:03 GMT 48.314987 11.232323 32,950 134 514 0
2019-10-12 19:59:00 GMT 48.320152 11.224413 32,950 134 514 0
2019-10-12 19:58:57 GMT 48.326763 11.214222 32,950 134 515 64
2019-10-12 19:58:54 GMT 48.330906 11.207789 32,950 134 515 0
2019-10-12 19:58:51 GMT 48.335541 11.200632 32,950 134 515 64
2019-10-12 19:58:48 GMT 48.341354 11.191688 32,950 134 515 0
2019-10-12 19:58:45 GMT 48.352272 11.174758 32,950 134 515 64
2019-10-12 19:58:42 GMT 48.352272 11.174758 32,950 134 515 64
2019-10-12 19:58:39 GMT 48.354584 11.171194 32,950 134 515 64
2019-10-12 19:58:36 GMT 48.360901 11.161405 32,950 134 515 0
2019-10-12 19:58:32 GMT 48.368053 11.150328 32,950 133 515 0
2019-10-12 19:58:29 GMT 48.372196 11.143967 32,950 134 516 0
2019-10-12 19:58:26 GMT 48.377831 11.135222 32,950 134 516 0
2019-10-12 19:58:23 GMT 48.381321 11.129801 32,950 134 516 -64
2019-10-12 19:58:20 GMT 48.387131 11.120840 32,900 134 516 64
2019-10-12 19:58:17 GMT 48.390633 11.115417 32,975 134 516 -128
2019-10-12 19:58:14 GMT 48.403427 11.095628 32,850 134 516 256
2019-10-12 19:58:10 GMT 48.403427 11.095628 32,975 134 516 192
2019-10-12 19:58:07 GMT 48.408554 11.087670 32,800 133 515 1024
2019-10-12 19:58:03 GMT 48.415863 11.076315 32,900 134 516 704
2019-10-12 19:58:00 GMT 48.420135 11.069641 32,875 133 515 832
2019-10-12 19:57:57 GMT 48.426132 11.060415 32,850 133 515 960
2019-10-12 19:57:54 GMT 48.429920 11.054487 32,750 133 515 1216
2019-10-12 19:57:51 GMT 48.436020 11.044922 32,750 133 515 1344
2019-10-12 19:57:48 GMT 48.441841 11.035911 32,625 133 516 1664
2019-10-12 19:57:45 GMT 48.444305 11.032080 32,575 133 516 1728
2019-10-12 19:57:42 GMT 48.450916 11.021745 32,425 133 518 1728
2019-10-12 19:57:39 GMT 48.455200 11.014991 32,400 133 518 1728
2019-10-12 19:57:36 GMT 48.466324 10.997596 32,300 133 519 1600
2019-10-12 19:57:33 GMT 48.466324 10.997596 32,225 133 519 1536
2019-10-12 19:57:29 GMT 48.471771 10.989002 32,125 133 519 1408
2019-10-12 19:57:26 GMT 48.476566 10.981413 32,050 133 520 1344
2019-10-12 19:57:23 GMT 48.480385 10.975342 32,000 133 521 1344
2019-10-12 19:57:20 GMT 48.491959 10.956890 31,900 133 520 1344
2019-10-12 19:57:16 GMT 48.497051 10.948743 31,850 133 522 1344
2019-10-12 19:57:13 GMT 48.497051 10.948743 31,800 133 522 1408
2019-10-12 19:57:10 GMT 48.504181 10.937383 31,700 133 522 1408
2019-10-12 19:57:07 GMT 48.506641 10.933420 31,650 133 521 1472
2019-10-12 19:57:04 GMT 48.518509 10.914354 31,525 133 522 1536
2019-10-12 19:57:01 GMT 48.518509 10.914354 31,475 133 522 1536
2019-10-12 19:56:58 GMT 48.524143 10.905376 30,925 133 522 1600
2019-10-12 19:56:55 GMT 48.527298 10.900339 31,225 133 522 1600
2019-10-12 19:56:52 GMT 48.532562 10.891888 29,425 133 526 1600
2019-10-12 19:56:49 GMT 48.539505 10.880657 31,200 133 523 1600
2019-10-12 19:56:46 GMT 48.542999 10.875127 31,075 133 524 1536
2019-10-12 19:56:43 GMT 48.553757 10.857873 30,975 133 524 1344
2019-10-12 19:56:39 GMT 48.553757 10.857873 30,925 132 523 1280
2019-10-12 19:56:36 GMT 48.559570 10.848576 30,875 133 524 1216
2019-10-12 19:56:33 GMT 48.564411 10.840904 30,825 133 524 1216
2019-10-12 19:56:30 GMT 48.569550 10.832660 30,725 132 523 1472
2019-10-12 19:56:27 GMT 48.573025 10.827099 30,525 133 525 1664
2019-10-12 19:56:24 GMT 48.580521 10.815173 30,625 133 524 1728
2019-10-12 19:56:20 GMT 48.585068 10.808012 30,550 133 524 1792
2019-10-12 19:56:17 GMT 48.591225 10.798260 30,400 133 525 1600
2019-10-12 19:56:14 GMT 48.594406 10.793222 30,350 133 525 1536
2019-10-12 19:56:11 GMT 48.601776 10.781532 30,250 133 525 1280
2019-10-12 19:56:06 GMT 48.609283 10.769559 30,150 133 526 1280
2019-10-12 19:56:03 GMT 48.614967 10.760530 30,100 133 526 1344
2019-10-12 19:56:00 GMT 48.619812 10.752798 29,925 133 526 1600
2019-10-12 19:55:57 GMT 48.624512 10.745352 29,950 133 526 1664
2019-10-12 19:55:53 GMT 48.631531 10.734206 29,825 133 526 1664
2019-10-12 19:55:50 GMT 48.636520 10.726178 29,300 133 526 1600
2019-10-12 19:55:45 GMT 48.643890 10.714487 29,450 133 527 1344
2019-10-12 19:55:42 GMT 48.648605 10.707022 29,550 133 527 1280
2019-10-12 19:55:39 GMT 48.655281 10.696347 29,500 133 527 1280
2019-10-12 19:55:36 GMT 48.660645 10.687796 29,425 133 527 1280
2019-10-12 19:55:33 GMT 48.664993 10.680824 29,300 133 527 1344
2019-10-12 19:55:30 GMT 48.670029 10.672866 29,300 133 527 1280
2019-10-12 19:55:27 GMT 48.674183 10.666207 29,175 133 526 1216
2019-10-12 19:55:24 GMT 48.679398 10.657895 29,225 133 526 1216
2019-10-12 19:55:21 GMT 48.684891 10.649149 28,750 133 525 1344
2019-10-12 19:55:18 GMT 48.691078 10.639247 29,050 133 525 1280
2019-10-12 19:55:15 GMT 48.695084 10.632886 29,000 133 525 1280
2019-10-12 19:55:12 GMT 48.700562 10.624061 28,925 133 525 1280
2019-10-12 19:55:09 GMT 48.704590 10.617652 28,750 133 524 1408
2019-10-12 19:55:06 GMT 48.708912 10.610769 28,675 133 524 1408
2019-10-12 19:55:03 GMT 48.714752 10.601455 28,675 133 524 1536
2019-10-12 19:55:00 GMT 48.719421 10.593989 28,325 133 524 1536
2019-10-12 19:54:56 GMT 48.726925 10.582002 28,525 133 524 1536
2019-10-12 19:54:53 GMT 48.738556 10.563425 28,450 133 524 1536
2019-10-12 19:54:49 GMT 48.738556 10.563425 28,400 133 524 1536
2019-10-12 19:54:46 GMT 48.743088 10.556242 28,100 133 524 1536
2019-10-12 19:54:43 GMT 48.748215 10.548002 28,225 133 524 1536
2019-10-12 19:54:40 GMT 48.761215 10.527226 27,850 133 524 1280
2019-10-12 19:54:36 GMT 48.761215 10.527226 28,025 133 524 1280
2019-10-12 19:54:33 GMT 48.765747 10.520043 27,975 133 524 1216
2019-10-12 19:54:30 GMT 48.772202 10.509620 27,925 133 524 1216
2019-10-12 19:54:27 GMT 48.774734 10.505676 27,825 133 524 1280
2019-10-12 19:54:24 GMT 48.778877 10.499027 27,825 133 522 1536
2019-10-12 19:54:21 GMT 48.785660 10.488140 27,725 133 522 1664
2019-10-12 19:54:18 GMT 48.789001 10.482788 27,550 133 522 1792
2019-10-12 19:54:14 GMT 48.795685 10.472284 27,550 135 520 1472
2019-10-12 19:54:09 GMT 48.804932 10.457787 27,450 134 522 1536
2019-10-12 19:54:05 GMT 48.811512 10.447637 27,325 134 521 1152
2019-10-12 19:54:02 GMT 48.817429 10.438561 27,250 135 520 1344
2019-10-12 19:53:59 GMT 48.822693 10.430533 27,200 135 520 1344
2019-10-12 19:53:54 GMT 48.835327 10.411518 27,050 135 519 1536
2019-10-12 19:53:51 GMT 48.835327 10.411518 27,000 136 518 1600
2019-10-12 19:53:48 GMT 48.840096 10.404414 26,975 135 519 1536
2019-10-12 19:53:45 GMT 48.844936 10.397331 26,650 136 517 1216
2019-10-12 19:53:41 GMT 48.852676 10.385953 26,700 136 519 1472
2019-10-12 19:53:37 GMT 48.866257 10.366468 26,650 136 517 960
2019-10-12 19:53:33 GMT 48.866257 10.366468 26,575 137 515 1088
2019-10-12 19:53:30 GMT 48.871307 10.359333 26,550 137 515 1088
2019-10-12 19:53:27 GMT 48.877075 10.351234 26,550 137 515 1088
2019-10-12 19:53:24 GMT 48.883347 10.342431 26,450 137 514 1280
2019-10-12 19:53:21 GMT 48.888416 10.335316 26,325 137 514 1472
2019-10-12 19:53:16 GMT 48.897354 10.322853 26,275 137 514 1536
2019-10-12 19:53:12 GMT 48.902756 10.315317 26,200 137 513 1216
2019-10-12 19:53:08 GMT 48.910080 10.305035 26,125 137 513 1088
2019-10-12 19:53:05 GMT 48.921387 10.289260 26,025 137 510 960
2019-10-12 19:53:02 GMT 48.921387 10.289260 26,000 137 510 960
2019-10-12 19:52:59 GMT 48.926586 10.281974 25,925 137 510 1152
2019-10-12 19:52:53 GMT 48.942368 10.259929 25,825 137 508 1408
2019-10-12 19:52:50 GMT 48.942368 10.259929 25,775 137 508 1408
2019-10-12 19:52:46 GMT 48.948944 10.250808 25,450 137 508 1344
2019-10-12 19:52:41 GMT 48.960663 10.234398 25,525 137 506 1280
2019-10-12 19:52:35 GMT 48.967209 10.225243 25,450 137 505 1280
2019-10-12 19:52:30 GMT 48.980263 10.206949 25,300 137 504 1472
2019-10-12 19:52:27 GMT 48.980263 10.206949 25,275 137 504 1408
2019-10-12 19:52:24 GMT 48.985565 10.199538 25,225 137 504 1472
2019-10-12 19:52:21 GMT 48.992599 10.189747 25,125 137 503 1664
2019-10-12 19:52:18 GMT 48.995865 10.185171 25,075 137 503 1408
2019-10-12 19:52:14 GMT 49.002514 10.175797 24,900 137 501 1344
2019-10-12 19:52:10 GMT 49.010708 10.164305 24,875 137 501 1408
2019-10-12 19:52:07 GMT 49.020218 10.150945 24,775 137 501 1472
2019-10-12 19:52:04 GMT 49.020218 10.150945 24,750 137 500 1536
2019-10-12 19:52:01 GMT 49.024487 10.145007 24,700 137 500 1600
2019-10-12 19:51:58 GMT 49.030399 10.136622 24,300 135 485 1728
2019-10-12 19:51:55 GMT 49.036652 10.127775 24,450 136 499 1728
2019-10-12 19:51:49 GMT 49.045341 10.115228 24,250 136 499 1728
2019-10-12 19:51:46 GMT 49.055119 10.100772 24,150 135 496 1600
2019-10-12 19:51:43 GMT 49.055119 10.100772 24,100 135 498 1536
2019-10-12 19:51:39 GMT 49.067410 10.082341 24,075 135 498 1536
2019-10-12 19:51:36 GMT 49.067410 10.082341 24,000 135 497 1600
2019-10-12 19:51:32 GMT 49.073135 10.073759 23,625 135 496 1664
2019-10-12 19:51:28 GMT 49.080460 10.062702 23,775 135 495 1728
2019-10-12 19:51:25 GMT 49.089111 10.049744 23,625 135 487 1920
2019-10-12 19:51:19 GMT 49.094467 10.041645 23,475 135 493 1536
2019-10-12 19:51:16 GMT 49.098862 10.035025 23,425 135 493 1536
2019-10-12 19:51:13 GMT 49.104355 10.026715 23,400 135 493 1536
2019-10-12 19:51:10 GMT 49.107788 10.021644 23,225 135 492 1600
2019-10-12 19:51:07 GMT 49.114426 10.011644 23,225 135 492 1600
2019-10-12 19:51:04 GMT 49.120060 10.003124 23,100 135 490 1600
2019-10-12 19:51:01 GMT 49.122803 9.998967 23,025 135 490 1600
2019-10-12 19:50:58 GMT 49.128937 9.989741 22,950 135 490 1664
2019-10-12 19:50:55 GMT 49.132816 9.983898 22,950 135 490 1664
2019-10-12 19:50:52 GMT 49.139706 9.973490 22,750 135 487 1920
2019-10-12 19:50:49 GMT 49.147110 9.962346 22,625 135 488 1856
2019-10-12 19:50:46 GMT 49.147110 9.962346 22,625 135 487 1920
2019-10-12 19:50:43 GMT 49.152374 9.954388 22,525 135 487 1920
2019-10-12 19:50:40 GMT 49.156860 9.947557 22,525 135 487 1920
2019-10-12 19:50:37 GMT 49.161491 9.940531 22,275 135 487 1856
2019-10-12 19:50:34 GMT 49.166424 9.933086 22,350 135 487 1856
2019-10-12 19:50:30 GMT 49.173267 9.922606 22,175 135 486 1728
2019-10-12 19:50:26 GMT 49.184235 9.905935 22,050 135 485 1728
2019-10-12 19:50:23 GMT 49.184235 9.905935 21,950 134 484 1856
2019-10-12 19:50:19 GMT 49.190918 9.895794 21,450 136 459 2112
2019-10-12 19:50:16 GMT 49.196594 9.887132 21,775 135 483 1920
2019-10-12 19:50:10 GMT 49.208881 9.868325 21,575 134 482 1984
2019-10-12 19:50:04 GMT 49.213768 9.860808 21,400 134 481 1664
2019-10-12 19:50:01 GMT 49.219894 9.851426 20,450 134 481 1536
2019-10-12 19:49:58 GMT 49.224152 9.844979 21,300 134 481 1536
2019-10-12 19:49:55 GMT 49.228729 9.837975 20,850 134 474 1728
2019-10-12 19:49:51 GMT 49.234680 9.828890 20,875 134 477 1792
2019-10-12 19:49:48 GMT 49.239185 9.821994 20,975 135 478 1728
2019-10-12 19:49:45 GMT 49.244820 9.813393 20,950 134 477 1728
2019-10-12 19:49:42 GMT 49.249008 9.806988 20,850 134 473 1856
2019-10-12 19:49:39 GMT 49.254593 9.798396 20,750 134 475 1728
2019-10-12 19:49:36 GMT 49.258457 9.792432 20,600 134 475 1728
2019-10-12 19:49:33 GMT 49.262650 9.786001 20,600 134 473 1856
2019-10-12 19:49:28 GMT 49.269913 9.774869 20,450 134 473 1792
2019-10-12 19:49:25 GMT 49.276707 9.764461 20,275 134 471 1984
2019-10-12 19:49:18 GMT 49.285767 9.750437 19,975 134 471 1984
2019-10-12 19:49:15 GMT 49.294815 9.736489 19,900 134 470 1920
2019-10-12 19:49:12 GMT 49.294815 9.736489 19,900 134 470 1920
2019-10-12 19:49:09 GMT 49.300781 9.727337 19,825 134 469 1856
2019-10-12 19:49:06 GMT 49.304592 9.721455 19,650 134 468 1792
2019-10-12 19:49:03 GMT 49.310085 9.712998 19,625 135 468 1856
2019-10-12 19:49:00 GMT 49.312832 9.708806 19,575 135 467 1920
2019-10-12 19:48:57 GMT 49.317116 9.702301 19,500 135 466 2048
2019-10-12 19:48:54 GMT 49.323399 9.692833 19,325 135 465 2176
2019-10-12 19:48:51 GMT 49.328156 9.685645 17,275 135 451 2496
2019-10-12 19:48:48 GMT 49.332012 9.679967 19,150 135 464 2048
2019-10-12 19:48:45 GMT 49.343262 9.663321 18,775 136 461 1920
2019-10-12 19:48:38 GMT 49.347748 9.656766 18,850 136 461 1856
2019-10-12 19:48:34 GMT 49.358967 9.640286 18,650 136 459 2112
2019-10-12 19:48:31 GMT 49.358967 9.640286 18,475 135 457 2048
2019-10-12 19:48:25 GMT 49.371964 9.621136 18,350 135 457 2048
2019-10-12 19:48:22 GMT 49.371964 9.621136 18,200 135 457 2048
2019-10-12 19:48:18 GMT 49.376999 9.613741 18,225 135 457 2048
2019-10-12 19:48:15 GMT 49.381851 9.606558 17,950 135 454 2048
2019-10-12 19:48:12 GMT 49.388062 9.597353 17,925 136 455 2048
2019-10-12 19:48:09 GMT 49.393066 9.589938 17,850 135 453 2240
2019-10-12 19:48:06 GMT 49.395767 9.585923 17,825 135 454 2048
2019-10-12 19:48:03 GMT 49.400620 9.578740 17,750 136 454 2112
2019-10-12 19:48:00 GMT 49.406799 9.569655 17,425 135 452 2368
2019-10-12 19:47:56 GMT 49.410870 9.563599 17,300 135 449 1984
2019-10-12 19:47:52 GMT 49.417328 9.554021 17,275 135 444 2048
2019-10-12 19:47:48 GMT 49.423161 9.545384 17,125 135 451 2368
2019-10-12 19:47:43 GMT 49.430374 9.534722 16,600 135 450 2048
2019-10-12 19:47:39 GMT 49.436337 9.525815 16,700 135 449 1984
2019-10-12 19:47:33 GMT 49.445297 9.512570 16,250 135 446 2240
2019-10-12 19:47:29 GMT 49.451981 9.502668 16,450 135 446 2240
2019-10-12 19:47:25 GMT 49.458679 9.492781 16,300 135 445 2368
2019-10-12 19:47:21 GMT 49.463985 9.484839 16,175 135 445 2304
2019-10-12 19:47:18 GMT 49.467525 9.479568 16,100 135 445 2176
2019-10-12 19:47:14 GMT 49.473110 9.471254 15,775 135 442 2048
2019-10-12 19:47:11 GMT 49.479172 9.462264 15,800 135 442 2048
2019-10-12 19:47:08 GMT 49.482235 9.457670 15,375 135 439 2368
2019-10-12 19:47:02 GMT 49.491314 9.444234 15,125 135 426 2432
2019-10-12 19:46:58 GMT 49.497784 9.434658 15,200 135 439 2368
2019-10-12 19:46:53 GMT 49.508396 9.418772 14,875 135 437 2368
2019-10-12 19:46:50 GMT 49.508396 9.418772 14,875 135 437 2368
2019-10-12 19:46:46 GMT 49.514217 9.410161 14,900 135 437 2304
2019-10-12 19:46:43 GMT 49.519989 9.401476 14,750 135 436 2112
2019-10-12 19:46:39 GMT 49.523758 9.395913 14,675 135 435 2112
2019-10-12 19:46:36 GMT 49.528835 9.388337 14,550 135 434 2176
2019-10-12 19:46:33 GMT 49.540192 9.371412 14,150 135 429 2112
2019-10-12 19:46:28 GMT 49.540192 9.371412 13,175 135 423 2048
2019-10-12 19:46:25 GMT 49.548061 9.359609 14,125 135 430 2048
2019-10-12 19:46:18 GMT 49.553879 9.350883 13,900 135 427 2176
2019-10-12 19:46:15 GMT 49.558952 9.343204 13,825 135 427 2304
2019-10-12 19:46:12 GMT 49.563656 9.336003 13,675 135 425 2432
2019-10-12 19:46:09 GMT 49.568871 9.328432 13,575 135 426 2496
2019-10-12 19:46:06 GMT 49.571411 9.324574 13,325 135 425 2432
2019-10-12 19:46:03 GMT 49.576721 9.316551 13,350 135 425 2368
2019-10-12 19:46:00 GMT 49.579559 9.312359 13,175 135 423 2048
2019-10-12 19:45:56 GMT 49.586288 9.302240 13,100 135 422 2048
2019-10-12 19:45:50 GMT 49.593822 9.290945 12,775 135 420 2112
2019-10-12 19:45:46 GMT 49.604233 9.275280 12,650 135 418 1984
2019-10-12 19:45:42 GMT 49.604233 9.275280 12,600 135 416 1856
2019-10-12 19:45:39 GMT 49.608948 9.268197 12,400 135 416 1856
2019-10-12 19:45:35 GMT 49.614723 9.259545 12,425 135 415 1728
2019-10-12 19:45:31 GMT 49.619377 9.252493 12,300 135 412 1536
2019-10-12 19:45:27 GMT 49.625664 9.243065 11,775 135 397 1280
2019-10-12 19:45:24 GMT 49.633530 9.231262 12,150 135 409 1408
2019-10-12 19:45:21 GMT 49.633530 9.231262 12,100 135 407 1344
2019-10-12 19:45:17 GMT 49.640141 9.221389 11,975 135 403 1152
2019-10-12 19:45:11 GMT 49.647449 9.210403 11,900 135 399 1280
2019-10-12 19:45:07 GMT 49.653782 9.200901 11,825 135 399 1280
2019-10-12 19:45:04 GMT 49.661911 9.188762 11,725 135 391 1216
2019-10-12 19:45:00 GMT 49.661911 9.188762 11,600 135 391 1216
2019-10-12 19:44:56 GMT 49.667187 9.180784 11,325 135 371 1408
2019-10-12 19:44:53 GMT 49.670399 9.175959 11,500 135 385 1216
2019-10-12 19:44:50 GMT 49.676033 9.167571 11,400 135 382 1216
2019-10-12 19:44:47 GMT 49.678406 9.163934 11,425 135 382 1216
2019-10-12 19:44:44 GMT 49.682236 9.158261 11,375 135 376 1344
2019-10-12 19:44:41 GMT 49.689697 9.146986 11,200 135 374 1408
2019-10-12 19:44:38 GMT 49.689697 9.146986 11,225 135 369 1408
2019-10-12 19:44:34 GMT 49.694641 9.139541 11,100 135 371 1408
2019-10-12 19:44:31 GMT 49.698330 9.134018 11,075 135 369 1408
2019-10-12 19:44:28 GMT 49.702011 9.128554 10,500 135 364 1408
2019-10-12 19:44:25 GMT 49.706337 9.121993 10,925 135 363 1408
2019-10-12 19:44:22 GMT 49.713089 9.111897 10,800 135 360 1408
2019-10-12 19:44:19 GMT 49.713089 9.111897 10,800 135 360 1408
2019-10-12 19:44:16 GMT 49.719650 9.102173 10,675 135 356 1408
2019-10-12 19:44:10 GMT 49.724960 9.094230 10,525 136 351 1024
2019-10-12 19:44:07 GMT 49.726593 9.091765 10,500 135 350 960
2019-10-12 19:44:02 GMT 49.732864 9.082441 10,300 135 334 1984
2019-10-12 19:43:59 GMT 49.736298 9.077309 10,375 135 342 896
2019-10-12 19:43:56 GMT 49.739346 9.072703 10,400 135 340 960
2019-10-12 19:43:52 GMT 49.744839 9.064463 10,300 135 335 1536
2019-10-12 19:43:49 GMT 49.748188 9.059415 10,225 135 333 2112
2019-10-12 19:43:46 GMT 49.750809 9.055409 10,125 135 333 2240
2019-10-12 19:43:41 GMT 49.756756 9.046425 9,625 135 332 2304
2019-10-12 19:43:37 GMT 49.759918 9.041603 8,825 135 330 2368
2019-10-12 19:43:34 GMT 49.767426 9.030183 9,650 135 328 2368
2019-10-12 19:43:31 GMT 49.767426 9.030183 9,575 135 330 2368
2019-10-12 19:43:28 GMT 49.771317 9.024184 9,475 135 328 2368
2019-10-12 19:43:24 GMT 49.775421 9.017920 9,275 135 328 2432
2019-10-12 19:43:20 GMT 49.778587 9.013169 8,875 135 327 2560
2019-10-12 19:43:17 GMT 49.782032 9.007973 9,025 135 327 2560
2019-10-12 19:43:11 GMT 49.789581 8.996429 8,725 133 328 2496
2019-10-12 19:43:08 GMT 49.792191 8.992165 8,650 132 327 2432
2019-10-12 19:43:04 GMT 49.796139 8.985406 8,550 128 327 2432
2019-10-12 19:43:00 GMT 49.800842 8.976842 8,300 128 327 2432
2019-10-12 19:42:56 GMT 49.804596 8.969470 8,150 125 328 2560
2019-10-12 19:42:52 GMT 49.807217 8.964027 8,075 125 328 2560
2019-10-12 19:42:49 GMT 49.812149 8.952990 7,750 123 329 2560
2019-10-12 19:42:43 GMT 49.814667 8.946846 7,700 121 328 2496
2019-10-12 19:42:40 GMT 49.817093 8.940558 7,550 119 328 2432
2019-10-12 19:42:37 GMT 49.820618 8.931017 7,350 119 328 2176
2019-10-12 19:42:33 GMT 49.824860 8.919191 7,175 119 325 2240
2019-10-12 19:42:30 GMT 49.824860 8.919191 7,150 119 325 2240
2019-10-12 19:42:26 GMT 49.827805 8.911285 6,350 119 323 2432
2019-10-12 19:42:22 GMT 49.830460 8.903985 6,775 119 323 2624
2019-10-12 19:42:18 GMT 49.833755 8.894950 6,675 119 322 2624
2019-10-12 19:42:14 GMT 49.836452 8.887494 6,575 119 322 2688
2019-10-12 19:42:11 GMT 49.838688 8.881259 6,350 119 321 2688
2019-10-12 19:42:07 GMT 49.841537 8.873484 6,225 119 321 2688
2019-10-12 19:42:03 GMT 49.844971 8.864088 6,025 119 320 2688
2019-10-12 19:41:59 GMT 49.847855 8.856137 5,625 119 318 2752
2019-10-12 19:41:55 GMT 49.850922 8.847753 5,475 118 311 1792
2019-10-12 19:41:51 GMT 49.852844 8.842404 5,450 119 317 2752
2019-10-12 19:41:45 GMT 49.857075 8.830707 5,175 118 311 0
2019-10-12 19:41:42 GMT 49.859344 8.824624 5,175 119 316 2432
2019-10-12 19:41:38 GMT 49.862614 8.815563 4,975 119 313 2048
2019-10-12 19:41:33 GMT 49.866257 8.805397 4,700 118 310 1664
2019-10-12 19:41:29 GMT 49.869186 8.797230 4,700 118 309 1536
2019-10-12 19:41:25 GMT 49.871830 8.789731 4,600 118 304 1216
2019-10-12 19:41:20 GMT 49.874622 8.781936 4,525 119 302 1088
2019-10-12 19:41:17 GMT 49.876923 8.775546 4,450 119 296 1088
2019-10-12 19:41:13 GMT 49.881329 8.763304 4,375 119 294 960
2019-10-12 19:41:07 GMT 49.883701 8.756772 4,275 119 284 896
2019-10-12 19:41:03 GMT 49.886307 8.749598 4,250 119 284 896
2019-10-12 19:41:00 GMT 49.888870 8.742515 4,225 119 282 896
2019-10-12 19:40:57 GMT 49.890453 8.738139 4,175 119 278 1024
2019-10-12 19:40:52 GMT 49.893448 8.729866 4,075 118 274 1216
2019-10-12 19:40:48 GMT 49.895508 8.724012 4,000 119 269 1216
2019-10-12 19:40:44 GMT 49.897842 8.717579 3,950 119 263 1088
2019-10-12 19:40:40 GMT 49.900497 8.710279 3,875 119 266 1216
2019-10-12 19:40:36 GMT 49.903748 8.701172 3,725 119 261 960
2019-10-12 19:40:31 GMT 49.906185 8.694491 3,700 119 258 512
2019-10-12 19:40:28 GMT 49.908096 8.689221 3,675 119 255 384
2019-10-12 19:40:25 GMT 49.910797 8.681872 3,650 119 250 192
2019-10-12 19:40:19 GMT 49.912857 8.676164 3,625 119 221 512
2019-10-12 19:40:15 GMT 49.914799 8.670811 3,650 119 237 128
2019-10-12 19:40:12 GMT 49.918198 8.661309 3,625 119 229 576
2019-10-12 19:40:08 GMT 49.918198 8.661309 3,625 119 221 512
2019-10-12 19:40:05 GMT 49.920090 8.656070 3,550 119 215 512
2019-10-12 19:40:02 GMT 49.921364 8.652550 3,525 116 199 1088
2019-10-12 19:39:59 GMT 49.923038 8.647948 3,525 119 220 512
2019-10-12 19:39:56 GMT 49.924389 8.644310 3,500 119 217 576
2019-10-12 19:39:53 GMT 49.926579 8.638223 3,475 119 212 512
2019-10-12 19:39:48 GMT 49.928207 8.633843 3,175 118 205 1216
2019-10-12 19:39:45 GMT 49.930115 8.628647 3,300 119 208 960
2019-10-12 19:39:42 GMT 49.931305 8.625207 3,350 118 206 1024
2019-10-12 19:39:38 GMT 49.934509 8.616172 3,225 118 204 1216
2019-10-12 19:39:32 GMT 49.935841 8.612316 3,175 118 204 1152
2019-10-12 19:39:27 GMT 49.938034 8.605981 3,075 118 202 1280
2019-10-12 19:39:24 GMT 49.940506 8.598970 2,950 118 202 1280
2019-10-12 19:39:17 GMT 49.942963 8.592125 2,850 118 201 1152
2019-10-12 19:39:13 GMT 49.944443 8.587984 2,750 118 200 1152
2019-10-12 19:39:07 GMT 49.947105 8.580248 2,675 117 200 1216
2019-10-12 19:39:04 GMT 49.948132 8.577205 2,575 117 200 1152
2019-10-12 19:39:01 GMT 49.951767 8.565939 2,475 116 199 1088
2019-10-12 19:38:56 GMT 49.951767 8.565939 2,500 115 199 1088
2019-10-12 19:38:53 GMT 49.952972 8.562061 2,425 115 198 1344
2019-10-12 19:38:50 GMT 49.953716 8.559463 2,350 114 198 1408
2019-10-12 19:38:46 GMT 49.955719 8.552560 2,250 114 198 1472
2019-10-12 19:38:41 GMT 49.957722 8.546027 2,125 116 198 1408
2019-10-12 19:38:36 GMT 49.959862 8.539940 1,975 125 194 1600
2019-10-12 19:38:33 GMT 49.961426 8.536594 1,875 133 190 1600
2019-10-12 19:38:30 GMT 49.962749 8.534150 1,425 178 173 1216
2019-10-12 19:38:24 GMT 49.966660 8.528880 1,700 145 185 1344
2019-10-12 19:38:20 GMT 49.969620 8.526186 1,625 158 180 1216
2019-10-12 19:38:16 GMT 49.974758 8.523832 1,500 172 175 1216
2019-10-12 19:38:10 GMT 49.977722 8.523439 1,300 182 171 1728
2019-10-12 19:38:06 GMT 49.981323 8.523461 1,325 182 172 1728
2019-10-12 19:38:03 GMT 49.983322 8.523535 1,250 182 172 1600
2019-10-12 19:37:58 GMT 49.990353 8.523832 1,100 185 165 2496
2019-10-12 19:37:52 GMT 49.992645 8.523945 1,025 183 166 1472
2019-10-12 19:37:46 GMT 49.995850 8.524234 975 186 166 2560
2019-10-12 19:37:42 GMT 49.999336 8.524723 725 187 169 2432
2019-10-12 19:37:39 GMT 50.002396 8.525318 575 186 173 2112
2019-10-12 19:37:36 GMT 50.004318 8.525613 475 186 174 1984
2019-10-12 19:37:00 GMT 50.028603 8.525969 325 180 90
2019-10-12 19:36:09 GMT 50.033634 8.525966 0 90 4
2019-10-12 19:35:32 GMT 50.034119 8.526529 0 90 6
2019-10-12 19:35:01 GMT 50.034344 8.527618 0 90 4
2019-10-12 19:34:54 GMT 50.034332 8.527766 0 90 4
2019-10-12 19:34:42 GMT 50.034290 8.527975 0 90 5
2019-10-12 19:34:35 GMT 50.034218 8.528082 0 90 5
2019-10-12 19:34:18 GMT 50.033890 8.528193 0 90 7
2019-10-12 19:33:59 GMT 50.033443 8.528173 0 90 5
2019-10-12 19:33:53 GMT 50.033356 8.528174 0 90 4
2019-10-12 19:33:39 GMT 50.033157 8.528193 0 90 4
2019-10-12 19:33:31 GMT 50.033066 8.528193 0 90 4
2019-10-12 19:33:16 GMT 50.032810 8.528193 0 90 6
2019-10-12 19:33:09 GMT 50.032646 8.528193 0 0 8
2019-10-12 19:32:59 GMT 50.032261 8.528211 0 0 8
2019-10-12 19:31:33 GMT 50.031750 8.528193 0 90 0
2019-10-12 19:31:20 GMT 50.031715 8.528191 0 90 7
2019-10-12 19:31:09 GMT 50.031532 8.528191 0 90 7
2019-10-12 19:31:04 GMT 50.031326 8.528209 0 0 12
2019-10-12 19:30:52 GMT 50.030655 8.528211 0 0 14
2019-10-12 19:30:43 GMT 50.030121 8.528230 0 0 13
2019-10-12 19:30:04 GMT 50.028328 8.528230 0 90 6
2019-10-12 19:28:14 GMT 50.027981 8.528230 0 90 3
2019-10-12 19:27:26 GMT 50.027412 8.528246 0 90 5
2019-10-12 19:27:17 GMT 50.027206 8.528246 0 90 6
2019-10-12 19:27:06 GMT 50.026909 8.528249 0 90 7
2019-10-12 19:26:55 GMT 50.026554 8.528246 0 0 9
2019-10-12 19:26:45 GMT 50.026115 8.528249 0 0 10
2019-10-12 19:26:33 GMT 50.025639 8.528286 0 354 9
2019-10-12 19:26:04 GMT 50.024780 8.528607 0 90 8
2019-10-12 19:26:01 GMT 50.024708 8.528713 0 90 8
2019-10-12 19:25:51 GMT 50.024448 8.529239 0 303 12
2019-10-12 19:25:47 GMT 50.024361 8.529455 0 300 12
2019-10-12 19:25:36 GMT 50.024117 8.530160 0 289 11
2019-10-12 19:25:30 GMT 50.024048 8.530595 0 272 9
2019-10-12 19:25:26 GMT 50.024048 8.530793 0 255 9
2019-10-12 19:25:21 GMT 50.024082 8.531119 0 255 8
2019-10-12 19:25:10 GMT 50.024197 8.531625 0 247 8
2019-10-12 19:25:06 GMT 50.024254 8.531867 0 250 9
2019-10-12 19:24:44 GMT 50.024540 8.533034 0 250 8
2019-10-12 19:24:33 GMT 50.024662 8.533556 0 250 8
2019-10-12 19:24:27 GMT 50.024757 8.533956 0 250 12
2019-10-12 19:24:17 GMT 50.024906 8.534577 0 250 11
2019-10-12 19:24:04 GMT 50.025105 8.535449 0 250 11
2019-10-12 19:23:56 GMT 50.025291 8.536173 0 250 13
2019-10-12 19:23:42 GMT 50.025524 8.537194 0 247 12
2019-10-12 19:23:34 GMT 50.025684 8.537843 0 250 15
2019-10-12 19:23:18 GMT 50.025982 8.539069 0 250 15
2019-10-12 19:23:10 GMT 50.026142 8.539774 0 250 13
2019-10-12 19:23:00 GMT 50.026360 8.540641 0 250 15
2019-10-12 19:22:51 GMT 50.026543 8.541455 0 250 14
2019-10-12 19:22:39 GMT 50.026760 8.542466 0 255 12
2019-10-12 19:22:22 GMT 50.026989 8.543782 0 250 11
2019-10-12 19:22:18 GMT 50.027069 8.544093 0 250 11
2019-10-12 19:22:05 GMT 50.027260 8.544895 0 250 9
2019-10-12 19:21:56 GMT 50.027374 8.545359 0 250 9
2019-10-12 19:21:42 GMT 50.027584 8.546261 0 90 6
2019-10-12 19:21:26 GMT 50.027828 8.547178 0 90 6
2019-10-12 19:21:15 GMT 50.027954 8.547586 0 90 8
2019-10-12 19:21:12 GMT 50.027985 8.547689 0 90 5
2019-10-12 19:21:02 GMT 50.028084 8.547939 0 90 4
2019-10-12 19:20:46 GMT 50.028294 8.548249 0 90 6
2019-10-12 19:20:29 GMT 50.028728 8.548339 0 90 7
2019-10-12 19:20:14 GMT 50.029060 8.548592 0 90 7
2019-10-12 19:20:03 GMT 50.029190 8.548978 0 90 6
2019-10-12 19:18:45 GMT 50.030354 8.553868 0 250 12
2019-10-12 19:18:41 GMT 50.030411 8.554137 0 250 12
2019-10-12 19:18:32 GMT 50.030586 8.554861 0 250 11
2019-10-12 19:18:20 GMT 50.030766 8.555603 0 250 11
2019-10-12 19:18:10 GMT 50.030926 8.556272 0 250 10
2019-10-12 19:17:58 GMT 50.031097 8.556994 0 250 14
2019-10-12 19:17:49 GMT 50.031273 8.557719 0 250 12
2019-10-12 19:17:32 GMT 50.031551 8.558906 0 250 11
2019-10-12 19:17:27 GMT 50.031647 8.559307 0 250 12
2019-10-12 19:17:18 GMT 50.031796 8.559927 0 250 11
2019-10-12 19:17:07 GMT 50.031990 8.560717 0 250 13
2019-10-12 19:16:56 GMT 50.032185 8.561530 0 250 12
2019-10-12 19:16:50 GMT 50.032310 8.562043 0 250 12
2019-10-12 19:16:24 GMT 50.032692 8.563676 0 250 13
2019-10-12 19:16:14 GMT 50.032894 8.564511 0 250 13
2019-10-12 19:15:52 GMT 50.033264 8.566051 0 250 9
2019-10-12 19:15:49 GMT 50.033321 8.566274 0 250 9
2019-10-12 19:15:46 GMT 50.033352 8.566427 0 253 9
2019-10-12 19:15:41 GMT 50.033398 8.566644 0 253 8
2019-10-12 19:15:33 GMT 50.033470 8.567090 0 90 7
2019-10-12 19:15:16 GMT 50.033470 8.567647 0 90 6
2019-10-12 19:15:09 GMT 50.033379 8.567851 0 90 6
2019-10-12 19:15:00 GMT 50.033180 8.568055 0 90 7
2019-10-12 19:14:47 GMT 50.032894 8.568234 0 90 7
2019-10-12 19:14:40 GMT 50.032658 8.568371 0 90 7
2019-10-12 19:14:28 GMT 50.032185 8.568649 0 340 8
2019-10-12 19:14:17 GMT 50.031624 8.568965 0 340 10
2019-10-12 19:14:04 GMT 50.031624 8.568965 0 340 10
2019-10-12 19:13:55 GMT 50.031258 8.569173 0 340 9
2019-10-12 19:13:46 GMT 50.030914 8.569390 0 90 8
2019-10-12 19:13:40 GMT 50.030830 8.569429 0 90 7
2019-10-12 19:13:32 GMT 50.030609 8.569559 0 340 8
2019-10-12 19:13:27 GMT 50.030434 8.569661 0 340 9
2019-10-12 19:13:23 GMT 50.030296 8.569744 0 340 8
2019-10-12 19:13:12 GMT 50.029945 8.569930 0 90 7
2019-10-12 19:13:04 GMT 50.029736 8.570041 0 90 7
2019-10-12 19:12:53 GMT 50.029491 8.570190 0 90 5
2019-10-12 19:12:43 GMT 50.029305 8.570301 0 90 4
2019-10-12 19:12:33 GMT 50.029175 8.570384 0 90 3
2019-10-12 19:12:20 GMT 50.029072 8.570456 0 90 2
2019-10-12 19:12:09 GMT 50.029037 8.570456 0 90 0
2019-10-12 19:11:14 GMT 50.029037 8.570468 0 90 0

Making use of Plane Finder data

You are free to use the raw flight data, aircraft information and images provided in this report for your own purposes provided the data is correctly attributed to Plane Finder. We ask that you please credit Plane Finder and link to planefinder.net in close proximity to the content.

Optionally one of the following logos (no smaller then 150x24px) can be used and must link to planefinder.net

Embedding the Plane Finder map

You are welcome to embed the Plane Finder playback map on your website to offer visitors a more interactive experience. We suggest using the following HTML code:

<iframe src="//planefinder.net/data/report/SV914-HZ-AI3-7700-squawk-2019-10-12/map" width="800" height="600" seamless="seamless"></iframe>

Where our data comes from

Plane Finder has a global network of data feeds and antenna radars that receive data broadcast directly from aircraft. The primary technologies used are ADS-B and MLAT. We also show feeds from the FAA and a FLARM glider feed.

Click here to find out more about the Plane Finder network.

How we collect our data